ftp/pub/palmer/observations_modified/2019/November/AR191129_BASE.txt

Download

Sample DateTime	Unit Id	WS Avg 2min	WD Avg 2min	WGS 10min	WGD 10min	Air Temp	Rel Humidity	Dew Point	Pyranometer	Quantum	Air Pressure	Snow Level	Rainfall	PW Current	Visibility	CBase 1	CBase 2	CBase 3	Vert Vis
2019/11/29 00:00:01	BASE	1.30	11	1.59	9	5.2	69	-0.0	47	0	998.6	NA	0.0000		9999	17290	0	0	0
2019/11/29 00:01:01	BASE	0.71	3	1.59	9	5.2	69	0.0	46	0	998.6	NA	0.0000		9999	6040	17290	0	0
2019/11/29 00:02:01	BASE	0.14	357	1.59	9	5.2	69	0.0	45	0	998.6	NA	0.0000		9999	17230	0	0	0
2019/11/29 00:03:01	BASE	0.00	1	1.59	9	5.2	69	0.0	44	0	998.6	NA	0.0000		9999	6000	0	0	0
2019/11/29 00:04:01	BASE	0.00	7	1.59	9	5.2	69	0.0	43	0	998.6	NA	0.0000		9999	5970	0	0	0
2019/11/29 00:05:01	BASE	0.52	11	1.59	9	5.2	69	0.1	42	0	998.6	NA	0.0000		9999	5940	0	0	0
2019/11/29 00:06:02	BASE	0.88	14	1.59	9	5.2	69	0.0	41	0	998.6	NA	0.0000		9999	5940	0	0	0
2019/11/29 00:07:02	BASE	0.73	16	1.54	8	5.2	69	-0.0	40	0	998.5	NA	0.0000		9999	5940	0	0	0
2019/11/29 00:08:02	BASE	0.90	21	1.54	8	5.2	69	-0.0	39	0	998.5	NA	0.0000		9999	5970	0	0	0
2019/11/29 00:09:02	BASE	1.21	29	1.49	35	5.2	69	-0.0	38	0	998.5	NA	0.0000		9999	5940	0	0	0
2019/11/29 00:10:02	BASE	1.36	33	1.49	38	5.2	69	-0.0	37	0	998.5	NA	0.0000		9999	5910	0	0	0
2019/11/29 00:11:03	BASE	1.36	36	1.49	38	5.2	69	0.1	36	0	998.5	NA	0.0000		9999	5910	0	0	0
2019/11/29 00:12:02	BASE	1.49	40	1.75	46	5.3	69	0.1	36	0	998.5	NA	0.0000		9999	5910	0	0	0
2019/11/29 00:13:02	BASE	1.73	46	1.95	53	5.2	69	0.1	35	0	998.5	NA	0.0000		9999	5910	0	0	0
2019/11/29 00:14:02	BASE	1.79	52	1.95	53	5.2	69	0.0	34	0	998.5	NA	0.0000		9999	5910	0	0	0
2019/11/29 00:15:02	BASE	1.70	49	1.95	53	5.2	69	0.0	33	0	998.5	NA	0.0000		9999	5870	0	0	0
2019/11/29 00:16:01	BASE	1.62	47	1.95	53	5.2	69	-0.0	33	0	998.5	NA	0.0000		9999	5870	0	0	0
2019/11/29 00:17:01	BASE	1.66	47	1.95	53	5.2	69	0.0	32	0	998.5	NA	0.0000		9999	5840	0	0	0
2019/11/29 00:18:02	BASE	1.70	43	2.06	50	5.3	69	0.1	31	0	998.5	NA	0.0000		9999	5840	0	0	0
2019/11/29 00:19:01	BASE	1.66	41	2.06	50	5.3	69	0.1	31	0	998.5	NA	0.0000		9999	5810	0	0	0
2019/11/29 00:20:01	BASE	1.68	40	2.06	50	5.4	68	0.1	30	0	998.5	NA	0.0000		9999	5840	0	0	0
2019/11/29 00:21:02	BASE	1.67	43	2.06	50	5.6	68	0.1	29	0	998.5	NA	0.0000		9999	5910	0	0	0
2019/11/29 00:22:01	BASE	1.69	40	2.06	50	5.6	67	-0.0	29	0	998.5	NA	0.0000		9999	5870	0	0	0
2019/11/29 00:23:02	BASE	1.70	41	2.06	50	5.7	66	-0.1	28	0	998.4	NA	0.0000		9999	5870	0	0	0
2019/11/29 00:24:02	BASE	1.61	47	2.06	50	5.8	66	-0.2	27	0	998.4	NA	0.0000		9999	5910	0	0	0
2019/11/29 00:25:01	BASE	1.60	43	2.06	50	5.8	65	-0.2	27	0	998.4	NA	0.0000		9999	5840	0	0	0
2019/11/29 00:26:01	BASE	1.53	38	2.06	50	5.9	65	-0.3	26	0	998.4	NA	0.0000		9999	5870	0	0	0
2019/11/29 00:27:01	BASE	1.48	36	2.06	50	5.9	65	-0.3	25	0	998.4	NA	0.0000		9999	5870	0	0	0
2019/11/29 00:28:01	BASE	1.54	39	1.95	35	5.9	65	-0.2	25	0	998.4	NA	0.0000		9999	5910	0	0	0
2019/11/29 00:29:01	BASE	1.70	45	2.11	38	5.9	65	-0.2	24	0	998.4	NA	0.0000		9999	5870	0	0	0
2019/11/29 00:30:01	BASE	1.70	43	2.11	38	5.9	65	-0.2	24	0	998.4	NA	0.0000		9999	5870	0	0	0
2019/11/29 00:31:01	BASE	1.59	35	2.11	38	5.9	65	-0.2	23	0	998.4	NA	0.0000		9999	5870	0	0	0
2019/11/29 00:32:01	BASE	1.57	27	2.11	38	5.9	65	-0.1	23	0	998.4	NA	0.0000		9999	5840	0	0	0
2019/11/29 00:33:01	BASE	1.49	19	2.11	38	5.8	65	-0.2	22	0	998.4	NA	0.0000		9999	5840	0	0	0
2019/11/29 00:34:01	BASE	1.61	21	2.11	38	5.8	65	-0.2	22	0	998.4	NA	0.0000		9999	5840	0	0	0
2019/11/29 00:35:01	BASE	1.71	24	2.11	38	5.8	65	-0.3	21	0	998.4	NA	0.0000		9999	5840	0	0	0
2019/11/29 00:36:02	BASE	1.63	22	2.11	38	5.8	65	-0.3	21	0	998.4	NA	0.0000		9999	5810	0	0	0
2019/11/29 00:37:01	BASE	1.54	19	2.11	38	5.8	64	-0.4	20	0	998.4	NA	0.0000		9999	5770	0	0	0
2019/11/29 00:38:01	BASE	1.47	19	2.11	38	5.8	64	-0.4	20	0	998.4	NA	0.0000		9999	5810	0	0	0
2019/11/29 00:39:01	BASE	1.47	19	2.01	29	5.8	64	-0.4	19	0	998.4	NA	0.0000		9999	5810	0	0	0
2019/11/29 00:40:01	BASE	1.37	19	2.01	29	5.8	64	-0.4	19	0	998.4	NA	0.0000		9999	5840	0	0	0
2019/11/29 00:41:01	BASE	1.26	20	2.01	29	5.8	64	-0.4	18	0	998.4	NA	0.0000		9999	5810	0	0	0
2019/11/29 00:42:00	BASE	1.19	21	2.01	29	5.8	65	-0.4	18	0	998.4	NA	0.0000		9999	5840	0	0	0
2019/11/29 00:43:01	BASE	1.20	23	2.01	29	5.8	65	-0.4	18	0	998.4	NA	0.0000		9999	5810	0	0	0
2019/11/29 00:44:01	BASE	1.33	20	1.90	28	5.7	65	-0.4	17	0	998.4	NA	0.0000		9999	5810	0	0	0
2019/11/29 00:45:01	BASE	1.49	20	1.75	22	5.7	65	-0.4	17	0	998.4	NA	0.0000		9999	5770	0	0	0
2019/11/29 00:46:01	BASE	1.61	25	1.75	29	5.6	65	-0.4	17	0	998.4	NA	0.0000		9999	5770	0	0	0
2019/11/29 00:47:01	BASE	1.64	25	1.75	20	5.6	66	-0.4	16	0	998.4	NA	0.0000		9999	5770	0	0	0
2019/11/29 00:48:00	BASE	1.58	21	1.75	26	5.5	66	-0.4	16	0	998.4	NA	0.0000		9999	5810	0	0	0
2019/11/29 00:49:01	BASE	1.46	20	1.75	26	5.4	66	-0.3	16	0	998.4	NA	0.0000		9999	5840	0	0	0
2019/11/29 00:50:01	BASE	1.42	24	1.75	26	5.4	67	-0.2	16	0	998.4	NA	0.0000		9999	5770	0	0	0
2019/11/29 00:51:01	BASE	1.51	29	1.75	31	5.4	67	-0.2	15	0	998.4	NA	0.0000		9999	5910	0	0	0
2019/11/29 00:52:01	BASE	1.48	32	1.75	31	5.4	68	-0.1	15	0	998.3	NA	0.0000		9999	5870	16960	0	0
2019/11/29 00:53:01	BASE	1.48	34	1.75	33	5.4	68	-0.1	15	0	998.4	NA	0.0000		9999	5870	0	0	0
2019/11/29 00:54:01	BASE	1.55	39	1.75	41	5.4	68	-0.1	15	0	998.3	NA	0.0000		9999	5870	17090	0	0
2019/11/29 00:55:01	BASE	1.36	44	1.75	41	5.4	68	-0.0	15	0	998.3	NA	0.0000		9999	5870	17030	0	0
2019/11/29 00:56:01	BASE	1.05	39	1.75	41	5.4	68	-0.0	14	0	998.3	NA	0.0000		9999	5910	0	0	0
2019/11/29 00:57:02	BASE	1.04	38	1.75	41	5.4	68	-0.1	14	0	998.3	NA	0.0000		9999	5870	0	0	0
2019/11/29 00:58:01	BASE	0.97	37	1.75	41	5.4	68	-0.1	14	0	998.3	NA	0.0000		9999	5870	16930	0	0
2019/11/29 00:59:02	BASE	1.08	29	1.75	41	5.5	68	-0.1	13	0	998.3	NA	0.0000		9999	5870	17060	0	0
2019/11/29 01:00:01	BASE	1.34	31	1.75	41	5.5	67	-0.1	13	0	998.3	NA	0.0000		9999	5840	17090	0	0
2019/11/29 01:01:01	BASE	1.28	32	1.75	41	5.5	67	-0.1	13	0	998.3	NA	0.0000		9999	5910	17090	0	0
2019/11/29 01:02:01	BASE	1.09	31	1.75	41	5.5	67	-0.1	12	0	998.3	NA	0.0000		9999	5910	16960	0	0
2019/11/29 01:03:01	BASE	1.06	27	1.75	41	5.5	67	-0.1	12	0	998.3	NA	0.0000		9999	5910	16930	0	0
2019/11/29 01:04:02	BASE	1.25	21	1.70	57	5.5	67	-0.2	12	0	998.3	NA	0.0000		9999	5940	16830	0	0
2019/11/29 01:05:01	BASE	1.22	20	1.65	39	5.5	66	-0.3	11	0	998.3	NA	0.0000		9999	5940	16900	0	0
2019/11/29 01:06:01	BASE	1.01	27	1.65	39	5.5	66	-0.3	11	0	998.3	NA	0.0000		9999	5840	16860	0	0
2019/11/29 01:07:01	BASE	1.19	26	1.75	6	5.5	66	-0.3	11	0	998.3	NA	0.0000		9999	5640	16800	0	0
2019/11/29 01:08:01	BASE	1.50	17	1.75	6	5.5	67	-0.2	10	0	998.3	NA	0.0000		9999	5870	16730	0	0
2019/11/29 01:09:01	BASE	1.45	15	1.75	6	5.5	67	-0.2	10	0	998.3	NA	0.0000		9999	5640	16900	0	0
2019/11/29 01:10:02	BASE	1.33	15	1.75	6	5.5	67	-0.2	10	0	998.3	NA	0.0000		9999	5910	16900	0	0
2019/11/29 01:11:02	BASE	0.91	14	1.75	6	5.5	66	-0.3	9	0	998.3	NA	0.0000		9999	5940	16900	0	0
2019/11/29 01:12:00	BASE	0.91	11	1.75	6	5.6	66	-0.4	9	0	998.3	NA	0.0000		9999	5940	16770	0	0
2019/11/29 01:13:01	BASE	1.23	17	1.75	6	5.6	65	-0.4	9	0	998.3	NA	0.0000		9999	16900	0	0	0
2019/11/29 01:14:01	BASE	1.17	24	1.75	6	5.7	65	-0.5	9	0	998.3	NA	0.0000		9999	16900	0	0	0
2019/11/29 01:15:01	BASE	0.88	26	1.75	6	5.7	64	-0.5	8	0	998.3	NA	0.0000		9999	16860	0	0	0
2019/11/29 01:16:01	BASE	0.60	25	1.75	6	5.7	64	-0.5	8	0	998.3	NA	0.0000		9999	16830	0	0	0
2019/11/29 01:17:01	BASE	0.28	15	1.70	3	5.7	65	-0.5	8	0	998.3	NA	0.0000		9999	16930	0	0	0
2019/11/29 01:18:01	BASE	0.00	6	1.70	3	5.6	65	-0.5	8	0	998.3	NA	0.0000		9999	16860	0	0	0
2019/11/29 01:19:02	BASE	0.00	351	1.70	3	5.6	65	-0.5	8	0	998.3	NA	0.0000		9999	17000	0	0	0
2019/11/29 01:20:01	BASE	1.01	293	2.52	268	5.4	65	-0.7	7	0	998.3	NA	0.0000		9999	16900	0	0	0
2019/11/29 01:21:01	BASE	1.38	279	2.52	268	5.0	66	-0.8	7	0	998.3	NA	0.0000		9999	16860	0	0	0
2019/11/29 01:22:01	BASE	1.65	284	2.83	274	4.6	68	-0.8	7	0	998.3	NA	0.0000		9999	16900	0	0	0
2019/11/29 01:23:02	BASE	2.32	282	2.83	274	4.2	71	-0.7	7	0	998.3	NA	0.0000		9999	16830	0	0	0
2019/11/29 01:24:01	BASE	2.35	283	3.04	281	3.6	74	-0.7	6	0	998.3	NA	0.0000		9999	16960	0	0	0
2019/11/29 01:25:01	BASE	2.47	288	3.04	281	3.3	76	-0.4	6	0	998.3	NA	0.0000		9999	16900	0	0	0
2019/11/29 01:26:02	BASE	2.40	290	3.04	276	3.1	78	-0.3	6	0	998.3	NA	0.0000		9999	16900	0	0	0
2019/11/29 01:27:02	BASE	2.48	286	3.04	276	2.9	79	-0.3	6	0	998.3	NA	0.0000		9999	16800	0	0	0
2019/11/29 01:28:02	BASE	2.21	292	3.04	276	2.7	81	-0.3	5	0	998.3	NA	0.0000		9999	16860	0	0	0
2019/11/29 01:29:02	BASE	1.86	298	3.04	276	2.6	82	-0.2	5	0	998.3	NA	0.0000		9999	16900	0	0	0
2019/11/29 01:30:02	BASE	1.82	298	3.04	276	2.5	83	-0.1	5	0	998.3	NA	0.0000		9999	16830	0	0	0
2019/11/29 01:31:02	BASE	1.89	296	3.04	276	2.4	85	0.1	5	0	998.3	NA	0.0000		9999	16770	0	0	0
2019/11/29 01:32:01	BASE	2.03	289	3.04	276	2.3	87	0.3	5	0	998.3	NA	0.0000		9999	16900	0	0	0
2019/11/29 01:33:01	BASE	2.23	278	3.04	276	2.3	88	0.5	6	0	998.3	NA	0.0000		9999	16900	0	0	0
2019/11/29 01:34:01	BASE	2.14	273	3.04	276	2.2	90	0.7	6	0	998.3	NA	0.0000		9999	16730	0	0	0
2019/11/29 01:35:02	BASE	1.92	274	3.04	276	2.1	91	0.8	6	0	998.3	NA	0.0000		9999	16730	0	0	0
2019/11/29 01:36:01	BASE	1.75	270	2.68	283	2.0	92	0.9	7	0	998.3	NA	0.0000		9999	16770	0	0	0
2019/11/29 01:37:02	BASE	1.74	263	2.62	280	1.9	93	0.9	8	0	998.3	NA	0.0000		9999	16830	0	0	0
2019/11/29 01:38:02	BASE	1.90	261	2.62	280	1.8	94	1.0	8	0	998.3	NA	0.0000		9999	16860	0	0	0
2019/11/29 01:39:02	BASE	1.94	257	2.62	280	1.7	96	1.1	8	0	998.3	NA	0.0000		9999	16960	0	0	0
2019/11/29 01:40:01	BASE	1.90	243	2.62	280	1.7	97	1.2	8	0	998.3	NA	0.0000		9999	16830	0	0	0
2019/11/29 01:41:01	BASE	1.62	221	2.62	280	1.6	98	1.3	8	0	998.3	NA	0.0000		9999	16900	0	0	0
2019/11/29 01:42:01	BASE	1.46	210	2.52	278	1.5	99	1.4	8	0	998.3	NA	0.0000		9999	16960	0	0	0
2019/11/29 01:43:01	BASE	1.41	217	2.26	262	1.5	99	1.4	8	0	998.3	NA	0.0000		9999	16830	0	0	0
2019/11/29 01:44:02	BASE	1.28	219	2.26	262	1.5	100	1.5	8	0	998.3	NA	0.0000		9999	16730	0	0	0
2019/11/29 01:45:02	BASE	1.05	218	2.26	262	1.5	100	1.5	8	0	998.3	NA	0.0000		9999	16800	0	0	0
2019/11/29 01:46:01	BASE	0.80	218	2.26	262	1.5	100	1.5	8	0	998.3	NA	0.0000		9999	16930	0	0	0
2019/11/29 01:47:02	BASE	0.96	219	2.21	242	1.5	100	1.5	8	0	998.3	NA	0.0000		9999	17000	0	0	0
2019/11/29 01:48:02	BASE	1.30	212	2.21	242	1.5	100	1.5	7	0	998.3	NA	0.0000		9999	17130	0	0	0
2019/11/29 01:49:01	BASE	1.44	205	2.21	242	1.4	100	1.4	7	0	998.3	NA	0.0000		9999	16930	0	0	0
2019/11/29 01:50:01	BASE	1.49	204	1.85	214	1.4	100	1.4	7	0	998.3	NA	0.0000		9999	16900	0	0	0
2019/11/29 01:51:01	BASE	1.47	207	1.85	214	1.3	100	1.3	7	0	998.3	NA	0.0000		9999	16900	0	0	0
2019/11/29 01:52:00	BASE	1.40	207	1.85	214	1.3	100	1.3	7	0	998.3	NA	0.0000		9999	17030	0	0	0
2019/11/29 01:53:01	BASE	1.44	206	1.85	214	1.2	100	1.2	7	0	998.3	NA	0.0000		9999	17060	0	0	0
2019/11/29 01:54:01	BASE	1.52	211	1.85	214	1.2	100	1.2	6	0	998.3	NA	0.0000		9999	17130	0	0	0
2019/11/29 01:55:01	BASE	1.51	208	1.85	214	1.2	100	1.2	6	0	998.2	NA	0.0000		9999	17090	0	0	0
2019/11/29 01:56:01	BASE	1.21	202	1.85	214	1.2	100	1.2	6	0	998.2	NA	0.0000		9999	17090	0	0	0
2019/11/29 01:57:00	BASE	1.09	197	1.85	214	1.1	100	1.1	6	0	998.2	NA	0.0000		9999	17060	0	0	0
2019/11/29 01:58:00	BASE	1.04	197	1.85	214	1.1	100	1.1	6	0	998.2	NA	0.0000		9999	17030	0	0	0
2019/11/29 01:59:01	BASE	0.50	200	1.85	214	1.0	100	1.0	6	0	998.2	NA	0.0000		9999	17090	0	0	0
2019/11/29 02:00:01	BASE	0.27	208	1.85	214	1.0	100	1.0	5	0	998.2	NA	0.0000		9999	17090	0	0	0
2019/11/29 02:01:01	BASE	0.72	210	1.85	214	1.0	100	1.0	5	0	998.2	NA	0.0000		9999	17030	0	0	0
2019/11/29 02:02:01	BASE	0.58	202	1.85	214	1.0	100	1.0	5	0	998.2	NA	0.0000		9999	17090	0	0	0
2019/11/29 02:03:01	BASE	0.19	193	1.85	214	0.9	100	0.9	5	0	998.2	NA	0.0000		9999	17130	0	0	0
2019/11/29 02:04:01	BASE	0.14	183	1.85	214	0.9	100	0.9	5	0	998.2	NA	0.0000		9999	17130	0	0	0
2019/11/29 02:05:01	BASE	0.00	178	1.75	206	0.9	100	0.9	5	0	998.2	NA	0.0000		9999	17130	0	0	0
2019/11/29 02:06:01	BASE	0.11	162	1.75	206	0.9	100	0.9	5	0	998.2	NA	0.0000		9999	17160	0	0	0
2019/11/29 02:07:01	BASE	0.11	147	1.54	203	0.9	100	0.9	4	0	998.2	NA	0.0000		9999	17060	0	0	0
2019/11/29 02:08:01	BASE	0.00	139	1.39	146	1.0	100	1.0	4	0	998.2	NA	0.0000		9999	17130	0	0	0
2019/11/29 02:09:01	BASE	0.00	134	1.39	146	1.1	100	1.1	4	0	998.2	NA	0.0000		9999	12730	17060	0	0
2019/11/29 02:10:01	BASE	0.00	142	1.39	146	1.2	100	1.2	4	0	998.2	NA	0.0000		9999	17160	0	0	0
2019/11/29 02:11:02	BASE	0.00	124	1.39	146	1.2	100	1.2	4	0	998.2	NA	0.0000		9999	13120	17060	0	0
2019/11/29 02:12:00	BASE	0.00	75	1.39	146	1.3	100	1.3	4	0	998.1	NA	0.0000		9999	17000	0	0	0
2019/11/29 02:13:01	BASE	0.00	67	1.39	146	1.3	100	1.3	3	0	998.1	NA	0.0000		9999	17060	0	0	0
2019/11/29 02:14:01	BASE	0.00	69	1.39	146	1.3	100	1.3	3	0	998.0	NA	0.0000		9999	17030	0	0	0
2019/11/29 02:15:01	BASE	0.00	67	1.39	146	1.4	100	1.4	3	0	998.0	NA	0.0000		9999	13220	17130	0	0
2019/11/29 02:16:01	BASE	0.00	51	M	M	1.5	100	1.5	3	0	998.0	NA	0.0000		9999	12630	17160	0	0
2019/11/29 02:17:00	BASE	0.14	36	1.18	32	1.5	100	1.5	3	0	998.0	NA	0.0000		9999	17030	0	0	0
2019/11/29 02:18:00	BASE	0.64	37	1.29	40	1.5	100	1.5	3	0	998.0	NA	0.0000		9999	17160	0	0	0
2019/11/29 02:19:01	BASE	0.84	42	1.29	44	1.5	100	1.5	3	0	998.0	NA	0.0000		9999	17090	0	0	0
2019/11/29 02:20:01	BASE	0.34	43	1.29	44	1.4	100	1.4	2	0	998.0	NA	0.0000		9999	17090	0	0	0
2019/11/29 02:21:01	BASE	0.00	38	1.29	44	1.3	100	1.3	2	0	998.0	NA	0.0000		9999	13260	17090	0	0
2019/11/29 02:22:00	BASE	0.00	34	1.29	44	1.3	100	1.3	2	0	998.0	NA	0.0000		9999	12570	17090	0	0
2019/11/29 02:23:01	BASE	0.00	29	1.29	44	1.2	100	1.2	2	0	997.9	NA	0.0000		9999	12400	17060	0	0
2019/11/29 02:24:01	BASE	0.00	21	1.29	44	1.2	100	1.2	2	0	997.9	NA	0.0000		9999	17090	0	0	0
2019/11/29 02:25:01	BASE	0.00	19	1.29	44	1.2	100	1.2	2	0	997.9	NA	0.0000		9999	17000	0	0	0
2019/11/29 02:26:01	BASE	0.00	28	1.29	44	1.3	100	1.3	2	0	997.9	NA	0.0000		9999	17090	0	0	0
2019/11/29 02:27:01	BASE	0.00	39	1.29	44	1.3	100	1.3	2	0	997.9	NA	0.0000		9999	17060	0	0	0
2019/11/29 02:28:00	BASE	0.09	43	1.29	44	1.3	100	1.3	2	0	997.9	NA	0.0000		9999	17000	0	0	0
2019/11/29 02:29:01	BASE	0.14	45	1.13	33	1.3	100	1.3	2	0	997.9	NA	0.0000		9999	17160	0	0	0
2019/11/29 02:30:01	BASE	0.63	43	1.23	42	1.3	100	1.3	2	0	997.9	NA	0.0000		9999	17030	0	0	0
2019/11/29 02:31:01	BASE	1.14	42	1.34	46	1.4	100	1.4	2	0	997.8	NA	0.0000		9999	17060	0	0	0
2019/11/29 02:32:00	BASE	0.88	41	1.34	46	1.4	100	1.4	2	0	997.8	NA	0.0000		9999	17030	0	0	0
2019/11/29 02:33:03	BASE	0.42	41	1.34	46	1.4	100	1.4	2	0	997.8	NA	0.0000		9999	17030	0	0	0
2019/11/29 02:34:02	BASE	0.09	47	1.34	46	1.4	100	1.4	2	0	997.8	NA	0.0000		9999	16960	0	0	0
2019/11/29 02:35:03	BASE	0.18	54	1.34	46	1.4	100	1.4	1	0	997.8	NA	0.0000		9999	17060	0	0	0
2019/11/29 02:36:02	BASE	0.72	59	1.44	68	1.3	100	1.3	1	0	997.8	NA	0.0000		9999	17090	0	0	0
2019/11/29 02:37:02	BASE	1.04	64	1.44	68	1.3	100	1.3	1	0	997.8	NA	0.0000		9999	17060	0	0	0
2019/11/29 02:38:01	BASE	1.11	70	1.44	68	1.3	100	1.3	1	0	997.8	NA	0.0000		9999	17090	0	0	0
2019/11/29 02:39:02	BASE	0.84	69	1.44	68	1.3	100	1.3	1	0	997.8	NA	0.0000		9999	17060	0	0	0
2019/11/29 02:40:02	BASE	0.67	67	1.44	68	1.4	100	1.4	1	0	997.8	NA	0.0000		9999	17060	0	0	0
2019/11/29 02:41:02	BASE	0.68	66	1.44	68	1.4	100	1.4	1	0	997.8	NA	0.0000		9999	17030	0	0	0
2019/11/29 02:42:02	BASE	0.32	72	1.44	68	1.4	100	1.4	1	0	997.8	NA	0.0000		9999	17090	0	0	0
2019/11/29 02:43:01	BASE	0.09	85	1.44	68	1.4	100	1.4	1	0	997.8	NA	0.0000		9999	17030	0	0	0
2019/11/29 02:44:01	BASE	0.00	90	1.44	68	1.5	100	1.5	1	0	997.8	NA	0.0000		9999	17030	0	0	0
2019/11/29 02:45:02	BASE	0.00	90	1.44	68	1.5	100	1.5	1	0	997.8	NA	0.0000		9999	17060	0	0	0
2019/11/29 02:46:01	BASE	0.00	87	1.34	68	1.5	100	1.5	1	0	997.8	NA	0.0000		9999	17030	0	0	0
2019/11/29 02:47:02	BASE	0.00	81	1.34	68	1.5	100	1.5	1	0	997.8	NA	0.0000		9999	17030	0	0	0
2019/11/29 02:48:01	BASE	0.00	78	1.29	65	1.5	100	1.5	1	0	997.8	NA	0.0000		9999	17000	0	0	0
2019/11/29 02:49:01	BASE	0.00	83	1.29	65	1.5	100	1.5	1	0	997.8	NA	0.0000		9999	17060	0	0	0
2019/11/29 02:50:01	BASE	0.00	85	1.29	65	1.5	100	1.5	1	0	997.8	NA	0.0000		9999	17060	0	0	0
2019/11/29 02:51:01	BASE	0.00	88	1.08	80	1.6	100	1.6	1	0	997.8	NA	0.0000		9999	17000	0	0	0
2019/11/29 02:52:01	BASE	0.00	105	M	M	1.6	100	1.6	1	0	997.8	NA	0.0000		9999	17030	0	0	0
2019/11/29 02:53:01	BASE	0.00	123	M	M	1.6	100	1.6	1	0	997.8	NA	0.0000		9999	16960	0	0	0
2019/11/29 02:54:02	BASE	0.00	142	M	M	1.6	100	1.6	1	0	997.8	NA	0.0000		9999	17000	0	0	0
2019/11/29 02:55:01	BASE	0.22	162	1.08	170	1.6	100	1.6	1	0	997.8	NA	0.0000		9999	17090	0	0	0
2019/11/29 02:56:01	BASE	0.76	173	1.18	179	1.6	100	1.6	1	0	997.7	NA	0.0000		9999	16930	0	0	0
2019/11/29 02:57:01	BASE	0.94	175	1.18	179	1.5	100	1.5	1	0	997.8	NA	0.0000		9999	16960	0	0	0
2019/11/29 02:58:01	BASE	0.72	174	1.18	172	1.5	100	1.5	0	0	997.7	NA	0.0000		9999	17030	0	0	0
2019/11/29 02:59:02	BASE	0.87	173	1.18	175	1.5	100	1.5	0	0	997.7	NA	0.0000		9999	16930	0	0	0
2019/11/29 03:00:02	BASE	1.05	173	1.18	175	1.4	100	1.4	0	0	997.7	NA	0.0000		9999	16860	0	0	0
2019/11/29 03:01:00	BASE	0.99	173	1.18	175	1.4	100	1.4	0	0	997.7	NA	0.0000		9999	16830	0	0	0
2019/11/29 03:02:01	BASE	0.71	172	1.18	175	1.4	100	1.4	0	0	997.7	NA	0.0000		9999	16860	0	0	0
2019/11/29 03:03:01	BASE	0.35	171	1.18	175	1.4	100	1.4	0	0	997.7	NA	0.0000		9999	17030	0	0	0
2019/11/29 03:04:02	BASE	0.13	172	1.18	175	1.4	100	1.4	0	0	997.7	NA	0.0000		9999	17000	0	0	0
2019/11/29 03:05:01	BASE	0.00	171	1.18	175	1.4	100	1.4	0	0	997.7	NA	0.0000		9999	16860	0	0	0
2019/11/29 03:06:01	BASE	0.00	171	1.18	175	1.4	100	1.4	0	0	997.7	NA	0.0000		9999	16800	0	0	0
2019/11/29 03:07:02	BASE	0.00	174	1.18	175	1.4	100	1.4	0	0	997.7	NA	0.0000		9999	16900	0	0	0
2019/11/29 03:08:02	BASE	0.00	179	1.18	175	1.4	100	1.4	0	0	997.7	NA	0.0000		9999	17000	0	0	0
2019/11/29 03:09:02	BASE	0.00	185	1.13	180	1.4	100	1.4	0	0	997.7	NA	0.0000		9999	16960	0	0	0
2019/11/29 03:10:01	BASE	0.00	193	1.13	180	1.4	100	1.4	0	0	997.7	NA	0.0000		9999	16900	0	0	0
2019/11/29 03:11:03	BASE	0.00	199	1.08	172	1.4	100	1.4	0	0	997.6	NA	0.0000		9999	17030	0	0	0
2019/11/29 03:12:02	BASE	0.00	203	1.08	172	1.4	100	1.4	0	0	997.6	NA	0.0000		9999	16860	0	0	0
2019/11/29 03:13:01	BASE	0.00	210	M	M	1.4	100	1.4	0	0	997.6	NA	0.0000		9999	17000	0	0	0
2019/11/29 03:14:01	BASE	0.00	218	M	M	1.4	100	1.4	0	0	997.6	NA	0.0000		9999	17030	0	0	0
2019/11/29 03:15:01	BASE	0.00	225	M	M	1.4	100	1.4	0	0	997.6	NA	0.0000		9999	16730	0	0	0
2019/11/29 03:16:01	BASE	0.00	227	M	M	1.4	100	1.4	0	0	997.6	NA	0.0000		9999	16900	0	0	0
2019/11/29 03:17:01	BASE	0.00	228	M	M	1.4	100	1.4	0	0	997.6	NA	0.0000		9999	17000	0	0	0
2019/11/29 03:18:00	BASE	0.00	227	M	M	1.4	100	1.4	0	0	997.6	NA	0.0000		9999	16960	0	0	0
2019/11/29 03:19:01	BASE	0.00	226	M	M	1.4	100	1.4	0	0	997.6	NA	0.0000		9999	16930	0	0	0
2019/11/29 03:20:01	BASE	0.00	227	M	M	1.4	100	1.4	0	0	997.6	NA	0.0000		9999	17000	0	0	0
2019/11/29 03:21:01	BASE	0.00	232	M	M	1.3	100	1.3	0	0	997.6	NA	0.0000		9999	16930	0	0	0
2019/11/29 03:22:00	BASE	0.00	236	M	M	1.3	100	1.3	0	0	997.6	NA	0.0000		9999	16900	0	0	0
2019/11/29 03:23:01	BASE	0.00	235	M	M	1.3	100	1.3	0	0	997.6	NA	0.0000		9999	16860	0	0	0
2019/11/29 03:24:02	BASE	0.00	234	M	M	1.3	100	1.3	0	0	997.6	NA	0.0000		9999	17000	0	0	0
2019/11/29 03:25:01	BASE	0.00	235	M	M	1.3	100	1.3	0	0	997.6	NA	0.0000		9999	17060	0	0	0
2019/11/29 03:26:01	BASE	0.00	235	M	M	1.3	100	1.3	0	0	997.6	NA	0.0000		9999	15810	16930	0	0
2019/11/29 03:27:02	BASE	0.09	236	1.03	238	1.3	100	1.3	0	0	997.6	NA	0.0000		9999	17000	0	0	0
2019/11/29 03:28:02	BASE	0.09	236	1.03	238	1.3	100	1.3	0	0	997.6	NA	0.0000		9999	17000	0	0	0
2019/11/29 03:29:01	BASE	0.17	229	1.03	217	1.3	100	1.3	0	0	997.6	NA	0.0000		9999	6070	16900	0	0
2019/11/29 03:30:01	BASE	0.57	221	1.08	221	1.3	100	1.3	0	0	997.6	NA	0.0000		9999	17000	0	0	0
2019/11/29 03:31:01	BASE	0.62	218	1.08	213	1.3	100	1.3	0	0	997.6	NA	0.0000		9999	17000	0	0	0
2019/11/29 03:32:01	BASE	0.22	213	1.08	213	1.3	100	1.3	0	0	997.6	NA	0.0000		9999	17000	0	0	0
2019/11/29 03:33:00	BASE	0.00	212	1.08	213	1.3	100	1.3	0	0	997.6	NA	0.0000		9999	6040	17060	0	0
2019/11/29 03:34:01	BASE	0.00	212	1.08	213	1.3	100	1.3	0	0	997.6	NA	0.0000		9999	6040	17030	0	0
2019/11/29 03:35:00	BASE	0.00	217	1.08	213	1.3	100	1.3	0	0	997.6	NA	0.0000		9999	6000	16960	0	0
2019/11/29 03:36:01	BASE	0.00	223	1.08	213	1.3	100	1.3	0	0	997.6	NA	0.0000		9999	6000	17060	0	0
2019/11/29 03:37:01	BASE	0.00	225	1.08	213	1.3	100	1.3	0	0	997.5	NA	0.0000		9999	6040	17000	0	0
2019/11/29 03:38:01	BASE	0.00	225	1.08	213	1.3	100	1.3	0	0	997.5	NA	0.0000		9999	17000	0	0	0
2019/11/29 03:39:01	BASE	0.00	224	1.08	213	1.2	100	1.2	0	0	997.5	NA	0.0000		9999	17000	0	0	0
2019/11/29 03:40:02	BASE	0.00	217	1.08	213	1.2	100	1.2	0	0	997.5	NA	0.0000		9999	16960	0	0	0
2019/11/29 03:41:01	BASE	0.00	212	M	M	1.3	100	1.3	0	0	997.5	NA	0.0000		9999	17030	0	0	0
2019/11/29 03:42:00	BASE	0.00	213	M	M	1.3	100	1.3	0	0	997.5	NA	0.0000		9999	17000	0	0	0
2019/11/29 03:43:01	BASE	0.00	217	M	M	1.3	100	1.3	0	0	997.4	NA	0.0000		9999	17060	0	0	0
2019/11/29 03:44:02	BASE	0.00	222	M	M	1.3	100	1.3	0	0	997.3	NA	0.0000		9999	17060	0	0	0
2019/11/29 03:45:01	BASE	0.00	225	M	M	1.3	100	1.3	0	0	997.3	NA	0.0000		9999	17060	0	0	0
2019/11/29 03:46:02	BASE	0.00	228	M	M	1.2	100	1.2	0	0	997.3	NA	0.0000		9999	17000	0	0	0
2019/11/29 03:47:02	BASE	0.00	231	M	M	1.2	100	1.2	0	0	997.3	NA	0.0000		9999	17000	0	0	0
2019/11/29 03:48:03	BASE	0.00	231	M	M	1.2	100	1.2	0	0	997.3	NA	0.0000		9999	16960	0	0	0
2019/11/29 03:49:02	BASE	0.00	231	M	M	1.2	100	1.2	0	0	997.3	NA	0.0000		9999	16930	0	0	0
2019/11/29 03:50:00	BASE	0.00	232	M	M	1.2	100	1.2	0	0	997.2	NA	0.0000		9999	17000	0	0	0
2019/11/29 03:51:01	BASE	0.00	236	M	M	1.1	100	1.1	0	0	997.2	NA	0.0000		9999	16960	0	0	0
2019/11/29 03:52:01	BASE	0.00	237	M	M	1.1	100	1.1	0	0	997.2	NA	0.0000		9999	17030	0	0	0
2019/11/29 03:53:02	BASE	0.00	228	M	M	1.1	100	1.1	0	0	997.2	NA	0.0000		9999	17090	0	0	0
2019/11/29 03:54:02	BASE	0.18	220	1.08	213	1.1	100	1.1	0	0	997.2	NA	0.0000		9999	17000	0	0	0
2019/11/29 03:55:02	BASE	0.63	214	1.18	201	1.1	100	1.1	0	0	997.2	NA	0.0000		9999	17060	0	0	0
2019/11/29 03:56:02	BASE	0.54	214	1.18	201	1.2	100	1.2	0	0	997.2	NA	0.0000		9999	16930	0	0	0
2019/11/29 03:57:01	BASE	0.09	217	1.18	201	1.2	100	1.2	0	0	997.2	NA	0.0000		9999	16860	0	0	0
2019/11/29 03:58:02	BASE	0.00	214	1.18	201	1.2	100	1.2	0	0	997.2	NA	0.0000		9999	16960	0	0	0
2019/11/29 03:59:02	BASE	0.00	209	1.18	201	1.2	100	1.2	0	0	997.2	NA	0.0000		9999	17090	0	0	0
2019/11/29 04:00:02	BASE	0.00	209	1.18	201	1.2	100	1.2	0	0	997.2	NA	0.0000		9999	17130	0	0	0
2019/11/29 04:02:00	BASE	0.00	209	1.18	201	1.3	100	1.3	0	0	997.2	NA	0.0000		9999	17090	0	0	0
2019/11/29 04:03:00	BASE	0.00	187	1.18	201	1.3	100	1.3	0	0	997.2	NA	0.0000		9999	17030	0	0	0
2019/11/29 04:04:00	BASE	0.00	151	1.18	201	1.3	100	1.3	0	0	997.2	NA	0.0000		9999	16960	0	0	0
2019/11/29 04:05:00	BASE	0.00	142	1.08	214	1.3	100	1.3	0	0	997.2	NA	0.0000		9999	17090	0	0	0
2019/11/29 04:06:00	BASE	0.00	140	1.03	222	1.3	100	1.3	0	0	997.2	NA	0.0000		9999	17000	0	0	0
2019/11/29 04:07:00	BASE	0.00	121	M	M	1.4	100	1.4	0	0	997.2	NA	0.0000		9999	17060	0	0	0
2019/11/29 04:08:00	BASE	0.00	105	M	M	1.4	100	1.4	0	0	997.2	NA	0.0000		9999	17090	0	0	0
2019/11/29 04:09:00	BASE	0.00	105	M	M	1.3	100	1.3	0	0	997.2	NA	0.0000		9999	17000	0	0	0
2019/11/29 04:10:00	BASE	0.00	105	M	M	1.3	100	1.3	0	0	997.2	NA	0.0000		9999	17060	0	0	0
2019/11/29 04:11:00	BASE	0.00	105	M	M	1.3	100	1.3	0	0	997.2	NA	0.0000		9999	16930	0	0	0
2019/11/29 04:12:00	BASE	0.00	120	M	M	1.3	100	1.3	0	0	997.2	NA	0.0000		9999	16960	0	0	0
2019/11/29 04:13:00	BASE	0.00	151	M	M	1.3	100	1.3	0	0	997.2	NA	0.0000		9999	16960	0	0	0
2019/11/29 04:14:00	BASE	0.00	165	M	M	1.3	100	1.3	0	0	997.2	NA	0.0000		9999	17000	0	0	0
2019/11/29 04:15:00	BASE	0.00	165	M	M	1.3	100	1.3	0	0	997.2	NA	0.0000		9999	17060	0	0	0
2019/11/29 04:16:00	BASE	0.00	165	M	M	1.2	100	1.2	0	0	997.2	NA	0.0000		9999	16960	0	0	0
2019/11/29 04:17:00	BASE	0.00	165	M	M	1.2	100	1.2	0	0	997.2	NA	0.0000		9999	16900	0	0	0
2019/11/29 04:18:00	BASE	0.00	165	M	M	1.2	100	1.2	0	0	997.2	NA	0.0000		9999	17030	0	0	0
2019/11/29 04:19:00	BASE	0.00	171	M	M	1.2	100	1.2	0	0	997.2	NA	0.0000		9999	16960	0	0	0
2019/11/29 04:20:00	BASE	0.00	195	M	M	1.2	100	1.2	0	0	997.2	NA	0.0000		9999	17030	0	0	0
2019/11/29 04:21:00	BASE	0.00	218	M	M	1.2	100	1.2	0	0	997.2	NA	0.0000		9999	16960	0	0	0
2019/11/29 04:22:00	BASE	0.00	237	M	M	1.1	100	1.1	0	0	997.2	NA	0.0000		9999	17000	0	0	0
2019/11/29 04:23:00	BASE	0.00	249	M	M	1.1	100	1.1	0	0	997.2	NA	0.0000		9999	17000	0	0	0
2019/11/29 04:24:00	BASE	0.00	248	M	M	1.1	100	1.1	0	0	997.2	NA	0.0000		9999	16140	16960	0	0
2019/11/29 04:25:00	BASE	0.00	247	M	M	1.0	100	1.0	0	0	997.2	NA	0.0000		9999	16080	16900	0	0
2019/11/29 04:26:00	BASE	0.00	246	M	M	1.0	100	1.0	0	0	997.2	NA	0.0000		9999	16210	16930	0	0
2019/11/29 04:27:00	BASE	0.00	244	M	M	1.0	100	1.0	0	0	997.2	NA	0.0000		9999	16310	0	0	0
2019/11/29 04:28:00	BASE	0.00	243	M	M	1.0	100	1.0	0	0	997.2	NA	0.0000		9999	16800	0	0	0
2019/11/29 04:29:00	BASE	0.00	243	M	M	1.0	100	1.0	0	0	997.2	NA	0.0000		9999	16930	0	0	0
2019/11/29 04:30:00	BASE	0.00	243	M	M	1.1	100	1.1	0	0	997.2	NA	0.0000		9999	17090	0	0	0
2019/11/29 04:31:00	BASE	0.00	274	M	M	1.1	100	1.1	0	0	997.2	NA	0.0000		9999	17060	0	0	0
2019/11/29 04:32:00	BASE	0.00	2	M	M	1.1	100	1.1	0	0	997.2	NA	0.0000		9999	17130	0	0	0
2019/11/29 04:33:00	BASE	0.00	34	M	M	1.2	100	1.2	0	0	997.2	NA	0.0000		9999	17130	0	0	0
2019/11/29 04:34:00	BASE	0.00	34	M	M	1.2	100	1.2	0	0	997.1	NA	0.0000		9999	17130	0	0	0
2019/11/29 04:35:00	BASE	0.00	38	M	M	1.2	100	1.2	0	0	997.2	NA	0.0000		9999	17290	0	0	0
2019/11/29 04:36:00	BASE	0.00	45	M	M	1.2	100	1.2	0	0	997.2	NA	0.0000		9999	17190	0	0	0
2019/11/29 04:37:00	BASE	0.00	51	M	M	1.2	100	1.2	0	0	997.2	NA	0.0000		9999	17190	0	0	0
2019/11/29 04:38:00	BASE	0.00	52	M	M	1.2	100	1.2	0	0	997.2	NA	0.0000		9999	17320	0	0	0
2019/11/29 04:39:00	BASE	0.00	49	M	M	1.2	100	1.2	0	0	997.1	NA	0.0000		9999	17190	0	0	0
2019/11/29 04:40:00	BASE	0.00	43	M	M	1.2	100	1.2	0	0	997.1	NA	0.0000		9999	17160	0	0	0
2019/11/29 04:41:00	BASE	0.00	33	M	M	1.1	100	1.1	0	0	997.1	NA	0.0000		9999	17130	0	0	0
2019/11/29 04:42:00	BASE	0.00	26	M	M	1.1	100	1.1	0	0	997.1	NA	0.0000		9999	17090	0	0	0
2019/11/29 04:43:01	BASE	0.00	30	M	M	1.1	100	1.1	0	0	997.1	NA	0.0000		9999	17160	0	0	0
2019/11/29 04:44:00	BASE	0.00	35	M	M	1.1	100	1.1	0	0	997.0	NA	0.0000		9999	17260	0	0	0
2019/11/29 04:45:00	BASE	0.00	38	M	M	1.1	100	1.1	0	0	997.0	NA	0.0000		9999	13120	17130	0	0
2019/11/29 04:46:00	BASE	0.00	45	M	M	1.1	100	1.1	0	0	997.0	NA	0.0000		9999	17230	0	0	0
2019/11/29 04:47:00	BASE	0.00	48	M	M	1.1	100	1.1	0	0	997.0	NA	0.0000		9999	17230	0	0	0
2019/11/29 04:48:00	BASE	0.00	48	M	M	1.1	100	1.1	0	0	996.9	NA	0.0000		9999	17260	0	0	0
2019/11/29 04:49:00	BASE	0.00	47	M	M	1.1	100	1.1	0	0	997.0	NA	0.0000		9999	17130	0	0	0
2019/11/29 04:50:00	BASE	0.00	47	M	M	1.1	100	1.1	0	0	996.9	NA	0.0000		9999	17190	0	0	0
2019/11/29 04:51:00	BASE	0.00	50	M	M	1.1	100	1.1	0	0	996.8	NA	0.0000		9999	17190	0	0	0
2019/11/29 04:52:00	BASE	0.00	51	M	M	1.2	100	1.2	0	0	996.8	NA	0.0000		9999	17160	0	0	0
2019/11/29 04:53:00	BASE	0.00	51	M	M	1.2	100	1.2	0	0	996.8	NA	0.0000		9999	17130	0	0	0
2019/11/29 04:54:00	BASE	0.00	51	M	M	1.2	100	1.2	0	0	996.8	NA	0.0000		9999	17060	0	0	0
2019/11/29 04:55:00	BASE	0.00	51	M	M	1.2	100	1.2	0	0	996.8	NA	0.0000		9999	17090	0	0	0
2019/11/29 04:56:00	BASE	0.00	52	M	M	1.2	100	1.2	0	0	996.8	NA	0.0000		9999	17000	0	0	0
2019/11/29 04:57:00	BASE	0.00	53	M	M	1.3	100	1.3	0	0	996.8	NA	0.0000		9999	17000	0	0	0
2019/11/29 04:58:00	BASE	0.00	67	M	M	1.3	100	1.3	0	0	996.8	NA	0.0000		9999	17000	0	0	0
2019/11/29 04:59:00	BASE	0.00	101	M	M	1.3	100	1.3	0	0	996.8	NA	0.0000		9999	17060	0	0	0
2019/11/29 05:00:00	BASE	0.00	116	M	M	1.3	100	1.3	0	0	996.7	NA	0.0000		9999	17060	0	0	0
2019/11/29 05:01:00	BASE	0.00	116	M	M	1.3	100	1.3	0	0	996.7	NA	0.0000		9999	17000	0	0	0
2019/11/29 05:02:00	BASE	0.00	116	M	M	1.3	100	1.3	0	0	996.7	NA	0.0000		9999	17000	0	0	0
2019/11/29 05:03:00	BASE	0.00	116	M	M	1.3	100	1.3	0	0	996.7	NA	0.0000		9999	16960	0	0	0
2019/11/29 05:04:00	BASE	0.00	116	M	M	1.3	100	1.3	0	0	996.7	NA	0.0000		9999	17060	0	0	0
2019/11/29 05:05:00	BASE	0.00	119	M	M	1.2	100	1.2	0	0	996.7	NA	0.0000		9999	17090	0	0	0
2019/11/29 05:06:00	BASE	0.00	162	M	M	1.2	100	1.2	0	0	996.7	NA	0.0000		9999	17000	0	0	0
2019/11/29 05:07:00	BASE	0.00	202	M	M	1.2	100	1.2	0	0	996.6	NA	0.0000		9999	17030	0	0	0
2019/11/29 05:08:00	BASE	0.00	202	M	M	1.2	100	1.2	0	0	996.6	NA	0.0000		9999	17030	0	0	0
2019/11/29 05:09:00	BASE	0.00	202	M	M	1.1	100	1.1	0	0	996.6	NA	0.0000		9999	17000	0	0	0
2019/11/29 05:10:00	BASE	0.00	202	M	M	1.1	100	1.1	0	0	996.6	NA	0.0000		9999	16900	0	0	0
2019/11/29 05:11:00	BASE	0.00	206	M	M	1.2	100	1.2	0	0	996.6	NA	0.0000		9999	16960	0	0	0
2019/11/29 05:12:00	BASE	0.00	220	M	M	1.2	100	1.2	0	0	996.6	NA	0.0000		9999	17030	0	0	0
2019/11/29 05:13:00	BASE	0.00	251	M	M	1.2	100	1.2	0	0	996.6	NA	0.0000		9999	16960	0	0	0
2019/11/29 05:14:00	BASE	0.00	292	M	M	1.3	100	1.3	0	0	996.6	NA	0.0000		9999	17030	0	0	0
2019/11/29 05:15:00	BASE	0.00	305	M	M	1.3	100	1.3	0	0	996.6	NA	0.0000		9999	17000	0	0	0
2019/11/29 05:16:00	BASE	0.00	305	M	M	1.2	100	1.2	0	0	996.6	NA	0.0000		9999	16960	0	0	0
2019/11/29 05:17:00	BASE	0.00	329	M	M	1.2	100	1.2	0	0	996.6	NA	0.0000		9999	16900	0	0	0
2019/11/29 05:18:00	BASE	0.00	7	M	M	1.1	100	1.1	0	0	996.6	NA	0.0000		9999	16960	0	0	0
2019/11/29 05:19:00	BASE	0.00	5	M	M	1.0	100	1.0	0	0	996.6	NA	0.0000		9999	16930	0	0	0
2019/11/29 05:20:00	BASE	0.00	347	M	M	0.9	100	0.9	0	0	996.6	NA	0.0000		9999	16800	0	0	0
2019/11/29 05:21:00	BASE	0.00	326	M	M	0.8	100	0.8	0	0	996.6	NA	0.0000		9999	17000	0	0	0
2019/11/29 05:22:00	BASE	0.00	308	M	M	0.8	100	0.8	0	0	996.6	NA	0.0000		9999	17000	0	0	0
2019/11/29 05:23:00	BASE	0.00	283	M	M	0.7	100	0.7	0	0	996.6	NA	0.0000		9999	17030	0	0	0
2019/11/29 05:24:00	BASE	0.00	253	M	M	0.7	100	0.7	0	0	996.6	NA	0.0000		9999	17030	0	0	0
2019/11/29 05:25:00	BASE	0.00	254	M	M	0.7	100	0.7	0	0	996.6	NA	0.0000		9999	17000	0	0	0
2019/11/29 05:26:00	BASE	0.17	268	1.08	271	0.7	100	0.7	0	0	996.6	NA	0.0000		9999	17030	0	0	0
2019/11/29 05:27:00	BASE	0.31	272	1.13	273	0.7	100	0.7	0	0	996.6	NA	0.0000		9999	17000	0	0	0
2019/11/29 05:28:00	BASE	0.13	266	1.13	273	0.7	100	0.7	1	0	996.6	NA	0.0000		9999	16960	0	0	0
2019/11/29 05:29:00	BASE	0.00	257	1.13	273	0.7	100	0.7	1	0	996.6	NA	0.0000		9999	17000	0	0	0
2019/11/29 05:30:00	BASE	0.00	255	1.13	273	0.8	100	0.8	1	0	996.6	NA	0.0000		9999	16930	0	0	0
2019/11/29 05:31:00	BASE	0.00	259	1.13	273	0.8	100	0.8	1	0	996.6	NA	0.0000		9999	16830	0	0	0
2019/11/29 05:32:00	BASE	0.00	271	1.13	273	0.8	100	0.8	1	0	996.6	NA	0.0000		9999	16900	0	0	0
2019/11/29 05:33:00	BASE	0.00	286	1.13	273	0.8	100	0.8	1	0	996.6	NA	0.0000		9999	16900	0	0	0
2019/11/29 05:34:00	BASE	0.00	292	1.13	273	0.9	100	0.9	1	0	996.6	NA	0.0000		9999	17060	0	0	0
2019/11/29 05:35:00	BASE	0.00	305	1.13	273	0.9	100	0.9	1	0	996.6	NA	0.0000		9999	17060	0	0	0
2019/11/29 05:36:00	BASE	0.00	323	1.13	273	1.0	100	1.0	1	0	996.6	NA	0.0000		9999	17030	0	0	0
2019/11/29 05:37:00	BASE	0.00	329	M	M	1.0	100	1.0	1	0	996.6	NA	0.0000		9999	16960	0	0	0
2019/11/29 05:38:00	BASE	0.00	332	M	M	1.0	100	1.0	1	0	996.6	NA	0.0000		9999	17030	0	0	0
2019/11/29 05:39:00	BASE	0.00	334	M	M	0.9	100	0.9	1	0	996.6	NA	0.0000		9999	17000	0	0	0
2019/11/29 05:40:00	BASE	0.00	321	M	M	0.9	100	0.9	1	0	996.6	NA	0.0000		9999	16860	0	0	0
2019/11/29 05:41:00	BASE	0.00	313	M	M	0.8	100	0.8	1	0	996.6	NA	0.0000		9999	16860	0	0	0
2019/11/29 05:42:00	BASE	0.00	323	M	M	0.8	100	0.8	1	0	996.6	NA	0.0000		9999	16900	0	0	0
2019/11/29 05:43:00	BASE	0.00	342	M	M	0.8	100	0.8	1	0	996.6	NA	0.0000		9999	17030	0	0	0
2019/11/29 05:44:00	BASE	0.00	350	M	M	0.8	100	0.8	1	0	996.6	NA	0.0000		9999	16900	0	0	0
2019/11/29 05:45:00	BASE	0.00	347	M	M	0.8	100	0.8	1	0	996.6	NA	0.0000		9999	16860	0	0	0
2019/11/29 05:46:00	BASE	0.00	353	M	M	0.8	100	0.8	1	0	996.6	NA	0.0000		9999	16930	0	0	0
2019/11/29 05:47:00	BASE	0.00	356	M	M	0.8	100	0.8	1	0	996.6	NA	0.0000		9999	16830	0	0	0
2019/11/29 05:48:00	BASE	0.00	354	M	M	0.7	100	0.7	1	0	996.6	NA	0.0000		9999	16900	0	0	0
2019/11/29 05:49:00	BASE	0.00	351	M	M	0.7	100	0.7	1	0	996.6	NA	0.0000		9999	17000	0	0	0
2019/11/29 05:50:00	BASE	0.00	348	M	M	0.6	100	0.6	1	0	996.6	NA	0.0000		9999	16930	0	0	0
2019/11/29 05:51:00	BASE	0.00	347	M	M	0.6	100	0.6	1	0	996.6	NA	0.0000		9999	16930	0	0	0
2019/11/29 05:52:00	BASE	0.00	344	M	M	0.6	100	0.6	1	0	996.6	NA	0.0000		9999	17000	0	0	0
2019/11/29 05:53:00	BASE	0.00	346	M	M	0.6	100	0.6	1	0	996.6	NA	0.0000		9999	17130	0	0	0
2019/11/29 05:54:00	BASE	0.05	348	1.08	349	0.6	100	0.6	1	0	996.6	NA	0.0000		9999	17060	0	0	0
2019/11/29 05:55:00	BASE	0.13	349	1.08	349	0.6	100	0.6	1	0	996.6	NA	0.0000		9999	17030	0	0	0
2019/11/29 05:56:00	BASE	0.27	359	1.18	12	0.6	100	0.6	1	0	996.6	NA	0.0000		9999	17030	0	0	0
2019/11/29 05:57:00	BASE	0.19	5	1.18	12	0.6	100	0.6	1	0	996.6	NA	0.0000		9999	17000	0	0	0
2019/11/29 05:58:00	BASE	0.00	2	1.18	12	0.6	100	0.6	1	0	996.6	NA	0.0000		9999	16930	0	0	0
2019/11/29 05:59:00	BASE	0.00	2	1.18	12	0.6	100	0.6	1	0	996.6	NA	0.0000		9999	16930	0	0	0
2019/11/29 06:00:00	BASE	0.00	7	1.18	12	0.6	100	0.6	1	0	996.6	NA	0.0000		9999	17000	0	0	0
2019/11/29 06:01:00	BASE	0.00	13	1.18	12	0.7	100	0.7	1	0	996.6	NA	0.0000		9999	17000	0	0	0
2019/11/29 06:02:00	BASE	0.23	18	1.18	11	0.6	100	0.6	1	0	996.6	NA	0.0000		9999	17030	0	0	0
2019/11/29 06:03:00	BASE	0.77	19	1.29	18	0.6	100	0.6	1	0	996.6	NA	0.0000		9999	17000	0	0	0
2019/11/29 06:04:00	BASE	1.11	18	1.29	18	0.6	100	0.6	1	0	996.6	NA	0.0000		9999	16930	0	0	0
2019/11/29 06:05:00	BASE	1.06	18	1.29	18	0.7	100	0.7	1	0	996.6	NA	0.0000		9999	17030	0	0	0
2019/11/29 06:06:00	BASE	1.05	19	1.29	21	0.7	100	0.7	1	0	996.6	NA	0.0000		9999	16930	0	0	0
2019/11/29 06:07:00	BASE	1.17	19	1.29	15	0.7	100	0.7	1	0	996.5	NA	0.0000		9999	16860	0	0	0
2019/11/29 06:08:00	BASE	1.22	21	1.39	23	0.7	100	0.7	1	0	996.5	NA	0.0000		9999	16730	0	0	0
2019/11/29 06:09:00	BASE	1.23	27	1.39	25	0.7	100	0.7	1	0	996.5	NA	0.0000		9999	17060	0	0	0
2019/11/29 06:10:00	BASE	1.17	31	1.39	25	0.7	100	0.7	2	0	996.5	NA	0.0000		9999	17130	0	0	0
2019/11/29 06:11:00	BASE	1.08	31	1.39	25	0.8	100	0.8	2	0	996.5	NA	0.0000		9999	17190	0	0	0
2019/11/29 06:12:00	BASE	0.93	31	1.39	25	0.8	100	0.8	2	0	996.5	NA	0.0000		9999	17130	0	0	0
2019/11/29 06:13:00	BASE	0.70	28	1.39	25	0.8	100	0.8	2	0	996.5	NA	0.0000		9999	17090	0	0	0
2019/11/29 06:14:00	BASE	0.58	26	1.39	25	0.9	100	0.9	2	0	996.5	NA	0.0000		9999	17160	0	0	0
2019/11/29 06:15:00	BASE	0.32	27	1.39	25	0.9	100	0.9	2	0	996.5	NA	0.0000		9999	17090	0	0	0
2019/11/29 06:16:00	BASE	0.05	29	1.39	25	0.9	100	0.9	2	0	996.5	NA	0.0000		9999	17030	0	0	0
2019/11/29 06:17:00	BASE	0.00	18	1.39	25	0.9	100	0.9	2	0	996.5	NA	0.0000		9999	17090	0	0	0
2019/11/29 06:18:00	BASE	0.00	7	1.39	25	1.0	100	1.0	2	0	996.5	NA	0.0000		9999	17060	0	0	0
2019/11/29 06:19:00	BASE	0.00	6	1.34	28	1.0	100	1.0	2	0	996.4	NA	0.0000		9999	17030	0	0	0
2019/11/29 06:20:00	BASE	0.00	2	1.34	28	1.0	100	1.0	2	0	996.4	NA	0.0000		9999	17000	0	0	0
2019/11/29 06:21:00	BASE	0.00	1	1.29	30	1.0	100	1.0	2	0	996.4	NA	0.0000		9999	17000	0	0	0
2019/11/29 06:22:00	BASE	0.00	1	1.18	33	1.0	100	1.0	2	0	996.4	NA	0.0000		9999	17030	0	0	0
2019/11/29 06:23:00	BASE	0.00	358	1.18	33	0.9	100	0.9	2	0	996.4	NA	0.0000		9999	17030	0	0	0
2019/11/29 06:24:00	BASE	0.00	352	1.08	32	0.9	100	0.9	2	0	996.4	NA	0.0000		9999	17000	0	0	0
2019/11/29 06:25:00	BASE	0.00	347	M	M	0.9	100	0.9	2	0	996.4	NA	0.0000		9999	17090	0	0	0
2019/11/29 06:26:00	BASE	0.00	337	M	M	0.9	100	0.9	2	0	996.4	NA	0.0000		9999	17030	0	0	0
2019/11/29 06:27:00	BASE	0.00	328	M	M	0.9	100	0.9	2	0	996.4	NA	0.0000		9999	16830	0	0	0
2019/11/29 06:28:00	BASE	0.00	317	M	M	0.9	100	0.9	2	0	996.4	NA	0.0000		9999	17090	0	0	0
2019/11/29 06:29:00	BASE	0.00	303	M	M	1.0	100	1.0	2	0	996.4	NA	0.0000		9999	17160	0	0	0
2019/11/29 06:30:00	BASE	0.00	298	M	M	1.0	100	1.0	2	0	996.4	NA	0.0000		9999	17160	0	0	0
2019/11/29 06:31:00	BASE	0.00	298	M	M	1.0	100	1.0	2	0	996.3	NA	0.0000		9999	17090	0	0	0
2019/11/29 06:32:00	BASE	0.00	298	M	M	1.0	100	1.0	2	0	996.3	NA	0.0000		9999	17190	0	0	0
2019/11/29 06:33:00	BASE	0.00	298	M	M	1.0	100	1.0	3	0	996.3	NA	0.0000		9999	17130	0	0	0
2019/11/29 06:34:01	BASE	0.00	298	M	M	1.0	100	1.0	3	0	996.3	NA	0.0000		9999	17230	0	0	0
2019/11/29 06:35:00	BASE	0.00	298	M	M	1.0	100	1.0	3	0	996.3	NA	0.0000		9999	17320	0	0	0
2019/11/29 06:36:00	BASE	0.00	308	M	M	1.0	100	1.0	3	0	996.3	NA	0.0000		9999	17160	0	0	0
2019/11/29 06:37:00	BASE	0.00	326	M	M	1.0	100	1.0	3	0	996.3	NA	0.0000		9999	17190	0	0	0
2019/11/29 06:38:00	BASE	0.00	337	M	M	0.9	100	0.9	3	0	996.3	NA	0.0000		9999	17260	0	0	0
2019/11/29 06:39:00	BASE	0.00	339	M	M	0.9	100	0.9	3	0	996.3	NA	0.0000		9999	17260	0	0	0
2019/11/29 06:40:00	BASE	0.00	339	M	M	0.9	100	0.9	3	0	996.3	NA	0.0000		9999	17130	0	0	0
2019/11/29 06:41:00	BASE	0.00	342	M	M	0.9	100	0.9	3	0	996.3	NA	0.0000		9999	17260	0	0	0
2019/11/29 06:42:00	BASE	0.00	351	M	M	0.9	100	0.9	3	0	996.2	NA	0.0000		9999	17230	0	0	0
2019/11/29 06:43:00	BASE	0.22	358	1.08	2	0.9	100	0.9	3	0	996.1	NA	0.0000		9999	17290	0	0	0
2019/11/29 06:44:00	BASE	0.49	2	1.08	7	0.9	100	0.9	3	0	996.1	NA	0.0000		9999	17230	0	0	0
2019/11/29 06:45:01	BASE	0.27	8	1.08	7	0.9	100	0.9	4	0	996.1	NA	0.0000		9999	17230	0	0	0
2019/11/29 06:46:00	BASE	0.00	13	1.08	7	0.9	100	0.9	4	0	996.1	NA	0.0000		9999	17130	0	0	0
2019/11/29 06:47:00	BASE	0.00	14	1.08	7	0.9	100	0.9	4	0	996.1	NA	0.0000		9999	17160	0	0	0
2019/11/29 06:48:00	BASE	0.00	14	1.08	7	0.9	100	0.9	4	0	996.1	NA	0.0000		9999	17160	0	0	0
2019/11/29 06:49:00	BASE	0.00	15	1.08	7	1.0	100	1.0	4	0	996.1	NA	0.0000		9999	17320	0	0	0
2019/11/29 06:50:00	BASE	0.00	15	1.08	7	1.0	100	1.0	4	0	996.1	NA	0.0000		9999	12960	17190	0	0
2019/11/29 06:51:00	BASE	0.00	15	1.08	7	1.0	100	1.0	4	0	996.1	NA	0.0000		9999	12960	17230	0	0
2019/11/29 06:52:00	BASE	0.00	15	1.08	7	1.0	100	1.0	4	0	996.1	NA	0.0000		9999	12990	17230	0	0
2019/11/29 06:53:00	BASE	0.00	15	1.08	7	1.0	100	1.0	5	0	996.1	NA	0.0000		9999	12930	17230	0	0
2019/11/29 06:54:00	BASE	0.00	14	M	M	1.0	100	1.0	5	0	996.1	NA	0.0000		9999	17320	0	0	0
2019/11/29 06:55:00	BASE	0.00	14	M	M	1.0	100	1.0	5	0	996.0	NA	0.0000		9999	12930	17260	0	0
2019/11/29 06:56:00	BASE	0.00	15	M	M	1.0	100	1.0	5	0	996.0	NA	0.0000		9999	12960	17320	0	0
2019/11/29 06:57:00	BASE	0.00	15	M	M	1.0	100	1.0	5	0	996.1	NA	0.0000		9999	12830	17320	0	0
2019/11/29 06:58:01	BASE	0.00	7	M	M	1.0	100	1.0	6	0	996.1	NA	0.0000		9999	12930	17230	0	0
2019/11/29 06:59:01	BASE	0.00	242	M	M	1.0	100	1.0	6	0	996.1	NA	0.0000		9999	12930	17390	0	0
2019/11/29 07:00:01	BASE	0.00	209	M	M	1.0	100	1.0	6	0	996.1	NA	0.0000		9999	17260	0	0	0
2019/11/29 07:01:01	BASE	0.00	219	M	M	1.0	100	1.0	6	0	996.1	NA	0.0000		9999	17230	0	0	0
2019/11/29 07:02:01	BASE	0.00	220	M	M	1.0	100	1.0	7	0	996.1	NA	0.0000		9999	17490	0	0	0
2019/11/29 07:03:01	BASE	0.00	220	M	M	1.0	100	1.0	7	0	996.1	NA	0.0000		9999	12890	17590	0	0
2019/11/29 07:04:01	BASE	0.00	220	M	M	1.0	100	1.0	7	0	996.2	NA	0.0000		9999	12400	12990	0	0
2019/11/29 07:05:00	BASE	0.00	220	M	M	1.0	100	1.0	8	0	996.3	NA	0.0000		9999	12960	0	0	0
2019/11/29 07:06:01	BASE	0.00	225	M	M	1.0	100	1.0	8	0	996.3	NA	0.0000		9999	15650	0	0	0
2019/11/29 07:07:01	BASE	0.00	307	M	M	1.0	100	1.0	8	0	996.3	NA	0.0000		9999	16140	0	0	0
2019/11/29 07:08:01	BASE	0.00	5	M	M	1.0	100	1.0	9	0	996.3	NA	0.0000		9999	16540	0	0	0
2019/11/29 07:09:00	BASE	0.00	17	M	M	1.0	100	1.0	9	0	996.2	NA	0.0000		9999	12340	13290	0	0
2019/11/29 07:10:00	BASE	0.00	26	M	M	1.1	100	1.1	10	0	996.1	NA	0.0000		9999	12400	0	0	0
2019/11/29 07:11:00	BASE	0.00	27	M	M	1.1	100	1.1	10	0	996.1	NA	0.0000		9999	12370	12960	0	0
2019/11/29 07:12:00	BASE	0.00	46	M	M	1.2	100	1.2	11	0	996.1	NA	0.0000		9999	12340	12990	0	0
2019/11/29 07:13:00	BASE	0.00	76	M	M	1.2	100	1.2	11	0	996.1	NA	0.0000		9999	12170	12990	0	0
2019/11/29 07:14:01	BASE	0.00	87	M	M	1.2	100	1.2	12	0	996.1	NA	0.0000		9999	12960	0	0	0
2019/11/29 07:15:00	BASE	0.00	88	M	M	1.2	100	1.2	12	0	996.1	NA	0.0000		9999	12890	0	0	0
2019/11/29 07:16:00	BASE	0.00	88	M	M	1.1	100	1.1	12	0	996.1	NA	0.0000		9999	13160	0	0	0
2019/11/29 07:17:00	BASE	0.00	87	M	M	1.1	100	1.1	13	0	996.1	NA	0.0000		9999	12960	0	0	0
2019/11/29 07:18:00	BASE	0.00	77	M	M	1.1	100	1.1	13	0	996.1	NA	0.0000		9999	12960	0	0	0
2019/11/29 07:19:00	BASE	0.00	68	M	M	1.1	100	1.1	13	0	996.1	NA	0.0000		9999	12960	0	0	0
2019/11/29 07:20:00	BASE	0.00	70	M	M	1.2	100	1.2	13	0	996.1	NA	0.0000		9999	12960	0	0	0
2019/11/29 07:21:00	BASE	0.00	93	M	M	1.1	100	1.1	14	0	996.1	NA	0.0000		9999	13030	0	0	0
2019/11/29 07:22:00	BASE	0.00	147	M	M	1.1	100	1.1	14	0	996.1	NA	0.0000		9999	13030	0	0	0
2019/11/29 07:23:00	BASE	0.00	179	M	M	1.1	100	1.1	14	0	996.1	NA	0.0000		9999	12110	0	0	0
2019/11/29 07:24:00	BASE	0.00	172	M	M	1.1	100	1.1	15	0	996.1	NA	0.0000		9999	12930	0	0	0
2019/11/29 07:25:00	BASE	0.00	160	M	M	1.0	100	1.0	15	0	996.1	NA	0.0000		9999	12930	0	0	0
2019/11/29 07:26:00	BASE	0.00	134	M	M	1.0	100	1.0	15	0	996.0	NA	0.0000		9999	11090	0	0	0
2019/11/29 07:27:00	BASE	0.00	94	M	M	1.1	100	1.1	16	0	996.0	NA	0.0000		9999	13750	0	0	0
2019/11/29 07:28:00	BASE	0.00	59	M	M	1.1	100	1.1	16	0	996.0	NA	0.0000		9999	12600	0	0	0
2019/11/29 07:29:00	BASE	0.00	38	M	M	1.1	100	1.1	17	0	996.0	NA	0.0000		9999	11650	0	0	0
2019/11/29 07:30:00	BASE	0.00	30	M	M	1.1	100	1.1	17	0	996.0	NA	0.0000		9999	13420	0	0	0
2019/11/29 07:31:00	BASE	0.00	28	M	M	1.1	100	1.1	18	0	996.0	NA	0.0000		9999	13420	0	0	0
2019/11/29 07:32:00	BASE	0.00	28	M	M	1.1	100	1.1	18	0	996.0	NA	0.0000		9999	13160	0	0	0
2019/11/29 07:33:00	BASE	0.00	28	M	M	1.1	100	1.1	19	0	996.0	NA	0.0000		9999	13060	0	0	0
2019/11/29 07:34:01	BASE	0.00	28	M	M	1.0	100	1.0	20	0	996.0	NA	0.0000		9999	13030	0	0	0
2019/11/29 07:35:00	BASE	0.00	28	M	M	1.0	100	1.0	20	0	996.0	NA	0.0000		9999	12960	0	0	0
2019/11/29 07:36:00	BASE	0.00	28	M	M	1.0	100	1.0	21	0	996.0	NA	0.0000		9999	12890	0	0	0
2019/11/29 07:37:01	BASE	0.00	32	M	M	1.0	100	1.0	21	0	996.0	NA	0.0000		9999	12700	0	0	0
2019/11/29 07:38:00	BASE	0.47	193	1.34	203	1.0	100	1.0	22	0	996.0	NA	0.0000		9999	12530	0	0	0
2019/11/29 07:39:00	BASE	1.23	207	1.75	212	1.0	100	0.9	23	0	996.0	NA	0.0000		9999	12860	0	0	0
2019/11/29 07:40:00	BASE	1.79	211	2.21	210	0.9	100	0.9	23	0	996.0	NA	0.0000		9999	12760	0	0	0
2019/11/29 07:41:00	BASE	2.23	209	2.47	208	0.9	100	0.9	24	0	996.0	NA	0.0000		9999	12530	0	0	0
2019/11/29 07:42:01	BASE	2.50	209	2.62	212	0.8	100	0.8	25	0	996.0	NA	0.0000		9999	12300	0	0	0
2019/11/29 07:43:00	BASE	2.59	208	2.73	205	0.7	100	0.7	26	0	996.0	NA	0.0000		9999	11910	0	0	0
2019/11/29 07:44:00	BASE	2.63	207	2.83	208	0.7	100	0.7	28	0	996.0	NA	0.0000		9999	11450	0	0	0
2019/11/29 07:45:00	BASE	2.79	203	2.98	194	0.6	100	0.6	29	0	996.0	NA	0.0000		9999	11250	0	0	0
2019/11/29 07:46:00	BASE	2.82	196	2.98	194	0.6	100	0.6	30	0	996.0	NA	0.0000		9999	10960	0	0	0
2019/11/29 07:47:00	BASE	2.58	189	2.98	194	0.6	100	0.6	32	0	996.0	NA	0.0000		9999	10860	0	0	0
2019/11/29 07:48:00	BASE	2.36	181	2.98	194	0.6	100	0.6	33	0	996.0	NA	0.0000		9999	10760	0	0	0
2019/11/29 07:49:00	BASE	2.27	169	2.98	194	0.6	100	0.6	35	0	996.0	NA	0.0000		9999	10700	0	0	0
2019/11/29 07:50:00	BASE	2.29	157	2.98	194	0.5	100	0.5	37	0	996.0	NA	0.0000		9999	10660	0	0	0
2019/11/29 07:51:00	BASE	2.10	149	2.98	194	0.5	100	0.5	39	0	996.0	NA	0.0000		9999	10370	0	0	0
2019/11/29 07:52:00	BASE	1.82	144	2.98	194	0.5	100	0.5	41	0	996.0	NA	0.0000		9999	10300	0	0	0
2019/11/29 07:53:00	BASE	1.62	141	2.98	194	0.5	100	0.5	43	0	996.0	NA	0.0000		9999	12660	0	0	0
2019/11/29 07:54:00	BASE	1.49	136	2.98	194	0.5	100	0.5	45	0	996.0	NA	0.0000		9999	10530	0	0	0
2019/11/29 07:55:00	BASE	1.46	139	2.88	193	0.5	100	0.5	47	0	996.0	NA	0.0000		9999	9780	0	0	0
2019/11/29 07:56:00	BASE	1.45	144	2.62	184	0.5	100	0.5	49	0	996.0	NA	0.0000		9999	0	0	0	0
2019/11/29 07:57:00	BASE	1.38	135	2.52	157	0.6	100	0.6	51	0	996.0	NA	0.0000		9999	11250	0	0	0
2019/11/29 07:58:00	BASE	1.43	122	2.52	157	0.6	100	0.6	53	0	996.0	NA	0.0000		9999	11650	0	0	0
2019/11/29 07:59:00	BASE	1.54	109	2.52	157	0.7	100	0.7	55	0	996.0	NA	0.0000		9999	11750	0	0	0
2019/11/29 08:00:00	BASE	1.59	100	2.21	153	0.7	100	0.7	56	0	996.0	NA	0.0000		9999	0	0	0	0
2019/11/29 08:01:00	BASE	1.21	105	2.16	96	0.7	100	0.7	58	0	996.0	NA	0.0000		9999	12500	0	0	0
2019/11/29 08:02:00	BASE	0.99	108	2.16	96	0.8	100	0.8	60	0	996.0	NA	0.0000		9999	12140	0	0	0
2019/11/29 08:03:00	BASE	1.20	109	2.16	96	0.8	100	0.8	61	0	996.0	NA	0.0000		9999	12170	0	0	0
2019/11/29 08:04:00	BASE	1.05	120	2.16	96	0.8	100	0.8	62	0	996.0	NA	0.0000		9999	12110	0	0	0
2019/11/29 08:05:00	BASE	0.68	133	2.16	96	0.9	100	0.9	62	0	996.0	NA	0.0000		9999	12210	0	0	0
2019/11/29 08:06:00	BASE	0.71	154	2.16	96	0.9	100	0.9	63	0	996.0	NA	0.0000		9999	11480	0	0	0
2019/11/29 08:07:00	BASE	0.94	170	2.16	96	0.8	100	0.8	63	0	996.0	NA	0.0000		9999	12110	0	0	0
2019/11/29 08:08:00	BASE	1.17	169	2.16	96	0.8	100	0.8	63	0	996.0	NA	0.0000		9999	15450	0	0	0
2019/11/29 08:09:00	BASE	1.84	168	2.42	170	0.7	100	0.7	63	0	996.0	NA	0.0000		9999	0	0	0	0
2019/11/29 08:10:00	BASE	2.25	173	2.42	173	0.6	100	0.6	63	0	996.0	NA	0.0000		9999	14040	0	0	0
2019/11/29 08:11:00	BASE	2.23	175	2.42	173	0.6	100	0.6	63	0	996.0	NA	0.0000		9999	13420	0	0	0
2019/11/29 08:12:00	BASE	2.09	177	2.42	173	0.5	100	0.5	62	0	996.0	NA	0.0000		9999	14700	0	0	0
2019/11/29 08:13:00	BASE	1.82	177	2.42	173	0.5	100	0.5	62	0	996.0	NA	0.0000		9999	15090	0	0	0
2019/11/29 08:14:00	BASE	1.56	176	2.42	173	0.5	100	0.5	62	0	996.0	NA	0.0000		9999	14630	0	0	0
2019/11/29 08:15:00	BASE	1.41	184	2.42	173	0.5	100	0.5	61	0	996.0	NA	0.0000		9999	14310	0	0	0
2019/11/29 08:16:00	BASE	1.30	198	2.42	173	0.5	100	0.5	61	0	996.0	NA	0.0000		9999	13480	14210	0	0
2019/11/29 08:17:00	BASE	1.27	204	2.42	173	0.5	100	0.5	61	0	996.0	NA	0.0000		9999	13060	14630	0	0
2019/11/29 08:18:00	BASE	0.85	201	2.42	173	0.5	100	0.5	61	0	996.0	NA	0.0000		9999	14570	0	0	0
2019/11/29 08:19:00	BASE	0.23	200	2.42	173	0.4	100	0.4	61	0	996.0	NA	0.0000		9999	14630	0	0	0
2019/11/29 08:20:00	BASE	0.00	196	2.31	176	0.4	100	0.4	61	0	996.0	NA	0.0000		9999	15290	0	0	0
2019/11/29 08:21:00	BASE	0.00	188	2.21	174	0.4	100	0.4	62	0	996.0	NA	0.0000		9999	14730	0	0	0
2019/11/29 08:22:00	BASE	0.14	185	1.85	168	0.4	100	0.4	62	0	996.0	NA	0.0000		9999	11980	0	0	0
2019/11/29 08:23:00	BASE	0.66	185	1.75	180	0.4	100	0.4	63	0	996.0	NA	0.0000		9999	14370	0	0	0
2019/11/29 08:24:00	BASE	1.09	187	1.49	202	0.4	100	0.4	63	0	996.0	NA	0.0000		9999	14110	0	0	0
2019/11/29 08:25:00	BASE	1.15	190	1.49	202	0.4	100	0.4	64	0	996.0	NA	0.0000		9999	0	0	0	0
2019/11/29 08:26:00	BASE	1.23	191	1.49	202	0.4	100	0.4	64	0	996.0	NA	0.0000		9999	15060	0	0	0
2019/11/29 08:27:00	BASE	1.26	191	1.44	193	0.4	100	0.4	65	0	996.0	NA	0.0000		9999	0	0	0	0
2019/11/29 08:28:00	BASE	1.20	189	1.44	193	0.4	100	0.4	65	0	996.0	NA	0.0000		9999	0	0	0	0
2019/11/29 08:29:00	BASE	0.88	185	1.44	193	0.4	100	0.4	66	0	996.0	NA	0.0000		9999	0	0	0	0
2019/11/29 08:30:00	BASE	0.56	177	1.44	193	0.4	100	0.4	66	0	996.0	NA	0.0000		9999	14960	0	0	0
2019/11/29 08:31:00	BASE	0.83	172	1.44	193	0.4	100	0.4	66	0	996.0	NA	0.0000		9999	12010	12570	0	0
2019/11/29 08:32:00	BASE	0.96	168	1.44	193	0.4	100	0.4	67	0	996.0	NA	0.0000		9999	11940	0	0	0
2019/11/29 08:33:00	BASE	0.44	165	1.44	193	0.4	100	0.4	68	0	995.9	NA	0.0000		9999	0	0	0	0
2019/11/29 08:34:00	BASE	0.05	165	1.44	193	0.4	100	0.4	68	0	995.9	NA	0.0000		9999	0	0	0	0
2019/11/29 08:35:00	BASE	0.00	161	1.44	193	0.4	100	0.4	69	0	995.9	NA	0.0000		9999	0	0	0	0
2019/11/29 08:36:00	BASE	0.00	155	1.44	193	0.4	100	0.4	70	0	995.9	NA	0.0000		9999	0	0	0	0
2019/11/29 08:37:00	BASE	0.00	151	1.39	186	0.4	100	0.4	71	0	995.9	NA	0.0000		9999	0	0	0	0
2019/11/29 08:38:00	BASE	0.00	154	1.29	179	0.5	100	0.5	72	0	995.9	NA	0.0000		9999	12270	0	0	0
2019/11/29 08:39:00	BASE	0.00	164	1.18	173	0.5	100	0.5	73	0	995.9	NA	0.0000		9999	12040	0	0	0
2019/11/29 08:40:00	BASE	0.00	176	1.18	173	0.5	100	0.5	74	0	995.9	NA	0.0000		9999	0	0	0	0
2019/11/29 08:41:00	BASE	0.00	191	1.08	165	0.5	100	0.5	76	0	995.9	NA	0.0000		9999	0	0	0	0
2019/11/29 08:42:00	BASE	0.00	206	1.08	165	0.5	100	0.5	77	0	995.9	NA	0.0000		9999	12340	0	0	0
2019/11/29 08:43:00	BASE	0.00	213	M	M	0.4	100	0.4	78	0	995.9	NA	0.0000		9999	12040	0	0	0
2019/11/29 08:44:00	BASE	0.00	213	M	M	0.4	100	0.4	79	0	995.9	NA	0.0000		9999	11840	0	0	0
2019/11/29 08:45:00	BASE	0.00	204	M	M	0.4	100	0.4	80	0	995.8	NA	0.0000		9999	0	0	0	0
2019/11/29 08:46:00	BASE	0.00	185	M	M	0.3	100	0.3	81	0	995.8	NA	0.0000		9999	0	0	0	0
2019/11/29 08:47:00	BASE	0.00	170	M	M	0.3	100	0.3	82	0	995.8	NA	0.0000		9999	0	0	0	0
2019/11/29 08:48:00	BASE	0.05	155	1.08	134	0.3	100	0.3	83	0	995.8	NA	0.0000		9999	0	0	0	0
2019/11/29 08:49:00	BASE	0.05	139	1.08	134	0.3	100	0.3	84	0	995.8	NA	0.0000		9999	12040	0	0	0
2019/11/29 08:50:00	BASE	0.00	137	1.08	134	0.4	100	0.4	86	0	995.8	NA	0.0000		9999	11780	0	0	0
2019/11/29 08:51:00	BASE	0.00	141	1.08	134	0.4	100	0.4	88	0	995.8	NA	0.0000		9999	11650	0	0	0
2019/11/29 08:52:00	BASE	0.00	142	1.08	134	0.4	100	0.4	90	0	995.8	NA	0.0000		9999	12570	0	0	0
2019/11/29 08:53:01	BASE	0.00	141	1.08	134	0.4	100	0.4	94	0	995.8	NA	0.0000		9999	10890	12340	0	0
2019/11/29 08:54:00	BASE	0.00	144	1.08	134	0.4	100	0.4	98	0	995.8	NA	0.0000		9999	10730	11980	0	0
2019/11/29 08:55:00	BASE	0.00	151	1.08	134	0.4	100	0.4	101	0	995.8	NA	0.0000		9999	12630	0	0	0
2019/11/29 08:56:00	BASE	0.00	156	1.08	134	0.5	100	0.5	101	0	995.8	NA	0.0000		9999	11090	0	0	0
2019/11/29 08:57:00	BASE	0.00	158	1.08	134	0.5	100	0.5	102	0	995.8	NA	0.0000		9999	0	0	0	0
2019/11/29 08:58:00	BASE	0.00	154	M	M	0.5	100	0.5	105	0	995.8	NA	0.0000		9999	0	0	0	0
2019/11/29 08:59:00	BASE	0.00	154	M	M	0.5	100	0.5	108	0	995.8	NA	0.0000		9999	0	0	0	0
2019/11/29 09:00:00	BASE	0.00	158	M	M	0.6	100	0.6	112	0	995.8	NA	0.0000		9999	0	0	0	0
2019/11/29 09:01:00	BASE	0.13	161	1.08	167	0.6	100	0.6	116	0	995.8	NA	0.0000		9999	0	0	0	0
2019/11/29 09:02:00	BASE	0.13	162	1.08	167	0.5	100	0.5	120	0	995.8	NA	0.0000		9999	0	0	0	0
2019/11/29 09:03:00	BASE	0.00	167	1.08	167	0.5	100	0.5	123	0	995.8	NA	0.0000		9999	0	0	0	0
2019/11/29 09:04:00	BASE	0.00	179	1.08	167	0.5	100	0.5	125	0	995.7	NA	0.0000		9999	0	0	0	0
2019/11/29 09:05:00	BASE	0.00	184	1.08	167	0.5	100	0.5	126	0	995.7	NA	0.0000		9999	0	0	0	0
2019/11/29 09:06:00	BASE	0.00	185	1.08	167	0.5	100	0.5	126	0	995.7	NA	0.0000		9999	0	0	0	0
2019/11/29 09:07:00	BASE	0.00	186	1.08	167	0.5	100	0.5	125	0	995.7	NA	0.0000		9999	0	0	0	0
2019/11/29 09:08:00	BASE	0.00	187	1.08	167	0.5	100	0.5	124	0	995.7	NA	0.0000		9999	0	0	0	0
2019/11/29 09:09:00	BASE	0.00	185	1.08	167	0.6	100	0.6	123	0	995.7	NA	0.0000		9999	0	0	0	0
2019/11/29 09:10:00	BASE	0.00	181	1.08	167	0.7	100	0.7	120	0	995.7	NA	0.0000		9999	0	0	0	0
2019/11/29 09:11:00	BASE	0.00	162	M	M	0.7	100	0.7	117	0	995.7	NA	0.0000		9999	0	0	0	0
2019/11/29 09:12:00	BASE	0.00	67	M	M	0.8	100	0.8	116	0	995.7	NA	0.0000		9999	0	0	0	0
2019/11/29 09:13:00	BASE	0.00	38	M	M	0.8	100	0.8	118	0	995.7	NA	0.0000		9999	0	0	0	0
2019/11/29 09:14:00	BASE	0.00	47	M	M	0.8	100	0.8	119	0	995.7	NA	0.0000		9999	0	0	0	0
2019/11/29 09:15:00	BASE	0.00	46	M	M	0.7	100	0.7	121	0	995.7	NA	0.0000		9999	0	0	0	0
2019/11/29 09:16:00	BASE	0.09	33	1.08	31	0.7	100	0.7	126	0	995.7	NA	0.0000		9999	0	0	0	0
2019/11/29 09:17:00	BASE	0.46	27	1.23	32	0.6	100	0.6	129	0	995.7	NA	0.0000		9999	0	0	0	0
2019/11/29 09:18:00	BASE	0.66	19	1.29	17	0.5	100	0.5	131	0	995.7	NA	0.0000		9999	0	0	0	0
2019/11/29 09:19:00	BASE	0.42	357	1.29	17	0.4	100	0.4	134	0	995.7	NA	0.0000		9999	0	0	0	0
2019/11/29 09:20:00	BASE	0.45	333	1.29	327	0.3	100	0.3	136	0	995.7	NA	0.0000		9999	0	0	0	0
2019/11/29 09:21:00	BASE	0.85	324	1.29	327	0.3	100	0.3	139	0	995.7	NA	0.0000		9999	0	0	0	0
2019/11/29 09:22:00	BASE	1.10	320	1.29	323	0.3	100	0.3	140	0	995.7	NA	0.0000		9999	0	0	0	0
2019/11/29 09:23:00	BASE	0.95	314	1.29	308	0.3	100	0.3	142	0	995.7	NA	0.0000		9999	0	0	0	0
2019/11/29 09:24:00	BASE	0.69	307	1.29	308	0.3	100	0.3	144	0	995.7	NA	0.0000		9999	0	0	0	0
2019/11/29 09:25:00	BASE	0.36	302	1.29	308	0.3	100	0.3	145	0	995.6	NA	0.0000		9999	17290	0	0	0
2019/11/29 09:26:00	BASE	0.04	295	1.29	308	0.4	100	0.4	146	0	995.5	NA	0.0000		9999	16930	0	0	0
2019/11/29 09:27:00	BASE	0.00	291	1.29	308	0.4	100	0.4	147	0	995.5	NA	0.0000		9999	16670	0	0	0
2019/11/29 09:28:00	BASE	0.00	287	1.29	308	0.4	100	0.4	147	0	995.5	NA	0.0000		9999	17230	0	0	0
2019/11/29 09:29:00	BASE	0.00	283	1.29	308	0.5	100	0.5	145	0	995.5	NA	0.0000		9999	0	0	0	0
2019/11/29 09:30:00	BASE	0.00	272	1.29	308	0.5	100	0.5	144	0	995.5	NA	0.0000		9999	16960	0	0	0
2019/11/29 09:31:00	BASE	0.00	262	1.29	308	0.4	100	0.4	142	0	995.5	NA	0.0000		9999	0	0	0	0
2019/11/29 09:32:00	BASE	0.00	260	1.29	308	0.4	100	0.4	142	0	995.5	NA	0.0000		9999	0	0	0	0
2019/11/29 09:33:00	BASE	0.00	260	1.13	305	0.3	100	0.3	140	0	995.5	NA	0.0000		9999	11120	0	0	0
2019/11/29 09:34:00	BASE	0.00	260	1.03	297	0.2	100	0.2	140	0	995.5	NA	0.0000		9999	10760	0	0	0
2019/11/29 09:35:00	BASE	0.00	262	M	M	0.2	100	0.2	138	0	995.5	NA	0.0000		9999	0	0	0	0
2019/11/29 09:36:00	BASE	0.00	262	M	M	0.1	100	0.1	136	0	995.5	NA	0.0000		9999	0	0	0	0
2019/11/29 09:37:00	BASE	0.00	259	M	M	0.1	100	0.1	134	0	995.5	NA	0.0000		9999	0	0	0	0
2019/11/29 09:38:00	BASE	0.00	248	M	M	0.1	100	0.1	132	0	995.5	NA	0.0000		9999	0	0	0	0
2019/11/29 09:39:00	BASE	0.00	235	M	M	0.1	100	0.1	131	0	995.5	NA	0.0000		9999	0	0	0	0
2019/11/29 09:40:00	BASE	0.04	233	1.03	239	0.1	100	0.1	130	0	995.5	NA	0.0000		9999	0	0	0	0
2019/11/29 09:41:00	BASE	0.04	238	1.03	239	0.1	100	0.1	129	0	995.5	NA	0.0000		9999	0	0	0	0
2019/11/29 09:42:00	BASE	0.00	244	1.03	239	0.1	100	0.1	129	0	995.5	NA	0.0000		9999	0	0	0	0
2019/11/29 09:43:00	BASE	0.00	247	1.03	239	0.1	100	0.1	129	0	995.5	NA	0.0000		9999	10170	0	0	0
2019/11/29 09:44:00	BASE	0.00	253	1.03	239	0.0	100	0.0	129	0	995.5	NA	0.0000		9999	0	0	0	0
2019/11/29 09:45:00	BASE	0.00	254	1.03	239	0.0	100	0.0	129	0	995.5	NA	0.0000		9999	0	0	0	0
2019/11/29 09:46:00	BASE	0.00	254	1.03	239	0.1	100	0.1	129	0	995.5	NA	0.0000		9999	0	0	0	0
2019/11/29 09:47:00	BASE	0.00	264	1.03	239	0.2	100	0.2	128	0	995.5	NA	0.0000		9999	0	0	0	0
2019/11/29 09:48:00	BASE	0.00	261	1.03	239	0.3	100	0.3	128	0	995.5	NA	0.0000		9999	0	0	0	0
2019/11/29 09:49:00	BASE	0.00	252	1.03	239	0.3	100	0.3	126	0	995.5	NA	0.0000		9999	0	0	0	0
2019/11/29 09:50:00	BASE	0.00	254	M	M	0.3	100	0.3	125	0	995.5	NA	0.0000		9999	0	0	0	0
2019/11/29 09:51:00	BASE	0.00	265	M	M	0.4	100	0.4	124	0	995.5	NA	0.0000		9999	0	0	0	0
2019/11/29 09:52:00	BASE	0.00	291	M	M	0.3	100	0.3	123	0	995.5	NA	0.0000		9999	0	0	0	0
2019/11/29 09:53:00	BASE	0.00	306	M	M	0.3	100	0.3	122	0	995.5	NA	0.0000		9999	0	0	0	0
2019/11/29 09:54:00	BASE	0.00	310	M	M	0.3	100	0.3	122	0	995.6	NA	0.0000		9999	12760	0	0	0
2019/11/29 09:55:00	BASE	0.00	315	M	M	0.4	100	0.4	122	0	995.7	NA	0.0000		9999	11450	0	0	0
2019/11/29 09:56:00	BASE	0.00	326	M	M	0.4	100	0.4	123	0	995.7	NA	0.0000		9999	12110	0	0	0
2019/11/29 09:57:00	BASE	0.00	334	M	M	0.5	100	0.5	125	0	995.6	NA	0.0000		9999	10470	20150	0	0
2019/11/29 09:58:00	BASE	0.00	332	M	M	0.5	100	0.5	126	0	995.5	NA	0.0000		9999	12530	0	0	0
2019/11/29 09:59:00	BASE	0.00	328	M	M	0.5	100	0.5	128	0	995.5	NA	0.0000		9999	12430	0	0	0
2019/11/29 10:00:00	BASE	0.14	337	1.18	341	0.4	100	0.4	130	0	995.5	NA	0.0000		9999	10470	0	0	0
2019/11/29 10:01:00	BASE	0.14	351	1.18	341	0.4	100	0.4	131	0	995.5	NA	0.0000		9999	10400	0	0	0
2019/11/29 10:02:00	BASE	0.00	352	1.18	341	0.3	100	0.3	133	0	995.5	NA	0.0000		9999	10470	10960	0	0
2019/11/29 10:03:00	BASE	0.00	347	1.18	341	0.2	100	0.2	134	0	995.5	NA	0.0000		9999	10370	10990	0	0
2019/11/29 10:04:00	BASE	0.00	347	1.18	341	0.1	100	0.1	135	0	995.5	NA	0.0000		9999	10200	0	0	0
2019/11/29 10:05:00	BASE	0.00	349	1.18	341	0.1	100	0.1	136	0	995.5	NA	0.0000		9999	10300	0	0	0
2019/11/29 10:06:00	BASE	0.00	347	1.18	341	0.1	100	0.1	137	0	995.5	NA	0.0000		9999	10240	0	0	0
2019/11/29 10:07:00	BASE	0.00	339	1.18	341	0.2	100	0.2	138	0	995.5	NA	0.0000		9999	12960	0	0	0
2019/11/29 10:08:00	BASE	0.00	328	1.18	341	0.2	100	0.2	139	0	995.5	NA	0.0000		9999	12700	0	0	0
2019/11/29 10:09:00	BASE	0.00	323	1.18	341	0.2	100	0.2	140	0	995.4	NA	0.0000		9999	12630	0	0	0
2019/11/29 10:10:00	BASE	0.00	323	M	M	0.3	100	0.3	141	0	995.4	NA	0.0000		9999	12430	0	0	0
2019/11/29 10:11:00	BASE	0.00	323	M	M	0.3	100	0.3	142	0	995.5	NA	0.0000		9999	12110	0	0	0
2019/11/29 10:12:00	BASE	0.00	315	M	M	0.3	100	0.3	142	0	995.5	NA	0.0000		9999	12270	0	0	0
2019/11/29 10:13:00	BASE	0.00	306	M	M	0.3	100	0.3	143	0	995.5	NA	0.0000		9999	11940	0	0	0
2019/11/29 10:14:00	BASE	0.00	309	M	M	0.3	100	0.3	144	0	995.5	NA	0.0000		9999	11220	0	0	0
2019/11/29 10:15:00	BASE	0.00	308	M	M	0.2	100	0.2	145	0	995.5	NA	0.0000		9999	11450	0	0	0
2019/11/29 10:16:00	BASE	0.00	300	M	M	0.1	100	0.1	146	0	995.5	NA	0.0000		9999	10660	0	0	0
2019/11/29 10:17:00	BASE	0.00	297	M	M	0.1	100	0.1	146	0	995.5	NA	0.0000		9999	11910	0	0	0
2019/11/29 10:18:00	BASE	0.00	298	M	M	0.1	100	0.1	147	0	995.5	NA	0.0000		9999	10300	0	0	0
2019/11/29 10:19:00	BASE	0.00	303	M	M	0.1	100	0.1	148	0	995.5	NA	0.0000		9999	11060	0	0	0
2019/11/29 10:20:00	BASE	0.00	311	M	M	0.2	100	0.2	149	0	995.5	NA	0.0000		9999	11910	0	0	0
2019/11/29 10:21:00	BASE	0.00	318	M	M	0.3	100	0.3	149	0	995.5	NA	0.0000		9999	10890	0	0	0
2019/11/29 10:22:00	BASE	0.00	330	M	M	0.4	100	0.4	150	0	995.5	NA	0.0000		9999	11390	0	0	0
2019/11/29 10:23:00	BASE	0.00	336	M	M	0.4	100	0.4	151	0	995.4	NA	0.0000		9999	11680	0	0	0
2019/11/29 10:24:00	BASE	0.00	330	M	M	0.5	100	0.5	152	0	995.5	NA	0.0000		9999	11090	0	0	0
2019/11/29 10:25:00	BASE	0.00	329	M	M	0.4	100	0.4	153	0	995.4	NA	0.0000		9999	0	0	0	0
2019/11/29 10:26:00	BASE	0.00	330	M	M	0.4	100	0.4	153	0	995.4	NA	0.0000		9999	11090	0	0	0
2019/11/29 10:27:00	BASE	0.00	328	M	M	0.3	100	0.3	154	0	995.4	NA	0.0000		9999	0	0	0	0
2019/11/29 10:28:00	BASE	0.00	326	M	M	0.3	100	0.3	155	0	995.4	NA	0.0000		9999	11120	0	0	0
2019/11/29 10:29:00	BASE	0.00	327	M	M	0.3	100	0.3	155	0	995.4	NA	0.0000		9999	10430	0	0	0
2019/11/29 10:30:00	BASE	0.00	329	M	M	0.2	100	0.2	156	0	995.4	NA	0.0000		9999	0	0	0	0
2019/11/29 10:31:00	BASE	0.00	338	M	M	0.3	100	0.3	157	0	995.4	NA	0.0000		9999	0	0	0	0
2019/11/29 10:32:00	BASE	0.00	346	M	M	0.3	100	0.3	158	0	995.4	NA	0.0000		9999	0	0	0	0
2019/11/29 10:33:00	BASE	0.05	347	1.08	343	0.3	100	0.3	159	0	995.4	NA	0.0000		9999	0	0	0	0
2019/11/29 10:34:00	BASE	0.05	354	1.08	343	0.3	100	0.3	160	0	995.4	NA	0.0000		9999	8630	0	0	0
2019/11/29 10:35:00	BASE	0.00	356	1.08	343	0.3	100	0.3	161	0	995.4	NA	0.0000		9999	21520	0	0	0
2019/11/29 10:36:00	BASE	0.00	346	1.08	343	0.2	100	0.2	162	0	995.4	NA	0.0000		9999	9780	0	0	0
2019/11/29 10:37:00	BASE	0.00	345	1.08	343	0.2	100	0.2	164	0	995.4	NA	0.0000		9999	10400	0	0	0
2019/11/29 10:38:00	BASE	0.00	356	1.08	343	0.3	100	0.3	165	0	995.4	NA	0.0000		9999	9320	0	0	0
2019/11/29 10:39:00	BASE	0.00	10	1.08	343	0.3	100	0.3	166	0	995.4	NA	0.0000		9999	8330	0	0	0
2019/11/29 10:40:00	BASE	0.04	13	1.08	343	0.3	100	0.3	167	0	995.4	NA	0.0000		9999	8960	0	0	0
2019/11/29 10:41:00	BASE	0.04	4	1.08	343	0.4	100	0.4	168	0	995.4	NA	0.0000		9999	8990	0	0	0
2019/11/29 10:42:00	BASE	0.13	355	1.08	349	0.4	100	0.4	168	0	995.4	NA	0.0000		9999	8960	0	0	0
2019/11/29 10:43:00	BASE	0.17	348	1.08	349	0.4	100	0.4	169	0	995.4	NA	0.0000		9999	9250	0	0	0
2019/11/29 10:44:00	BASE	0.04	346	1.08	349	0.4	100	0.4	170	0	995.4	NA	0.0000		9999	8270	0	0	0
2019/11/29 10:45:00	BASE	0.00	352	1.08	349	0.4	100	0.4	170	0	995.4	NA	0.0000		9999	9320	0	0	0
2019/11/29 10:46:00	BASE	0.00	2	1.08	349	0.3	100	0.3	171	0	995.4	NA	0.0000		9999	9550	0	0	0
2019/11/29 10:47:00	BASE	0.00	359	1.08	349	0.3	100	0.3	171	0	995.4	NA	0.0000		9999	9550	0	0	0
2019/11/29 10:48:00	BASE	0.00	345	1.08	349	0.4	100	0.4	171	0	995.4	NA	0.0000		9999	8790	0	0	0
2019/11/29 10:49:00	BASE	0.00	346	1.08	349	0.4	100	0.4	172	0	995.4	NA	0.0000		9999	0	0	0	0
2019/11/29 10:50:00	BASE	0.00	335	1.08	349	0.4	100	0.4	173	0	995.4	NA	0.0000		9999	8270	0	0	0
2019/11/29 10:51:00	BASE	0.00	314	1.08	349	0.5	100	0.5	173	0	995.4	NA	0.0000		9999	9150	0	0	0
2019/11/29 10:52:00	BASE	0.00	291	1.03	349	0.5	100	0.5	173	0	995.4	NA	0.0000		9999	11580	0	0	0
2019/11/29 10:53:00	BASE	0.00	279	M	M	0.4	100	0.4	174	0	995.4	NA	0.0000		9999	12400	0	0	0
2019/11/29 10:54:00	BASE	0.00	291	M	M	0.4	100	0.4	174	0	995.4	NA	0.0000		9999	11090	0	0	0
2019/11/29 10:55:00	BASE	0.00	301	M	M	0.4	100	0.4	174	0	995.4	NA	0.0000		9999	12570	0	0	0
2019/11/29 10:56:00	BASE	0.00	305	M	M	0.4	100	0.4	174	0	995.4	NA	0.0000		9999	11780	0	0	0
2019/11/29 10:57:00	BASE	0.00	305	M	M	0.4	100	0.4	174	0	995.4	NA	0.0000		9999	11520	0	0	0
2019/11/29 10:58:00	BASE	0.00	278	M	M	0.4	100	0.4	174	0	995.4	NA	0.0000		9999	11220	0	0	0
2019/11/29 10:59:00	BASE	0.00	224	M	M	0.4	100	0.4	175	0	995.4	NA	0.0000		9999	0	0	0	0
2019/11/29 11:00:00	BASE	0.00	185	M	M	0.4	100	0.4	175	0	995.4	NA	0.0000		9999	0	0	0	0
2019/11/29 11:01:00	BASE	0.00	178	M	M	0.5	100	0.5	176	0	995.4	NA	0.0000		9999	0	0	0	0
2019/11/29 11:02:00	BASE	0.00	182	M	M	0.5	100	0.5	177	0	995.4	NA	0.0000		9999	0	0	0	0
2019/11/29 11:03:00	BASE	0.00	182	M	M	0.5	100	0.5	178	0	995.4	NA	0.0000		9999	0	0	0	0
2019/11/29 11:04:00	BASE	0.00	183	M	M	0.5	100	0.5	179	0	995.4	NA	0.0000		9999	0	0	0	0
2019/11/29 11:05:00	BASE	0.00	198	M	M	0.5	100	0.5	180	0	995.4	NA	0.0000		9999	0	0	0	0
2019/11/29 11:06:00	BASE	0.00	199	M	M	0.5	100	0.5	182	0	995.4	NA	0.0000		9999	0	0	0	0
2019/11/29 11:07:00	BASE	0.00	178	M	M	0.5	100	0.5	184	0	995.4	NA	0.0000		9999	0	0	0	0
2019/11/29 11:08:00	BASE	0.00	157	M	M	0.5	100	0.5	185	0	995.4	NA	0.0000		9999	19550	0	0	0
2019/11/29 11:09:00	BASE	0.00	24	M	M	0.5	100	0.5	187	0	995.4	NA	0.0000		9999	7840	0	0	0
2019/11/29 11:10:00	BASE	0.00	4	M	M	0.5	100	0.5	189	0	995.4	NA	0.0000		9999	0	0	0	0
2019/11/29 11:11:00	BASE	0.00	4	M	M	0.5	100	0.5	191	0	995.4	NA	0.0000		9999	0	0	0	0
2019/11/29 11:12:00	BASE	0.00	6	M	M	0.5	100	0.5	193	0	995.4	NA	0.0000		9999	20740	0	0	0
2019/11/29 11:13:00	BASE	0.00	11	M	M	0.5	100	0.5	196	0	995.2	NA	0.0000		9999	0	0	0	0
2019/11/29 11:14:00	BASE	0.00	3	M	M	0.5	100	0.5	198	0	995.4	NA	0.0000		9999	0	0	0	0
2019/11/29 11:15:00	BASE	0.00	349	M	M	0.5	100	0.5	200	0	995.5	NA	0.0000		9999	0	0	0	0
2019/11/29 11:16:00	BASE	0.00	337	M	M	0.5	100	0.5	203	0	995.5	NA	0.0000		9999	0	0	0	0
2019/11/29 11:17:00	BASE	0.00	316	M	M	0.5	100	0.5	205	0	995.4	NA	0.0000		9999	7640	0	0	0
2019/11/29 11:18:00	BASE	0.00	269	M	M	0.6	100	0.6	208	0	995.4	NA	0.0000		9999	9480	0	0	0
2019/11/29 11:19:00	BASE	0.00	214	M	M	0.6	100	0.6	212	0	995.4	NA	0.0000		9999	8630	0	0	0
2019/11/29 11:20:00	BASE	0.31	198	1.18	188	0.6	100	0.6	215	0	995.4	NA	0.0000		9999	10300	0	0	0
2019/11/29 11:21:00	BASE	0.93	191	1.44	194	0.5	100	0.5	219	0	995.4	NA	0.0000		9999	0	0	0	0
2019/11/29 11:22:00	BASE	1.35	191	1.59	185	0.5	100	0.5	223	0	995.4	NA	0.0000		9999	0	0	0	0
2019/11/29 11:23:00	BASE	1.51	188	1.75	182	0.4	100	0.4	227	0	995.4	NA	0.0000		9999	0	0	0	0
2019/11/29 11:24:00	BASE	1.59	186	1.85	188	0.4	100	0.4	231	0	995.4	NA	0.0000		9999	0	0	0	0
2019/11/29 11:25:00	BASE	1.75	186	2.11	186	0.4	100	0.4	236	0	995.4	NA	0.0000		9999	0	0	0	0
2019/11/29 11:26:00	BASE	1.91	184	2.26	178	0.4	100	0.4	242	0	995.4	NA	0.0000		9999	0	0	0	0
2019/11/29 11:27:00	BASE	2.01	178	2.26	178	0.4	100	0.4	248	0	995.4	NA	0.0000		9999	0	0	0	0
2019/11/29 11:28:00	BASE	2.19	168	2.52	158	0.4	100	0.4	255	0	995.4	NA	0.0000		9999	0	0	0	0
2019/11/29 11:29:00	BASE	2.35	159	2.52	159	0.4	100	0.4	263	0	995.4	NA	0.0000		9999	7970	0	0	0
2019/11/29 11:30:00	BASE	2.38	158	2.52	162	0.4	100	0.4	270	0	995.4	NA	0.0000		9999	0	0	0	0
2019/11/29 11:31:00	BASE	2.24	159	2.52	161	0.5	100	0.5	277	0	995.1	NA	0.0000		9999	7870	0	0	0
2019/11/29 11:32:00	BASE	2.08	158	2.52	161	0.5	100	0.5	288	0	995.4	NA	0.0000		9999	7810	0	0	0
2019/11/29 11:33:00	BASE	1.98	158	2.52	161	0.5	100	0.5	299	0	995.4	NA	0.0000		9999	7910	0	0	0
2019/11/29 11:34:00	BASE	1.79	157	2.52	161	0.5	100	0.5	315	0	995.4	NA	0.0000		9999	8370	0	0	0
2019/11/29 11:35:00	BASE	1.75	157	2.52	161	0.5	100	0.5	331	0	995.4	NA	0.0000		9999	8960	0	0	0
2019/11/29 11:36:00	BASE	1.88	159	2.52	161	0.5	100	0.5	349	0	995.4	NA	0.0000		9999	8660	0	0	0
2019/11/29 11:37:00	BASE	1.84	163	2.52	161	0.5	100	0.5	362	0	995.4	NA	0.0000		9999	8270	0	0	0
2019/11/29 11:38:00	BASE	1.76	164	2.52	161	0.5	100	0.5	388	0	995.4	NA	0.0000		9999	9060	0	0	0
2019/11/29 11:39:00	BASE	1.88	161	2.52	161	0.5	100	0.5	409	0	995.4	NA	0.0000		9999	8760	0	0	0
2019/11/29 11:40:00	BASE	2.05	162	2.52	161	0.5	100	0.5	414	0	995.4	NA	0.0000		9999	11420	0	0	0
2019/11/29 11:41:00	BASE	1.97	161	2.37	162	0.6	100	0.6	422	0	995.4	NA	0.0000		9999	10470	0	0	0
2019/11/29 11:42:00	BASE	1.67	164	2.37	162	0.6	100	0.6	424	0	995.4	NA	0.0000		9999	7970	0	0	0
2019/11/29 11:43:00	BASE	1.51	165	2.37	162	0.6	100	0.6	440	0	995.4	NA	0.0000		9999	0	0	0	0
2019/11/29 11:44:00	BASE	1.49	161	2.37	162	0.7	100	0.7	442	0	995.4	NA	0.0000		9999	8790	0	0	0
2019/11/29 11:45:00	BASE	1.42	158	2.37	162	0.7	100	0.7	444	0	995.4	NA	0.0000		9999	8500	0	0	0
2019/11/29 11:46:00	BASE	1.28	155	2.37	162	0.8	100	0.8	454	0	995.4	NA	0.0000		9999	7380	0	0	0
2019/11/29 11:47:00	BASE	1.20	152	2.37	162	0.9	100	0.9	453	0	995.4	NA	0.0000		9999	7870	0	0	0
2019/11/29 11:48:00	BASE	1.15	154	2.37	162	1.0	100	1.0	455	0	995.4	NA	0.0000		9999	7840	0	0	0
2019/11/29 11:49:00	BASE	1.39	158	2.37	162	1.0	100	1.0	464	0	995.4	NA	0.0000		9999	8330	0	0	0
2019/11/29 11:50:00	BASE	1.62	161	1.95	163	1.0	100	1.0	465	0	995.4	NA	0.0000		9999	19550	0	0	0
2019/11/29 11:51:00	BASE	1.00	158	1.95	163	0.9	100	0.9	489	0	995.3	NA	0.0000		9999	11810	0	0	0
2019/11/29 11:52:00	BASE	0.40	156	1.95	163	0.8	100	0.8	490	0	995.3	NA	0.0000		9999	8830	0	0	0
2019/11/29 11:53:00	BASE	0.19	144	1.95	163	0.8	100	0.8	503	0	995.3	NA	0.0000		9999	0	0	0	0
2019/11/29 11:54:00	BASE	0.00	125	1.95	163	0.9	100	0.9	520	0	995.3	NA	0.0000		9999	13390	0	0	0
2019/11/29 11:55:00	BASE	0.00	119	1.95	163	0.9	100	0.9	525	0	995.3	NA	0.0000		9999	10890	0	0	0
2019/11/29 11:56:00	BASE	0.00	82	1.95	163	1.0	100	1.0	512	0	995.3	NA	0.0000		9999	0	0	0	0
2019/11/29 11:57:00	BASE	0.00	33	1.95	163	1.1	100	1.1	504	0	994.6	NA	0.0000		9999	10630	0	0	0
2019/11/29 11:58:00	BASE	0.00	13	1.95	163	1.2	100	1.2	490	0	994.4	NA	0.0000		9999	12370	0	0	0
2019/11/29 11:59:00	BASE	0.00	4	1.95	163	1.2	100	1.2	467	0	995.3	NA	0.0000		9999	10790	0	0	0
2019/11/29 12:00:00	BASE	0.00	0	1.39	159	1.3	100	1.3	458	0	995.1	NA	0.0000		9999	11810	0	0	0
2019/11/29 12:01:00	BASE	0.00	349	1.18	157	1.3	100	1.3	451	0	995.2	NA	0.0000		9999	0	0	0	0
2019/11/29 12:02:00	BASE	0.00	331	M	M	1.3	100	1.3	451	0	995.3	NA	0.0000		9999	0	0	0	0
2019/11/29 12:03:00	BASE	0.00	327	M	M	1.4	100	1.4	449	0	994.7	NA	0.0000		9999	11520	0	0	0
2019/11/29 12:04:00	BASE	0.00	332	M	M	1.4	100	1.4	445	0	994.9	NA	0.0000		9999	0	0	0	0
2019/11/29 12:05:00	BASE	0.00	347	M	M	1.4	100	1.4	433	0	994.4	NA	0.0000		9999	0	0	0	0
2019/11/29 12:06:00	BASE	0.48	4	1.29	12	1.5	100	1.5	422	0	994.7	NA	0.0000		9999	0	0	0	0
2019/11/29 12:07:00	BASE	1.16	15	1.59	24	1.5	100	1.5	421	0	994.9	NA	0.0000		9999	19780	0	0	0
2019/11/29 12:08:00	BASE	1.43	23	1.65	25	1.4	100	1.4	411	0	995.3	NA	0.0000		9999	0	0	0	0
2019/11/29 12:09:00	BASE	1.50	27	1.65	33	1.4	100	1.4	413	0	995.3	NA	0.0000		9999	0	0	0	0
2019/11/29 12:10:00	BASE	1.17	27	1.65	33	1.3	100	1.3	394	0	995.3	NA	0.0000		9999	0	0	0	0
2019/11/29 12:11:00	BASE	0.47	31	1.65	33	1.3	100	1.3	368	0	995.3	NA	0.0000		9999	0	0	0	0
2019/11/29 12:12:00	BASE	0.38	44	1.65	33	1.3	100	1.3	366	0	995.3	NA	0.0000		9999	0	0	0	0
2019/11/29 12:13:00	BASE	1.01	53	1.65	33	1.3	100	1.3	353	0	994.9	NA	0.0000		9999	0	0	0	0
2019/11/29 12:14:00	BASE	1.31	51	1.65	33	1.3	100	1.3	346	0	994.4	NA	0.0000		9999	0	0	0	0
2019/11/29 12:15:00	BASE	1.09	44	1.65	33	1.4	100	1.4	340	0	995.0	NA	0.0000		9999	0	0	0	0
2019/11/29 12:16:00	BASE	0.83	38	1.65	33	1.5	100	1.5	336	0	995.3	NA	0.0000		9999	0	0	0	0
2019/11/29 12:17:00	BASE	0.42	34	1.65	33	1.5	100	1.5	332	0	994.7	NA	0.0000		9999	0	0	0	0
2019/11/29 12:18:00	BASE	0.05	32	1.65	33	1.5	100	1.5	334	0	995.3	NA	0.0000		9999	0	0	0	0
2019/11/29 12:19:00	BASE	0.00	32	1.44	49	1.5	100	1.5	319	0	994.9	NA	0.0000		9999	0	0	0	0
2019/11/29 12:20:00	BASE	0.00	38	1.44	49	1.4	100	1.4	300	0	994.3	NA	0.0000		9999	6690	0	0	0
2019/11/29 12:21:00	BASE	0.15	41	1.44	49	1.4	100	1.4	281	0	995.1	NA	0.0000		9999	6300	0	0	0
2019/11/29 12:22:00	BASE	0.32	38	1.44	49	1.4	100	1.4	267	0	995.3	NA	0.0000		9999	6760	0	0	0
2019/11/29 12:23:00	BASE	0.31	42	1.44	49	1.4	100	1.4	258	0	994.9	NA	0.0000		9999	7190	0	0	0
2019/11/29 12:24:00	BASE	0.33	34	1.39	45	1.5	100	1.5	248	0	994.8	NA	0.0000		9999	6430	0	0	0
2019/11/29 12:25:00	BASE	0.74	29	1.44	25	1.4	100	1.4	244	0	995.3	NA	0.0000		9999	6560	0	0	0
2019/11/29 12:26:00	BASE	0.87	35	1.44	25	1.4	100	1.4	241	0	995.3	NA	0.0000		9999	0	0	0	0
2019/11/29 12:27:00	BASE	0.32	38	1.44	25	1.4	100	1.4	241	0	995.3	NA	0.0000		9999	0	0	0	0
2019/11/29 12:28:00	BASE	0.00	47	1.44	25	1.4	100	1.4	240	0	995.3	NA	0.0000		9999	0	0	0	0
2019/11/29 12:29:00	BASE	0.46	60	1.44	25	1.4	100	1.4	239	0	995.3	NA	0.0000		9999	0	0	0	0
2019/11/29 12:30:00	BASE	0.69	61	1.44	25	1.4	100	1.4	238	0	995.3	NA	0.0000		9999	0	0	0	0
2019/11/29 12:31:00	BASE	0.80	58	1.54	47	1.4	100	1.4	237	0	995.3	NA	0.0000		9999	5970	0	0	0
2019/11/29 12:32:00	BASE	1.16	51	1.59	45	1.4	100	1.4	237	0	995.3	NA	0.0000		9999	0	0	0	0
2019/11/29 12:33:00	BASE	1.04	42	1.59	45	1.4	100	1.4	240	0	995.3	NA	0.0000		9999	6170	0	0	0
2019/11/29 12:34:00	BASE	0.59	44	1.59	45	1.4	100	1.4	243	0	995.3	NA	0.0000		9999	0	0	0	0
2019/11/29 12:35:00	BASE	0.17	43	1.59	45	1.4	100	1.4	250	0	995.3	NA	0.0000		9999	0	0	0	0
2019/11/29 12:36:00	BASE	0.22	42	1.59	45	1.4	100	1.4	256	0	995.3	NA	0.0000		9999	0	0	0	0
2019/11/29 12:37:00	BASE	0.60	43	1.59	45	1.4	100	1.4	265	0	995.0	NA	0.0000		9999	6200	0	0	0
2019/11/29 12:38:00	BASE	0.77	48	1.59	45	1.4	100	1.4	270	0	995.3	NA	0.0000		9999	6370	0	0	0
2019/11/29 12:39:00	BASE	0.65	52	1.59	45	1.4	100	1.4	273	0	995.3	NA	0.0000		9999	6170	0	0	0
2019/11/29 12:40:00	BASE	0.91	61	1.59	45	1.4	100	1.4	282	0	995.3	NA	0.0000		9999	6100	0	0	0
2019/11/29 12:41:00	BASE	1.13	69	1.59	71	1.4	100	1.4	292	0	995.3	NA	0.0000		9999	6140	0	0	0
2019/11/29 12:42:00	BASE	1.06	60	1.59	71	1.4	100	1.4	304	0	995.3	NA	0.0000		9999	6000	0	0	0
2019/11/29 12:43:00	BASE	1.22	49	1.59	71	1.4	100	1.4	310	0	995.3	NA	0.0000		9999	5510	0	0	0
2019/11/29 12:44:00	BASE	1.46	48	1.75	51	1.4	100	1.4	311	0	995.3	NA	0.0000		9999	22670	0	0	0
2019/11/29 12:45:00	BASE	1.54	51	1.90	51	1.5	100	1.5	313	0	995.3	NA	0.0000		9999	6500	0	0	0
2019/11/29 12:46:00	BASE	1.56	51	1.90	51	1.5	100	1.5	324	0	995.3	NA	0.0000		9999	6000	0	0	0
2019/11/29 12:47:00	BASE	1.47	55	1.90	51	1.5	100	1.5	335	0	995.3	NA	0.0000		9999	0	0	0	0
2019/11/29 12:48:00	BASE	1.00	65	1.90	51	1.4	100	1.4	336	0	995.3	NA	0.0000		9999	0	0	0	0
2019/11/29 12:49:00	BASE	0.46	72	1.90	51	1.3	100	1.3	335	0	995.3	NA	0.0000		9999	0	0	0	0
2019/11/29 12:50:00	BASE	0.14	72	1.90	51	1.3	100	1.3	337	0	995.2	NA	0.0000		9999	0	0	0	0
2019/11/29 12:51:00	BASE	0.00	67	1.90	51	1.3	100	1.3	339	0	995.2	NA	0.0000		9999	5840	0	0	0
2019/11/29 12:52:00	BASE	0.23	56	1.90	51	1.3	100	1.3	337	0	995.2	NA	0.0000		9999	8200	0	0	0
2019/11/29 12:53:00	BASE	0.23	40	1.90	51	1.3	100	1.3	352	0	995.2	NA	0.0000		9999	8660	0	0	0
2019/11/29 12:54:00	BASE	0.05	30	1.90	51	1.4	100	1.4	351	0	995.2	NA	0.0000		9999	8530	0	0	0
2019/11/29 12:55:00	BASE	0.19	32	1.75	47	1.5	100	1.5	377	0	995.2	NA	0.0000		9999	8630	0	0	0
2019/11/29 12:56:00	BASE	0.14	33	1.54	58	1.5	100	1.5	382	0	995.2	NA	0.0000		9999	21920	0	0	0
2019/11/29 12:57:00	BASE	0.00	32	1.29	42	1.4	100	1.4	384	0	995.2	NA	0.0000		9999	9190	0	0	0
2019/11/29 12:58:00	BASE	0.00	33	1.29	42	1.4	100	1.4	381	0	995.2	NA	0.0000		9999	0	0	0	0
2019/11/29 12:59:00	BASE	0.00	39	1.29	42	1.4	100	1.4	385	0	995.2	NA	0.0000		9999	0	0	0	0
2019/11/29 13:00:00	BASE	0.00	44	1.29	42	1.4	100	1.4	397	0	995.2	NA	0.0000		9999	24410	0	0	0
2019/11/29 13:01:00	BASE	0.00	46	1.29	42	1.5	100	1.5	396	0	995.2	NA	0.0000		9999	11680	0	0	0
2019/11/29 13:02:00	BASE	0.00	44	1.29	42	1.6	100	1.6	417	0	995.2	NA	0.0000		9999	11710	0	0	0
2019/11/29 13:03:00	BASE	0.00	41	1.29	42	1.8	100	1.8	420	0	995.2	NA	0.0000		9999	11580	0	0	0
2019/11/29 13:04:00	BASE	0.00	55	1.29	42	1.9	100	1.9	419	0	995.2	NA	0.0000		9999	11480	0	0	0
2019/11/29 13:05:00	BASE	0.00	98	M	M	1.9	100	1.9	398	0	995.2	NA	0.0000		9999	11290	0	0	0
2019/11/29 13:06:00	BASE	0.00	142	M	M	2.0	100	2.0	416	0	995.1	NA	0.0000		9999	11610	0	0	0
2019/11/29 13:07:00	BASE	0.00	163	M	M	1.9	100	1.9	425	0	995.1	NA	0.0000		9999	10760	0	0	0
2019/11/29 13:08:00	BASE	0.00	166	M	M	1.8	100	1.8	470	0	995.1	NA	0.0000		9999	7480	0	0	0
2019/11/29 13:09:00	BASE	0.00	167	M	M	1.6	100	1.6	460	0	995.1	NA	0.0000		9999	10430	0	0	0
2019/11/29 13:10:00	BASE	0.56	170	1.54	170	1.5	100	1.5	506	0	995.1	NA	0.0000		9999	10170	0	0	0
2019/11/29 13:11:00	BASE	1.22	169	1.54	165	1.4	100	1.4	493	0	995.1	NA	0.0000		9999	0	0	0	0
2019/11/29 13:12:00	BASE	1.40	170	1.59	170	1.4	100	1.4	465	0	995.0	NA	0.0000		9999	0	0	0	0
2019/11/29 13:13:00	BASE	1.53	170	1.80	168	1.4	100	1.4	471	0	995.1	NA	0.0000		9999	0	0	0	0
2019/11/29 13:14:00	BASE	1.40	166	1.80	168	1.3	100	1.3	486	0	995.1	NA	0.0000		9999	0	0	0	0
2019/11/29 13:15:00	BASE	0.83	165	1.80	168	1.3	100	1.3	499	0	995.1	NA	0.0000		9999	0	0	0	0
2019/11/29 13:16:00	BASE	0.27	162	1.80	168	1.4	100	1.4	506	0	995.1	NA	0.0000		9999	0	0	0	0
2019/11/29 13:17:00	BASE	0.04	163	1.80	168	1.5	100	1.5	488	0	994.9	NA	0.0000		9999	0	0	0	0
2019/11/29 13:18:00	BASE	0.00	165	1.80	168	1.6	100	1.6	494	0	995.1	NA	0.0000		9999	0	0	0	0
2019/11/29 13:19:00	BASE	0.13	168	1.80	168	1.6	100	1.6	492	0	995.1	NA	0.0000		9999	0	0	0	0
2019/11/29 13:20:00	BASE	0.26	172	1.80	168	1.6	100	1.6	494	0	995.1	NA	0.0000		9999	0	0	0	0
2019/11/29 13:21:00	BASE	0.13	169	1.80	168	1.5	100	1.5	502	0	995.0	NA	0.0000		9999	0	0	0	0
2019/11/29 13:22:00	BASE	0.00	163	1.80	168	1.5	100	1.5	539	0	994.9	NA	0.0000		9999	10200	0	0	0
2019/11/29 13:23:00	BASE	0.00	157	1.39	157	1.5	100	1.5	501	0	994.9	NA	0.0000		9999	10960	0	0	0
2019/11/29 13:24:00	BASE	0.00	159	1.13	164	1.5	100	1.5	453	0	994.9	NA	0.0000		9999	0	0	0	0
2019/11/29 13:25:00	BASE	0.33	171	1.18	178	1.5	100	1.5	465	0	994.9	NA	0.0000		9999	0	0	0	0
2019/11/29 13:26:00	BASE	0.93	177	1.29	178	1.5	100	1.5	470	0	994.6	NA	0.0000		9999	10340	0	0	0
2019/11/29 13:27:00	BASE	1.12	178	1.29	178	1.5	100	1.5	458	0	994.9	NA	0.0000		9999	6590	0	0	0
2019/11/29 13:28:00	BASE	1.09	178	1.34	180	1.4	100	1.4	447	0	994.9	NA	0.0000		9999	6530	0	0	0
2019/11/29 13:29:00	BASE	0.57	176	1.34	180	1.3	100	1.3	428	0	994.9	NA	0.0000		9999	6560	0	0	0
2019/11/29 13:30:00	BASE	0.00	173	1.34	180	1.3	100	1.3	436	0	994.9	NA	0.0000		9999	0	0	0	0
2019/11/29 13:31:00	BASE	0.00	169	1.34	180	1.3	100	1.3	458	0	994.9	NA	0.0000		9999	0	0	0	0
2019/11/29 13:32:00	BASE	0.00	166	1.34	180	1.3	100	1.3	465	0	994.9	NA	0.0000		9999	0	0	0	0
2019/11/29 13:33:00	BASE	0.00	166	1.34	180	1.3	100	1.3	456	0	994.9	NA	0.0000		9999	0	0	0	0
2019/11/29 13:34:00	BASE	0.00	166	1.34	180	1.3	100	1.3	450	0	994.7	NA	0.0000		9999	0	0	0	0
2019/11/29 13:35:00	BASE	0.00	164	1.34	180	1.4	100	1.4	450	0	994.9	NA	0.0000		9999	19750	0	0	0
2019/11/29 13:36:00	BASE	0.00	162	1.34	180	1.4	100	1.4	456	0	994.9	NA	0.0000		9999	0	0	0	0
2019/11/29 13:37:00	BASE	0.00	155	1.34	180	1.5	100	1.5	461	0	994.9	NA	0.0000		9999	0	0	0	0
2019/11/29 13:38:01	BASE	0.00	142	M	M	1.5	100	1.5	466	0	994.9	NA	0.0000		9999	0	0	0	0
2019/11/29 13:39:00	BASE	0.00	106	M	M	1.6	100	1.6	451	0	994.9	NA	0.0000		9999	11190	0	0	0
2019/11/29 13:40:00	BASE	0.00	72	M	M	1.6	100	1.6	457	0	994.9	NA	0.0000		9999	11840	0	0	0
2019/11/29 13:41:00	BASE	0.00	99	M	M	1.7	100	1.7	431	0	994.9	NA	0.0000		9999	10790	0	0	0
2019/11/29 13:42:00	BASE	0.00	143	M	M	1.8	100	1.8	448	0	994.9	NA	0.0000		9999	10830	0	0	0
2019/11/29 13:43:00	BASE	0.00	164	M	M	1.8	100	1.8	450	0	994.9	NA	0.0000		9999	10730	0	0	0
2019/11/29 13:44:00	BASE	0.00	170	M	M	1.8	100	1.8	453	0	994.9	NA	0.0000		9999	6920	10760	0	0
2019/11/29 13:45:00	BASE	0.00	172	M	M	1.9	100	1.9	448	0	994.7	NA	0.0000		9999	6960	7480	0	0
2019/11/29 13:46:00	BASE	0.00	230	M	M	2.0	100	2.0	457	0	994.9	NA	0.0000		9999	6920	0	0	0
2019/11/29 13:47:00	BASE	0.00	288	M	M	2.1	100	2.1	458	0	994.7	NA	0.0000		9999	6890	0	0	0
2019/11/29 13:48:00	BASE	0.10	330	1.29	18	2.2	100	2.2	504	0	994.9	NA	0.0000		9999	6920	0	0	0
2019/11/29 13:49:00	BASE	0.34	7	1.34	9	2.2	100	2.2	525	0	994.9	NA	0.0000		9999	6920	0	0	0
2019/11/29 13:50:00	BASE	0.72	357	1.39	340	2.1	100	2.1	507	0	994.9	NA	0.0000		9999	7020	0	0	0
2019/11/29 13:51:00	BASE	1.08	334	1.39	340	2.2	100	2.2	480	0	994.9	NA	0.0000		9999	7050	0	0	0
2019/11/29 13:52:00	BASE	1.34	319	1.65	315	2.1	100	2.1	477	0	994.9	NA	0.0000		9999	6990	0	0	0
2019/11/29 13:53:00	BASE	1.39	318	1.65	315	2.0	100	2.0	495	0	994.9	NA	0.0000		9999	6920	0	0	0
2019/11/29 13:54:00	BASE	1.19	323	1.65	315	2.0	100	2.0	490	0	994.9	NA	0.0000		9999	7320	0	0	0
2019/11/29 13:55:00	BASE	0.80	323	1.65	315	2.0	100	2.0	461	0	994.9	NA	0.0000		9999	7020	0	0	0
2019/11/29 13:56:00	BASE	0.31	325	1.65	315	1.9	100	1.9	468	0	994.9	NA	0.0000		9999	0	0	0	0
2019/11/29 13:57:00	BASE	0.04	319	1.65	315	1.9	100	1.9	473	0	994.9	NA	0.0000		9999	6990	0	0	0
2019/11/29 13:58:00	BASE	0.18	318	1.65	315	1.9	100	1.9	523	0	994.9	NA	0.0000		9999	6990	0	0	0
2019/11/29 13:59:00	BASE	0.46	324	1.65	315	1.9	100	1.9	514	0	994.9	NA	0.0000		9999	6990	0	0	0
2019/11/29 14:00:00	BASE	0.69	321	1.65	315	1.9	100	1.9	488	0	994.9	NA	0.0000		9999	7050	0	0	0
2019/11/29 14:01:00	BASE	0.86	325	1.65	315	1.8	100	1.8	496	0	994.9	NA	0.0000		9999	7020	0	0	0
2019/11/29 14:02:00	BASE	0.81	331	1.54	320	1.9	100	1.9	480	0	994.9	NA	0.0000		9999	7090	0	0	0
2019/11/29 14:03:00	BASE	0.50	333	1.44	333	2.0	100	2.0	464	0	994.9	NA	0.0000		9999	7050	0	0	0
2019/11/29 14:04:00	BASE	0.39	336	1.44	333	2.1	100	2.1	460	0	994.9	NA	0.0000		9999	7090	0	0	0
2019/11/29 14:05:00	BASE	0.86	346	1.44	333	2.1	100	2.1	469	0	994.9	NA	0.0000		9999	7050	0	0	0
2019/11/29 14:06:00	BASE	1.22	354	1.44	333	2.1	100	2.1	484	0	994.9	NA	0.0000		9999	6990	0	0	0
2019/11/29 14:07:00	BASE	1.11	3	1.44	333	2.0	100	2.0	488	0	994.9	NA	0.0000		9999	7020	0	0	0
2019/11/29 14:08:00	BASE	0.96	18	1.44	333	2.0	100	2.0	495	0	994.9	NA	0.0000		9999	7020	0	0	0
2019/11/29 14:09:00	BASE	0.92	22	1.44	333	1.9	100	1.9	483	0	994.9	NA	0.0000		9999	7020	0	0	0
2019/11/29 14:10:00	BASE	0.61	4	1.49	14	1.9	100	1.9	475	0	994.9	NA	0.0000		9999	7050	0	0	0
2019/11/29 14:11:00	BASE	0.55	337	1.49	333	2.0	100	2.0	478	0	994.9	NA	0.0000		9999	7020	0	0	0
2019/11/29 14:12:00	BASE	0.48	329	1.49	333	2.0	100	2.0	474	0	994.9	NA	0.0000		9999	7020	0	0	0
2019/11/29 14:13:01	BASE	0.09	335	1.49	333	2.0	100	2.0	479	0	994.9	NA	0.0000		9999	7050	0	0	0
2019/11/29 14:14:00	BASE	0.00	347	1.49	333	2.0	100	2.0	489	0	994.9	NA	0.0000		9999	7050	23720	0	0
2019/11/29 14:15:00	BASE	0.00	32	1.49	333	2.0	100	2.0	495	0	994.9	NA	0.0000		9999	7020	0	0	0
2019/11/29 14:16:00	BASE	0.00	65	1.49	333	2.1	100	2.1	508	0	994.9	NA	0.0000		9999	7050	0	0	0
2019/11/29 14:17:00	BASE	0.09	57	1.49	333	2.1	100	2.1	520	0	994.9	NA	0.0000		9999	7050	0	0	0
2019/11/29 14:18:00	BASE	0.14	48	1.49	333	2.1	100	2.1	519	0	994.7	NA	0.0000		9999	7090	0	0	0
2019/11/29 14:19:00	BASE	0.09	31	1.49	333	2.2	100	2.2	537	0	995.0	NA	0.0000		9999	7050	0	0	0
2019/11/29 14:20:00	BASE	0.09	18	1.49	333	2.2	100	2.2	542	0	995.0	NA	0.0000		9999	7020	0	0	0
2019/11/29 14:21:00	BASE	0.05	19	1.18	29	2.3	100	2.3	540	0	995.1	NA	0.0000		9999	7050	0	0	0
2019/11/29 14:22:00	BASE	0.00	14	1.18	29	2.4	100	2.4	512	0	995.0	NA	0.0000		9999	6990	0	0	0
2019/11/29 14:23:00	BASE	0.00	45	1.18	29	2.5	100	2.5	528	0	995.0	NA	0.0000		9999	6990	0	0	0
2019/11/29 14:24:00	BASE	0.00	126	1.18	29	2.5	100	2.5	514	0	994.9	NA	0.0000		9999	7020	0	0	0
2019/11/29 14:25:00	BASE	0.00	152	1.18	29	2.5	100	2.5	495	0	994.9	NA	0.0000		9999	7090	0	0	0
2019/11/29 14:26:00	BASE	0.00	165	1.18	29	2.4	100	2.4	505	0	994.9	NA	0.0000		9999	7050	22540	0	0
2019/11/29 14:27:00	BASE	0.00	168	1.18	29	2.3	100	2.3	509	0	994.9	NA	0.0000		9999	7150	0	0	0
2019/11/29 14:28:00	BASE	0.22	147	1.13	144	2.3	100	2.3	523	0	994.9	NA	0.0000		9999	7250	0	0	0
2019/11/29 14:29:00	BASE	0.31	141	1.13	144	2.2	100	2.2	511	0	994.8	NA	0.0000		9999	7250	0	0	0
2019/11/29 14:30:00	BASE	0.09	130	1.13	144	2.2	100	2.2	510	0	994.8	NA	0.0000		9999	7190	0	0	0
2019/11/29 14:31:00	BASE	0.00	110	1.13	144	2.2	100	2.2	522	0	994.9	NA	0.0000		9999	7190	0	0	0
2019/11/29 14:32:00	BASE	0.00	80	1.13	144	2.3	100	2.3	532	0	994.9	NA	0.0000		9999	7150	0	0	0
2019/11/29 14:33:00	BASE	0.00	31	1.13	144	2.3	100	2.3	518	0	994.9	NA	0.0000		9999	7190	0	0	0
2019/11/29 14:34:00	BASE	0.00	10	1.13	144	2.3	100	2.3	518	0	994.8	NA	0.0000		9999	7280	0	0	0
2019/11/29 14:35:00	BASE	0.00	23	1.13	144	2.2	100	2.2	535	0	994.8	NA	0.0000		9999	7250	0	0	0
2019/11/29 14:36:00	BASE	0.00	19	1.13	144	2.2	100	2.2	527	0	994.9	NA	0.0000		9999	7190	0	0	0
2019/11/29 14:37:00	BASE	0.00	355	1.13	144	2.3	100	2.3	526	0	994.9	NA	0.0000		9999	7150	0	0	0
2019/11/29 14:38:00	BASE	0.00	337	1.08	152	2.3	100	2.3	523	0	994.6	NA	0.0000		9999	7190	0	0	0
2019/11/29 14:39:00	BASE	0.00	322	M	M	2.5	100	2.5	529	0	994.9	NA	0.0000		9999	7220	0	0	0
2019/11/29 14:40:00	BASE	0.14	294	1.13	280	2.5	100	2.5	510	0	994.9	NA	0.0000		9999	7250	0	0	0
2019/11/29 14:41:00	BASE	0.14	265	1.13	280	2.5	99	2.4	505	0	994.9	NA	0.0000		9999	7220	0	0	0
2019/11/29 14:42:00	BASE	0.00	247	1.13	280	2.4	99	2.3	509	0	994.9	NA	0.0000		9999	7220	0	0	0
2019/11/29 14:43:00	BASE	0.10	247	1.23	254	2.3	99	2.2	521	0	994.9	NA	0.0000		9999	7250	0	0	0
2019/11/29 14:44:00	BASE	0.20	268	1.23	254	2.1	99	2.0	512	0	994.9	NA	0.0000		9999	7250	0	0	0
2019/11/29 14:45:00	BASE	0.14	284	1.23	254	2.2	100	2.1	508	0	994.7	NA	0.0000		9999	7190	0	0	0
2019/11/29 14:46:00	BASE	0.31	293	1.23	254	2.3	100	2.3	492	0	994.9	NA	0.0000		9999	7250	0	0	0
2019/11/29 14:47:00	BASE	0.35	299	1.23	254	2.3	100	2.3	492	0	994.9	NA	0.0000		9999	7250	0	0	0
2019/11/29 14:48:00	BASE	0.28	306	1.29	310	2.4	100	2.4	480	0	994.9	NA	0.0000		9999	7220	0	0	0
2019/11/29 14:49:00	BASE	0.19	304	1.29	310	2.5	100	2.5	484	0	994.9	NA	0.0000		9999	7280	0	0	0
2019/11/29 14:50:00	BASE	0.00	294	1.29	310	2.5	100	2.5	509	0	994.9	NA	0.0000		9999	7280	0	0	0
2019/11/29 14:51:00	BASE	0.00	295	1.29	310	2.5	100	2.5	508	0	994.9	NA	0.0000		9999	7220	0	0	0
2019/11/29 14:52:00	BASE	0.00	283	1.29	310	2.5	100	2.5	533	0	994.9	NA	0.0000		9999	7280	0	0	0
2019/11/29 14:53:00	BASE	0.00	269	1.29	310	2.4	100	2.4	498	0	994.9	NA	0.0000		9999	7280	0	0	0
2019/11/29 14:54:00	BASE	0.00	270	1.29	310	2.3	100	2.3	484	0	994.9	NA	0.0000		9999	7320	0	0	0
2019/11/29 14:55:00	BASE	0.00	270	1.29	310	2.2	100	2.2	470	0	994.9	NA	0.0000		9999	7250	0	0	0
2019/11/29 14:56:00	BASE	0.00	289	1.29	310	2.1	100	2.1	482	0	994.9	NA	0.0000		9999	7280	0	0	0
2019/11/29 14:57:00	BASE	0.38	306	1.29	302	2.1	100	2.1	477	0	994.9	NA	0.0000		9999	7320	0	0	0
2019/11/29 14:58:00	BASE	0.82	306	1.39	293	2.3	100	2.3	460	0	994.9	NA	0.0000		9999	7350	0	0	0
2019/11/29 14:59:00	BASE	0.75	302	1.39	293	2.4	100	2.4	446	0	995.0	NA	0.0000		9999	7350	0	0	0
2019/11/29 15:00:00	BASE	0.68	296	1.39	293	2.5	100	2.5	433	0	995.1	NA	0.0000		9999	7320	20930	24080	0
2019/11/29 15:01:00	BASE	1.03	295	1.39	293	2.6	100	2.6	423	0	995.1	NA	0.0000		9999	7350	0	0	0
2019/11/29 15:02:00	BASE	1.46	299	1.85	302	2.6	100	2.6	429	0	995.1	NA	0.0000		9999	7380	0	0	0
2019/11/29 15:03:00	BASE	1.74	301	1.95	303	2.6	100	2.6	438	0	995.1	NA	0.0000		9999	7380	0	0	0
2019/11/29 15:04:00	BASE	1.82	303	2.01	308	2.7	100	2.7	447	0	995.1	NA	0.0000		9999	7350	0	0	0
2019/11/29 15:05:00	BASE	1.68	303	2.01	308	2.7	100	2.7	449	0	995.1	NA	0.0000		9999	7320	0	0	0
2019/11/29 15:06:00	BASE	1.56	301	2.01	308	2.7	100	2.7	483	0	995.1	NA	0.0000		9999	7380	0	0	0
2019/11/29 15:07:00	BASE	1.62	301	2.01	308	2.7	100	2.6	485	0	995.1	NA	0.0000		9999	7350	0	0	0
2019/11/29 15:08:00	BASE	1.66	303	2.01	308	2.6	100	2.5	483	0	995.1	NA	0.0000		9999	7380	0	0	0
2019/11/29 15:09:00	BASE	1.51	300	2.01	308	2.5	99	2.4	514	0	995.1	NA	0.0000		9999	7350	0	0	0
2019/11/29 15:10:00	BASE	1.40	300	2.01	308	2.5	99	2.4	507	0	995.1	NA	0.0000		9999	7420	0	0	0
2019/11/29 15:11:00	BASE	1.61	306	2.01	308	2.4	99	2.3	562	0	995.1	NA	0.0000		9999	7450	0	0	0
2019/11/29 15:12:00	BASE	1.78	307	2.06	312	2.3	100	2.3	558	0	994.9	NA	0.0000		9999	7550	0	0	0
2019/11/29 15:13:00	BASE	1.78	312	2.06	312	2.3	100	2.3	573	0	995.1	NA	0.0000		9999	7480	0	0	0
2019/11/29 15:14:00	BASE	1.90	319	2.11	320	2.2	100	2.2	608	0	995.1	NA	0.0000		9999	7550	0	0	0
2019/11/29 15:15:00	BASE	2.00	324	2.21	332	2.2	100	2.2	592	0	995.1	NA	0.0000		9999	7550	0	0	0
2019/11/29 15:16:00	BASE	2.11	329	2.47	339	2.1	100	2.1	727	0	995.0	NA	0.0000		9999	7580	0	0	0
2019/11/29 15:17:00	BASE	2.31	335	2.62	336	2.1	100	2.1	786	0	995.2	NA	0.0000		9999	7640	0	0	0
2019/11/29 15:18:00	BASE	2.34	343	2.62	336	2.1	100	2.1	799	0	995.2	NA	0.0000		9999	7550	0	0	0
2019/11/29 15:19:00	BASE	2.31	345	2.62	336	2.2	100	2.2	896	0	995.2	NA	0.0000		9999	7580	0	0	0
2019/11/29 15:20:00	BASE	2.36	344	2.62	336	2.2	100	2.2	969	0	995.2	NA	0.0000		9999	0	0	0	0
2019/11/29 15:21:00	BASE	2.41	340	2.62	336	2.2	100	2.2	896	0	995.2	NA	0.0000		9999	0	0	0	0
2019/11/29 15:22:00	BASE	2.24	338	2.62	336	2.2	100	2.2	885	0	995.2	NA	0.0000		9999	0	0	0	0
2019/11/29 15:23:00	BASE	2.06	339	2.62	336	2.2	100	2.2	819	0	995.2	NA	0.0000		9999	0	0	0	0
2019/11/29 15:24:00	BASE	1.91	338	2.62	336	2.2	100	2.2	823	0	995.0	NA	0.0000		9999	0	0	0	0
2019/11/29 15:25:00	BASE	1.67	334	2.62	336	2.2	100	2.2	860	0	995.2	NA	0.0000		9999	7810	0	0	0
2019/11/29 15:26:00	BASE	1.70	335	2.62	336	2.3	100	2.3	835	0	995.2	NA	0.0000		9999	7780	0	0	0
2019/11/29 15:27:00	BASE	1.70	336	2.57	340	2.4	100	2.4	851	0	995.1	NA	0.0000		9999	7810	0	0	0
2019/11/29 15:28:00	BASE	1.66	331	2.57	340	2.4	100	2.4	839	0	994.7	NA	0.0000		9999	0	0	0	0
2019/11/29 15:29:00	BASE	1.57	325	2.57	340	2.5	100	2.5	905	0	995.1	NA	0.0000		9999	0	0	0	0
2019/11/29 15:30:00	BASE	1.41	321	2.57	340	2.6	100	2.6	880	0	995.1	NA	0.0000		9999	0	0	0	0
2019/11/29 15:31:00	BASE	1.21	317	2.31	343	2.6	100	2.6	867	0	995.1	NA	0.0000		9999	16270	0	0	0
2019/11/29 15:32:00	BASE	1.20	312	2.31	343	2.6	100	2.6	846	0	995.1	NA	0.0000		9999	15450	0	0	0
2019/11/29 15:33:00	BASE	1.46	307	2.06	344	2.7	100	2.7	899	0	995.1	NA	0.0000		9999	7810	0	0	0
2019/11/29 15:34:00	BASE	1.57	302	2.06	344	2.8	100	2.8	878	0	995.1	NA	0.0000		9999	0	0	0	0
2019/11/29 15:35:00	BASE	1.53	304	2.06	344	2.8	100	2.8	865	0	995.1	NA	0.0000		9999	7780	0	0	0
2019/11/29 15:36:00	BASE	1.51	315	1.95	323	2.8	100	2.8	859	0	995.1	NA	0.0000		9999	0	0	0	0
2019/11/29 15:37:00	BASE	1.52	323	1.95	323	2.8	100	2.8	869	0	995.1	NA	0.0000		9999	0	0	0	0
2019/11/29 15:38:00	BASE	1.57	320	1.95	323	2.8	100	2.7	868	0	995.2	NA	0.0000		9999	0	0	0	0
2019/11/29 15:39:00	BASE	1.72	315	2.01	319	2.6	100	2.6	865	0	995.2	NA	0.0000		9999	0	0	0	0
2019/11/29 15:40:00	BASE	1.73	320	2.01	319	2.5	100	2.5	882	0	995.2	NA	0.0000		9999	0	0	0	0
2019/11/29 15:41:00	BASE	1.59	329	2.01	319	2.5	100	2.5	852	0	995.1	NA	0.0000		9999	0	0	0	0
2019/11/29 15:42:00	BASE	1.32	329	2.01	319	2.6	100	2.6	880	0	995.1	NA	0.0000		9999	21060	0	0	0
2019/11/29 15:43:00	BASE	1.17	319	2.01	319	2.7	100	2.7	870	0	995.1	NA	0.0000		9999	0	0	0	0
2019/11/29 15:44:00	BASE	0.97	310	2.01	319	2.8	100	2.7	875	0	995.1	NA	0.0000		9999	22180	0	0	0
2019/11/29 15:45:00	BASE	0.77	306	2.01	319	2.8	99	2.7	867	0	995.1	NA	0.0000		9999	0	0	0	0
2019/11/29 15:46:00	BASE	0.68	309	2.01	319	2.6	99	2.5	873	0	995.1	NA	0.0000		9999	0	0	0	0
2019/11/29 15:47:00	BASE	0.56	309	2.01	319	2.6	99	2.4	857	0	995.1	NA	0.0000		9999	0	0	0	0
2019/11/29 15:48:00	BASE	0.85	300	2.01	319	2.5	99	2.4	649	0	995.1	NA	0.0000		9999	16670	0	0	0
2019/11/29 15:49:00	BASE	1.26	303	1.95	324	2.6	99	2.5	893	0	994.9	NA	0.0000		9999	21200	0	0	0
2019/11/29 15:50:00	BASE	1.35	315	1.65	314	2.8	100	2.7	905	0	994.8	NA	0.0000		9999	0	0	0	0
2019/11/29 15:51:00	BASE	1.38	322	1.65	314	2.9	99	2.8	876	0	995.2	NA	0.0000		9999	0	0	0	0
2019/11/29 15:52:00	BASE	1.36	335	1.75	344	3.0	99	2.9	695	0	995.1	NA	0.0000		9999	17780	0	0	0
2019/11/29 15:53:00	BASE	1.33	352	1.75	344	3.0	98	2.8	664	0	995.2	NA	0.0000		9999	0	0	0	0
2019/11/29 15:54:00	BASE	1.35	1	1.75	344	2.9	98	2.7	844	0	995.2	NA	0.0000		9999	0	0	0	0
2019/11/29 15:55:00	BASE	1.33	4	2.06	9	2.8	98	2.5	889	0	995.2	NA	0.0000		9999	0	0	0	0
2019/11/29 15:56:00	BASE	1.28	358	2.06	9	2.7	98	2.4	890	0	995.2	NA	0.0000		9999	0	0	0	0
2019/11/29 15:57:00	BASE	1.10	347	2.06	9	2.6	98	2.4	788	0	995.2	NA	0.0000		9999	0	0	0	0
2019/11/29 15:58:00	BASE	0.73	340	2.06	9	2.6	99	2.4	767	0	995.2	NA	0.0000		9999	0	0	0	0
2019/11/29 15:59:00	BASE	0.42	339	2.06	9	2.6	99	2.4	874	0	995.2	NA	0.0000		9999	0	0	0	0
2019/11/29 16:00:00	BASE	0.33	345	2.06	9	2.5	99	2.4	759	0	995.2	NA	0.0000		9999	0	0	0	0
2019/11/29 16:01:00	BASE	0.76	342	2.06	9	2.5	100	2.4	836	0	995.2	NA	0.0000		9999	0	0	0	0
2019/11/29 16:02:00	BASE	0.68	330	2.06	9	2.5	100	2.5	842	0	995.2	NA	0.0000		9999	0	0	0	0
2019/11/29 16:03:00	BASE	0.48	318	2.06	9	2.7	100	2.7	746	0	995.1	NA	0.0000		9999	0	0	0	0
2019/11/29 16:04:00	BASE	0.63	307	2.06	9	2.7	100	2.7	632	0	995.1	NA	0.0000		9999	0	0	0	0
2019/11/29 16:05:00	BASE	0.47	308	1.75	355	2.8	100	2.8	810	0	995.1	NA	0.0000		9999	0	0	0	0
2019/11/29 16:06:00	BASE	0.44	314	1.65	328	2.8	100	2.8	773	0	995.1	NA	0.0000		9999	0	0	0	0
2019/11/29 16:07:00	BASE	0.49	313	1.65	328	2.8	100	2.8	734	0	995.2	NA	0.0000		9999	0	0	0	0
2019/11/29 16:08:00	BASE	0.29	316	1.65	328	2.8	100	2.8	881	0	995.2	NA	0.0000		9999	0	0	0	0
2019/11/29 16:09:00	BASE	0.09	321	1.65	328	2.8	100	2.8	883	0	995.2	NA	0.0000		9999	0	0	0	0
2019/11/29 16:10:00	BASE	0.62	319	1.65	328	2.9	99	2.8	885	0	995.2	NA	0.0000		9999	0	0	0	0
2019/11/29 16:11:00	BASE	0.73	313	1.44	323	3.0	99	2.9	888	0	995.2	NA	0.0000		9999	0	0	0	0
2019/11/29 16:12:00	BASE	0.90	302	1.75	292	2.9	99	2.7	886	0	995.2	NA	0.0000		9999	0	0	0	0
2019/11/29 16:13:00	BASE	1.20	287	1.75	283	2.7	98	2.5	885	0	995.2	NA	0.0000		9999	0	0	0	0
2019/11/29 16:14:00	BASE	0.58	277	1.75	283	2.5	98	2.3	882	0	995.2	NA	0.0000		9999	0	0	0	0
2019/11/29 16:15:00	BASE	0.09	263	1.75	283	2.3	98	2.1	886	0	995.2	NA	0.0000		9999	0	0	0	0
2019/11/29 16:16:00	BASE	0.00	260	1.75	283	2.1	99	1.9	885	0	995.2	NA	0.0000		9999	0	0	0	0
2019/11/29 16:17:00	BASE	0.00	266	1.75	283	2.1	99	2.0	863	0	995.2	NA	0.0000		9999	7840	0	0	0
2019/11/29 16:18:00	BASE	0.00	268	1.75	283	2.1	100	2.1	787	0	995.2	NA	0.0000		9999	7840	0	0	0
2019/11/29 16:19:00	BASE	0.00	271	1.75	283	2.1	100	2.1	769	0	995.2	NA	0.0000		9999	7810	0	0	0
2019/11/29 16:20:00	BASE	0.00	268	1.75	283	2.2	100	2.2	816	0	995.2	NA	0.0000		9999	7780	0	0	0
2019/11/29 16:21:00	BASE	0.00	268	1.75	283	2.3	100	2.3	839	0	995.2	NA	0.0000		9999	7870	0	0	0
2019/11/29 16:22:00	BASE	0.00	259	1.75	283	2.4	100	2.4	794	0	995.2	NA	0.0000		9999	7810	0	0	0
2019/11/29 16:23:00	BASE	0.18	236	1.13	221	2.5	100	2.5	832	0	995.2	NA	0.0000		9999	7840	0	0	0
2019/11/29 16:24:00	BASE	0.27	222	1.13	221	2.6	100	2.5	838	0	995.2	NA	0.0000		9999	7870	0	0	0
2019/11/29 16:25:00	BASE	0.45	221	1.18	224	2.5	100	2.5	846	0	995.2	NA	0.0000		9999	0	0	0	0
2019/11/29 16:26:00	BASE	0.89	229	1.18	233	2.5	100	2.5	800	0	995.2	NA	0.0000		9999	0	0	0	0
2019/11/29 16:27:00	BASE	1.05	233	1.29	233	2.5	100	2.4	806	0	995.2	NA	0.0000		9999	0	0	0	0
2019/11/29 16:28:00	BASE	0.62	233	1.29	233	2.4	100	2.3	846	0	995.2	NA	0.0000		9999	0	0	0	0
2019/11/29 16:29:00	BASE	0.09	239	1.29	233	2.3	100	2.3	840	0	995.2	NA	0.0000		9999	0	0	0	0
2019/11/29 16:30:00	BASE	0.05	243	1.29	233	2.3	100	2.3	832	0	995.2	NA	0.0000		9999	0	0	0	0
2019/11/29 16:31:00	BASE	0.09	237	1.29	233	2.3	100	2.3	829	0	995.2	NA	0.0000		9999	0	0	0	0
2019/11/29 16:32:00	BASE	0.14	228	1.29	233	2.3	100	2.3	825	0	995.3	NA	0.0000		9999	0	0	0	0
2019/11/29 16:33:00	BASE	0.55	223	1.29	233	2.3	100	2.3	820	0	995.3	NA	0.0000		9999	0	0	0	0
2019/11/29 16:34:00	BASE	0.68	220	1.29	233	2.4	100	2.4	824	0	995.3	NA	0.0000		9999	0	0	0	0
2019/11/29 16:35:00	BASE	0.31	220	1.29	233	2.5	100	2.5	582	0	995.3	NA	0.0000		9999	0	0	0	0
2019/11/29 16:36:00	BASE	0.09	220	1.29	233	2.5	100	2.5	822	0	995.1	NA	0.0000		9999	0	0	0	0
2019/11/29 16:37:00	BASE	0.27	220	1.23	213	2.5	100	2.5	815	0	995.2	NA	0.0000		9999	0	0	0	0
2019/11/29 16:38:00	BASE	0.27	217	1.23	213	2.4	100	2.4	814	0	995.3	NA	0.0000		9999	0	0	0	0
2019/11/29 16:39:00	BASE	0.00	217	1.23	213	2.4	100	2.4	815	0	995.3	NA	0.0000		9999	0	0	0	0
2019/11/29 16:40:00	BASE	0.00	225	1.23	213	2.3	100	2.3	814	0	995.3	NA	0.0000		9999	0	0	0	0
2019/11/29 16:41:00	BASE	0.00	225	1.23	213	2.2	100	2.2	805	0	995.3	NA	0.0000		9999	0	0	0	0
2019/11/29 16:42:00	BASE	0.00	220	1.23	213	2.2	100	2.2	809	0	995.3	NA	0.0000		9999	0	0	0	0
2019/11/29 16:43:00	BASE	0.00	218	1.23	213	2.2	100	2.2	809	0	995.3	NA	0.0000		9999	0	0	0	0
2019/11/29 16:44:00	BASE	0.00	206	1.23	213	2.3	100	2.3	808	0	995.3	NA	0.0000		9999	0	0	0	0
2019/11/29 16:45:00	BASE	0.09	195	1.23	213	2.4	100	2.4	807	0	995.3	NA	0.0000		9999	0	0	0	0
2019/11/29 16:46:00	BASE	0.09	184	1.23	213	2.5	100	2.5	806	0	995.3	NA	0.0000		9999	0	0	0	0
2019/11/29 16:47:00	BASE	0.00	188	1.08	194	2.5	100	2.5	807	0	995.3	NA	0.0000		9999	0	0	0	0
2019/11/29 16:48:00	BASE	0.00	196	1.08	194	2.5	100	2.5	805	0	995.3	NA	0.0000		9999	0	0	0	0
2019/11/29 16:49:00	BASE	0.00	198	1.08	194	2.5	100	2.5	805	0	995.3	NA	0.0000		9999	0	0	0	0
2019/11/29 16:50:00	BASE	0.17	201	1.08	181	2.5	100	2.5	804	0	995.3	NA	0.0000		9999	0	0	0	0
2019/11/29 16:51:00	BASE	0.37	192	1.18	195	2.5	100	2.5	804	0	995.3	NA	0.0000		9999	0	0	0	0
2019/11/29 16:52:00	BASE	0.34	192	1.18	196	2.6	100	2.6	803	0	995.3	NA	0.0000		9999	0	0	0	0
2019/11/29 16:53:00	BASE	0.54	200	1.34	217	2.7	100	2.7	802	0	995.2	NA	0.0000		9999	0	0	0	0
2019/11/29 16:54:00	BASE	0.48	199	1.34	217	2.7	100	2.7	802	0	995.2	NA	0.0000		9999	0	0	0	0
2019/11/29 16:55:00	BASE	0.09	195	1.34	217	2.8	100	2.8	801	0	995.2	NA	0.0000		9999	0	0	0	0
2019/11/29 16:56:00	BASE	0.63	195	1.54	194	2.8	100	2.8	800	0	995.2	NA	0.0000		9999	0	0	0	0
2019/11/29 16:57:00	BASE	1.11	181	1.54	194	2.9	100	2.9	800	0	995.2	NA	0.0000		9999	0	0	0	0
2019/11/29 16:58:00	BASE	0.92	181	1.54	186	2.9	99	2.8	799	0	995.0	NA	0.0000		9999	0	0	0	0
2019/11/29 16:59:00	BASE	0.94	184	1.54	186	2.9	99	2.8	798	0	995.2	NA	0.0000		9999	0	0	0	0
2019/11/29 17:00:00	BASE	1.20	171	1.54	176	3.0	99	2.8	797	0	995.2	NA	0.0000		9999	0	0	0	0
2019/11/29 17:01:00	BASE	1.41	163	1.54	161	2.9	98	2.7	797	0	995.2	NA	0.0000		9999	0	0	0	0
2019/11/29 17:02:00	BASE	1.52	161	1.75	158	3.0	98	2.7	796	0	994.7	NA	0.0000		9999	0	0	0	0
2019/11/29 17:03:00	BASE	1.61	163	1.75	170	3.1	98	2.9	796	0	995.2	NA	0.0000		9999	0	0	0	0
2019/11/29 17:04:00	BASE	1.64	165	1.95	162	3.2	98	2.9	795	0	995.2	NA	0.0000		9999	0	0	0	0
2019/11/29 17:05:00	BASE	1.87	162	2.31	153	3.2	97	2.8	794	0	995.2	NA	0.0000		9999	0	0	0	0
2019/11/29 17:06:00	BASE	2.10	159	2.31	158	3.2	97	2.8	794	0	995.2	NA	0.0000		9999	0	0	0	0
2019/11/29 17:07:00	BASE	2.10	158	2.37	155	3.2	97	2.7	793	0	995.2	NA	0.0000		9999	0	0	0	0
2019/11/29 17:08:00	BASE	2.18	159	2.62	159	3.1	96	2.6	793	0	995.1	NA	0.0000		9999	0	0	0	0
2019/11/29 17:09:00	BASE	2.25	159	2.62	159	3.1	97	2.6	792	0	995.2	NA	0.0000		9999	0	0	0	0
2019/11/29 17:10:00	BASE	2.25	160	2.62	159	3.1	97	2.6	791	0	995.1	NA	0.0000		9999	0	0	0	0
2019/11/29 17:11:00	BASE	2.26	160	2.62	159	3.1	97	2.7	789	0	995.1	NA	0.0000		9999	0	0	0	0
2019/11/29 17:12:00	BASE	2.26	158	2.62	158	3.1	97	2.7	788	0	995.1	NA	0.0000		9999	0	0	0	0
2019/11/29 17:13:00	BASE	2.24	158	2.62	154	3.1	97	2.6	787	0	995.1	NA	0.0000		9999	0	0	0	0
2019/11/29 17:14:00	BASE	2.15	157	2.62	154	3.1	96	2.6	785	0	995.1	NA	0.0000		9999	0	0	0	0
2019/11/29 17:15:00	BASE	2.18	157	2.62	154	3.1	96	2.6	784	0	995.1	NA	0.0000		9999	0	0	0	0
2019/11/29 17:16:00	BASE	2.28	158	2.62	154	3.2	96	2.6	784	0	995.1	NA	0.0000		9999	0	0	0	0
2019/11/29 17:17:00	BASE	2.31	152	2.62	154	3.2	96	2.6	784	0	995.0	NA	0.0000		9999	0	0	0	0
2019/11/29 17:18:00	BASE	2.48	149	2.83	153	3.2	95	2.5	783	0	994.9	NA	0.0000		9999	0	0	0	0
2019/11/29 17:19:00	BASE	2.65	152	2.88	153	3.2	95	2.5	782	0	994.9	NA	0.0000		9999	0	0	0	0
2019/11/29 17:20:00	BASE	2.58	151	2.88	153	3.2	94	2.4	781	0	994.9	NA	0.0000		9999	0	0	0	0
2019/11/29 17:21:00	BASE	2.46	150	2.88	153	3.1	94	2.2	781	0	994.9	NA	0.0000		9999	0	0	0	0
2019/11/29 17:22:00	BASE	2.40	150	2.88	153	3.1	93	2.2	780	0	994.9	NA	0.0000		9999	0	0	0	0
2019/11/29 17:23:00	BASE	2.50	148	2.88	146	3.2	93	2.2	780	0	994.9	NA	0.0000		9999	0	0	0	0
2019/11/29 17:24:00	BASE	2.72	151	2.98	152	3.3	93	2.2	778	0	995.0	NA	0.0000		9999	0	0	0	0
2019/11/29 17:25:00	BASE	2.72	148	2.98	152	3.3	92	2.2	778	0	994.9	NA	0.0000		9999	0	0	0	0
2019/11/29 17:26:00	BASE	2.62	140	2.98	152	3.4	92	2.2	777	0	994.9	NA	0.0000		9999	0	0	0	0
2019/11/29 17:27:00	BASE	2.73	136	3.09	135	3.3	92	2.1	775	0	994.9	NA	0.0000		9999	0	0	0	0
2019/11/29 17:28:00	BASE	2.95	136	3.55	144	3.2	91	1.9	774	0	994.9	NA	0.0000		9999	0	0	0	0
2019/11/29 17:29:00	BASE	3.27	137	3.81	133	3.1	92	1.9	774	0	994.9	NA	0.0000		9999	0	0	0	0
2019/11/29 17:30:00	BASE	3.53	134	3.86	138	3.0	92	1.8	771	0	994.9	NA	0.0000		9999	0	0	0	0
2019/11/29 17:31:00	BASE	3.60	132	4.48	127	2.8	93	1.8	768	0	994.9	NA	0.0000		9999	0	0	0	0
2019/11/29 17:32:00	BASE	3.88	130	4.48	127	2.7	94	1.8	769	0	994.5	NA	0.0000		9999	0	0	0	0
2019/11/29 17:33:00	BASE	3.96	130	4.48	127	2.6	95	1.8	769	0	994.8	NA	0.0000		9999	0	0	0	0
2019/11/29 17:34:00	BASE	3.79	129	4.48	127	2.4	96	1.9	769	0	994.8	NA	0.0000		9999	0	0	0	0
2019/11/29 17:35:00	BASE	3.82	127	4.48	127	2.3	97	1.9	767	0	994.8	NA	0.0000		9999	0	0	0	0
2019/11/29 17:36:00	BASE	3.60	126	4.48	127	2.2	98	1.9	767	0	994.9	NA	0.0000		9999	0	0	0	0
2019/11/29 17:37:00	BASE	3.40	128	4.48	127	2.1	99	2.0	767	0	994.9	NA	0.0000		9999	0	0	0	0
2019/11/29 17:38:00	BASE	3.30	132	4.48	127	2.1	99	2.0	767	0	994.9	NA	0.0000		9999	0	0	0	0
2019/11/29 17:39:00	BASE	3.23	135	4.48	127	2.1	100	2.1	765	0	994.9	NA	0.0000		9999	0	0	0	0
2019/11/29 17:40:00	BASE	3.25	137	4.48	127	2.1	100	2.1	764	0	995.0	NA	0.0000		9999	0	0	0	0
2019/11/29 17:41:00	BASE	3.36	137	4.37	130	2.1	100	2.1	764	0	995.0	NA	0.0000		9999	0	0	0	0
2019/11/29 17:42:00	BASE	3.57	138	4.22	125	2.1	100	2.1	763	0	995.0	NA	0.0000		9999	0	0	0	0
2019/11/29 17:43:00	BASE	3.64	136	4.22	125	2.1	100	2.1	763	0	995.0	NA	0.0000		9999	0	0	0	0
2019/11/29 17:44:00	BASE	3.73	134	4.17	127	2.1	100	2.1	761	0	994.9	NA	0.0000		9999	0	0	0	0
2019/11/29 17:45:00	BASE	3.96	135	4.42	137	2.1	100	2.1	761	0	994.9	NA	0.0000		9999	0	0	0	0
2019/11/29 17:46:00	BASE	3.94	134	4.42	137	2.1	100	2.1	759	0	994.9	NA	0.0000		9999	0	0	0	0
2019/11/29 17:47:00	BASE	3.86	133	4.42	137	2.1	100	2.1	759	0	994.9	NA	0.0000		9999	0	0	0	0
2019/11/29 17:48:00	BASE	3.87	132	4.42	137	2.1	100	2.1	758	0	994.9	NA	0.0000		9999	0	0	0	0
2019/11/29 17:49:00	BASE	3.74	130	4.42	137	2.2	100	2.2	757	0	994.9	NA	0.0000		9999	0	0	0	0
2019/11/29 17:50:00	BASE	3.89	130	4.48	132	2.2	100	2.2	755	0	994.9	NA	0.0000		9999	0	0	0	0
2019/11/29 17:51:00	BASE	3.90	130	4.48	132	2.1	100	2.1	755	0	994.9	NA	0.0000		9999	0	0	0	0
2019/11/29 17:52:00	BASE	3.64	129	4.48	132	2.1	100	2.1	754	0	994.9	NA	0.0000		9999	0	0	0	0
2019/11/29 17:53:00	BASE	3.79	131	4.48	132	2.1	100	2.1	753	0	994.9	NA	0.0000		9999	0	0	0	0
2019/11/29 17:54:00	BASE	3.91	132	4.48	132	2.1	100	2.1	752	0	995.0	NA	0.0000		9999	0	0	0	0
2019/11/29 17:55:00	BASE	3.70	131	4.48	132	2.1	100	2.1	751	0	995.1	NA	0.0000		9999	0	0	0	0
2019/11/29 17:56:00	BASE	3.52	130	4.48	132	2.1	100	2.1	749	0	995.1	NA	0.0000		9999	0	0	0	0
2019/11/29 17:57:00	BASE	3.37	127	4.48	132	2.1	100	2.1	748	0	995.1	NA	0.0000		9999	0	0	0	0
2019/11/29 17:58:00	BASE	3.44	125	4.48	132	2.1	100	2.1	747	0	995.1	NA	0.0000		9999	0	0	0	0
2019/11/29 17:59:00	BASE	3.52	127	4.48	132	2.1	100	2.1	746	0	994.8	NA	0.0000		9999	0	0	0	0
2019/11/29 18:00:00	BASE	3.57	127	4.17	132	2.1	100	2.1	745	0	995.1	NA	0.0000		9999	0	0	0	0
2019/11/29 18:01:00	BASE	3.89	127	4.48	126	2.1	100	2.1	744	0	995.1	NA	0.0000		9999	0	0	0	0
2019/11/29 18:02:00	BASE	3.94	128	4.48	126	2.1	100	2.1	743	0	995.1	NA	0.0000		9999	0	0	0	0
2019/11/29 18:03:00	BASE	3.75	127	4.48	126	2.1	100	2.1	742	0	995.0	NA	0.0000		9999	0	0	0	0
2019/11/29 18:04:00	BASE	3.50	127	4.48	126	2.1	100	2.1	742	0	994.8	NA	0.0000		9999	0	0	0	0
2019/11/29 18:05:00	BASE	3.44	129	4.48	126	2.1	100	2.1	739	0	995.1	NA	0.0000		9999	0	0	0	0
2019/11/29 18:06:00	BASE	3.48	127	4.48	126	2.1	100	2.1	739	0	995.1	NA	0.0000		9999	0	0	0	0
2019/11/29 18:07:00	BASE	3.28	130	4.48	126	2.1	100	2.1	738	0	995.1	NA	0.0000		9999	0	0	0	0
2019/11/29 18:08:00	BASE	3.44	133	4.48	126	2.1	100	2.1	737	0	995.1	NA	0.0000		9999	0	0	0	0
2019/11/29 18:09:00	BASE	3.61	132	4.48	126	2.2	100	2.2	736	0	995.1	NA	0.0000		9999	0	0	0	0
2019/11/29 18:10:00	BASE	3.42	130	4.48	126	2.2	100	2.2	736	0	995.1	NA	0.0000		9999	0	0	0	0
2019/11/29 18:11:00	BASE	3.19	128	4.12	122	2.2	100	2.2	735	0	995.1	NA	0.0000		9999	0	0	0	0
2019/11/29 18:12:00	BASE	2.88	130	4.01	134	2.3	100	2.3	734	0	994.6	NA	0.0000		9999	0	0	0	0
2019/11/29 18:13:00	BASE	2.91	131	4.01	134	2.3	100	2.3	733	0	995.1	NA	0.0000		9999	0	0	0	0
2019/11/29 18:14:00	BASE	2.91	130	4.01	134	2.4	100	2.4	732	0	995.1	NA	0.0000		9999	0	0	0	0
2019/11/29 18:15:00	BASE	2.76	127	4.01	134	2.4	100	2.4	731	0	995.1	NA	0.0000		9999	0	0	0	0
2019/11/29 18:16:00	BASE	2.79	126	4.01	134	2.4	100	2.4	731	0	995.1	NA	0.0000		9999	0	0	0	0
2019/11/29 18:17:00	BASE	2.74	127	4.01	134	2.4	100	2.4	729	0	995.1	NA	0.0000		9999	0	0	0	0
2019/11/29 18:18:00	BASE	2.73	129	3.76	132	2.4	100	2.4	728	0	994.8	NA	0.0000		9999	0	0	0	0
2019/11/29 18:19:00	BASE	2.93	130	3.76	132	2.5	99	2.4	728	0	995.1	NA	0.0000		9999	0	0	0	0
2019/11/29 18:20:00	BASE	3.10	129	3.55	130	2.5	99	2.4	726	0	995.1	NA	0.0000		9999	0	0	0	0
2019/11/29 18:21:00	BASE	3.06	128	3.55	130	2.5	98	2.3	726	0	995.1	NA	0.0000		9999	0	0	0	0
2019/11/29 18:22:00	BASE	2.81	129	3.55	130	2.5	98	2.2	724	0	995.1	NA	0.0000		9999	0	0	0	0
2019/11/29 18:23:00	BASE	2.73	129	3.55	130	2.6	97	2.2	724	0	995.1	NA	0.0000		9999	0	0	0	0
2019/11/29 18:24:00	BASE	2.70	127	3.55	130	2.6	97	2.2	722	0	995.1	NA	0.0000		9999	0	0	0	0
2019/11/29 18:25:00	BASE	2.54	127	3.55	130	2.7	96	2.1	722	0	995.1	NA	0.0000		9999	0	0	0	0
2019/11/29 18:26:00	BASE	2.75	130	3.55	130	2.7	96	2.0	721	0	995.1	NA	0.0000		9999	0	0	0	0
2019/11/29 18:27:00	BASE	3.01	133	3.55	130	2.7	95	2.0	720	0	995.1	NA	0.0000		9999	0	0	0	0
2019/11/29 18:28:00	BASE	3.20	133	3.60	134	2.7	95	1.9	720	0	995.1	NA	0.0000		9999	0	0	0	0
2019/11/29 18:29:00	BASE	3.35	134	3.70	129	2.7	94	1.9	718	0	995.1	NA	0.0000		9999	0	0	0	0
2019/11/29 18:30:00	BASE	3.42	134	3.70	132	2.7	94	1.9	717	0	995.1	NA	0.0000		9999	0	0	0	0
2019/11/29 18:31:00	BASE	3.30	132	3.70	132	2.7	94	1.8	716	0	994.8	NA	0.0000		9999	0	0	0	0
2019/11/29 18:32:00	BASE	3.13	131	3.70	132	2.7	94	1.8	715	0	995.1	NA	0.0000		9999	0	0	0	0
2019/11/29 18:33:00	BASE	3.02	133	3.70	132	2.8	93	1.8	714	0	995.1	NA	0.0000		9999	0	0	0	0
2019/11/29 18:34:00	BASE	2.96	134	3.70	132	2.7	93	1.7	713	0	995.1	NA	0.0000		9999	0	0	0	0
2019/11/29 18:35:00	BASE	3.02	134	3.70	132	2.7	93	1.7	712	0	995.1	NA	0.0000		9999	0	0	0	0
2019/11/29 18:36:00	BASE	3.06	133	3.70	132	2.7	93	1.7	712	0	995.1	NA	0.0000		9999	0	0	0	0
2019/11/29 18:37:00	BASE	3.07	132	3.70	132	2.8	93	1.7	711	0	995.1	NA	0.0000		9999	0	0	0	0
2019/11/29 18:38:00	BASE	2.95	132	3.70	132	2.8	93	1.7	712	0	994.8	NA	0.0000		9999	0	0	0	0
2019/11/29 18:39:00	BASE	2.71	133	3.70	132	2.8	92	1.7	713	0	995.0	NA	0.0000		9999	0	0	0	0
2019/11/29 18:40:00	BASE	2.42	133	3.55	130	2.8	92	1.7	712	0	995.1	NA	0.0000		9999	0	0	0	0
2019/11/29 18:41:00	BASE	2.24	132	3.55	130	2.8	92	1.6	713	0	995.1	NA	0.0000		9999	0	0	0	0
2019/11/29 18:42:00	BASE	2.24	131	3.55	130	2.8	92	1.6	713	0	995.2	NA	0.0000		9999	0	0	0	0
2019/11/29 18:43:00	BASE	2.05	121	3.55	130	2.8	92	1.6	713	0	995.2	NA	0.0000		9999	0	0	0	0
2019/11/29 18:44:00	BASE	1.91	116	3.55	130	2.8	92	1.6	712	0	995.2	NA	0.0000		9999	0	0	0	0
2019/11/29 18:45:00	BASE	1.95	118	3.55	130	2.8	92	1.6	710	0	995.2	NA	0.0000		9999	0	0	0	0
2019/11/29 18:46:00	BASE	1.71	107	3.55	130	2.8	92	1.6	707	0	995.2	NA	0.0000		9999	0	0	0	0
2019/11/29 18:47:00	BASE	1.26	102	3.24	138	2.9	92	1.7	707	0	995.2	NA	0.0000		9999	0	0	0	0
2019/11/29 18:48:00	BASE	1.31	107	3.09	135	3.0	92	1.7	705	0	995.2	NA	0.0000		9999	0	0	0	0
2019/11/29 18:49:00	BASE	1.36	111	2.78	129	3.0	91	1.7	704	0	995.2	NA	0.0000		9999	0	0	0	0
2019/11/29 18:50:00	BASE	1.18	102	2.78	129	3.1	91	1.7	704	0	995.2	NA	0.0000		9999	0	0	0	0
2019/11/29 18:51:00	BASE	1.49	86	2.78	129	3.2	91	1.8	703	0	995.2	NA	0.0000		9999	0	0	0	0
2019/11/29 18:52:00	BASE	1.67	90	2.31	115	3.3	90	1.8	701	0	995.2	NA	0.0000		9999	0	0	0	0
2019/11/29 18:53:00	BASE	1.32	107	2.21	119	3.3	90	1.7	701	0	995.2	NA	0.0000		9999	0	0	0	0
2019/11/29 18:54:00	BASE	1.37	104	2.21	126	3.4	89	1.7	699	0	995.2	NA	0.0000		9999	0	0	0	0
2019/11/29 18:55:00	BASE	1.71	110	2.26	127	3.4	89	1.7	698	0	995.2	NA	0.0000		9999	0	0	0	0
2019/11/29 18:56:00	BASE	2.00	128	2.52	137	3.3	88	1.6	697	0	995.1	NA	0.0000		9999	0	0	0	0
2019/11/29 18:57:00	BASE	2.15	127	2.52	137	3.2	88	1.4	696	0	995.1	NA	0.0000		9999	0	0	0	0
2019/11/29 18:58:00	BASE	2.10	121	2.57	124	3.2	88	1.4	696	0	995.1	NA	0.0000		9999	0	0	0	0
2019/11/29 18:59:00	BASE	2.11	124	2.57	124	3.1	88	1.3	695	0	995.1	NA	0.0000		9999	0	0	0	0
2019/11/29 19:00:00	BASE	2.07	133	2.57	124	3.0	89	1.3	695	0	995.1	NA	0.0000		9999	0	0	0	0
2019/11/29 19:01:00	BASE	2.26	136	2.88	131	3.0	89	1.3	695	0	995.0	NA	0.0000		9999	0	0	0	0
2019/11/29 19:02:00	BASE	2.56	138	2.88	147	3.0	89	1.4	695	0	994.9	NA	0.0000		9999	0	0	0	0
2019/11/29 19:03:00	BASE	2.89	140	3.24	140	3.0	90	1.4	695	0	995.1	NA	0.0000		9999	0	0	0	0
2019/11/29 19:04:00	BASE	3.01	141	3.24	140	3.0	90	1.5	696	0	995.1	NA	0.0000		9999	0	0	0	0
2019/11/29 19:05:00	BASE	2.85	144	3.24	140	3.0	90	1.5	696	0	995.1	NA	0.0000		9999	0	0	0	0
2019/11/29 19:06:00	BASE	2.75	142	3.24	140	3.0	90	1.4	697	0	995.1	NA	0.0000		9999	0	0	0	0
2019/11/29 19:07:00	BASE	2.76	140	3.24	140	3.0	90	1.4	696	0	995.1	NA	0.0000		9999	0	0	0	0
2019/11/29 19:08:00	BASE	2.70	142	3.24	140	3.0	90	1.5	697	0	995.1	NA	0.0000		9999	0	0	0	0
2019/11/29 19:09:00	BASE	2.66	142	3.24	140	3.0	90	1.5	696	0	995.1	NA	0.0000		9999	0	0	0	0
2019/11/29 19:10:00	BASE	2.71	142	3.24	140	3.0	90	1.5	697	0	995.1	NA	0.0000		9999	0	0	0	0
2019/11/29 19:11:00	BASE	2.72	140	3.24	140	3.0	90	1.5	698	0	995.2	NA	0.0000		9999	0	0	0	0
2019/11/29 19:12:00	BASE	2.53	137	3.24	140	3.0	90	1.5	698	0	995.2	NA	0.0000		9999	0	0	0	0
2019/11/29 19:13:00	BASE	2.42	138	3.19	145	2.9	91	1.6	699	0	995.2	NA	0.0000		9999	0	0	0	0
2019/11/29 19:14:00	BASE	2.69	140	3.19	138	2.9	91	1.6	700	0	995.2	NA	0.0000		9999	0	0	0	0
2019/11/29 19:15:00	BASE	2.82	141	3.19	138	2.9	91	1.6	699	0	995.2	NA	0.0000		9999	0	0	0	0
2019/11/29 19:16:00	BASE	2.73	140	3.19	138	2.9	91	1.6	699	0	995.2	NA	0.0000		9999	0	0	0	0
2019/11/29 19:17:00	BASE	2.86	141	3.24	139	2.9	91	1.5	698	0	995.1	NA	0.0000		9999	0	0	0	0
2019/11/29 19:18:00	BASE	3.14	142	3.65	142	2.8	91	1.5	696	0	994.6	NA	0.0000		9999	0	0	0	0
2019/11/29 19:19:00	BASE	3.28	141	3.65	142	2.8	91	1.5	691	0	995.1	NA	0.0000		9999	0	0	0	0
2019/11/29 19:20:00	BASE	3.31	140	3.65	142	2.8	91	1.5	684	0	995.1	NA	0.0000		9999	0	0	0	0
2019/11/29 19:21:00	BASE	3.34	140	3.65	142	2.7	92	1.5	678	0	995.1	NA	0.0000		9999	0	0	0	0
2019/11/29 19:22:00	BASE	3.47	139	3.86	139	2.7	92	1.6	672	0	995.1	NA	0.0000		9999	0	0	0	0
2019/11/29 19:23:00	BASE	3.61	139	3.91	139	2.7	93	1.7	666	0	995.1	NA	0.0000		9999	14170	0	0	0
2019/11/29 19:24:00	BASE	3.65	137	4.01	133	2.7	93	1.7	659	0	995.1	NA	0.0000		9999	14140	0	0	0
2019/11/29 19:25:00	BASE	3.36	134	4.01	133	2.6	94	1.8	651	0	995.1	NA	0.0000		9999	0	0	0	0
2019/11/29 19:26:00	BASE	2.91	135	4.01	133	2.6	94	1.8	624	0	995.1	NA	0.0000		9999	0	0	0	0
2019/11/29 19:27:00	BASE	3.07	135	4.01	133	2.6	95	1.8	645	0	995.1	NA	0.0000		9999	0	0	0	0
2019/11/29 19:28:00	BASE	3.32	135	4.01	133	2.6	95	1.9	597	0	995.1	NA	0.0000		9999	0	0	0	0
2019/11/29 19:29:00	BASE	3.37	135	4.01	133	2.6	95	1.9	621	0	995.1	NA	0.0000		9999	0	0	0	0
2019/11/29 19:30:00	BASE	3.41	135	4.01	133	2.7	95	1.9	627	0	995.1	NA	0.0000		9999	0	0	0	0
2019/11/29 19:31:00	BASE	3.56	133	4.01	133	2.7	95	1.9	624	0	995.1	NA	0.0000		9999	0	0	0	0
2019/11/29 19:32:00	BASE	3.48	132	4.01	133	2.7	94	1.9	620	0	995.1	NA	0.0000		9999	0	0	0	0
2019/11/29 19:33:00	BASE	3.30	133	4.01	133	2.6	94	1.8	619	0	995.1	NA	0.0000		9999	0	0	0	0
2019/11/29 19:34:00	BASE	3.19	134	3.91	134	2.6	94	1.8	617	0	995.1	NA	0.0000		9999	0	0	0	0
2019/11/29 19:35:00	BASE	3.01	134	3.91	134	2.7	94	1.8	615	0	995.0	NA	0.0000		9999	0	0	0	0
2019/11/29 19:36:00	BASE	2.79	133	3.91	134	2.7	94	1.8	614	0	995.0	NA	0.0000		9999	0	0	0	0
2019/11/29 19:37:00	BASE	2.87	133	3.91	134	2.7	94	1.8	611	0	994.9	NA	0.0000		9999	0	0	0	0
2019/11/29 19:38:00	BASE	3.11	133	3.91	134	2.7	93	1.7	610	0	994.9	NA	0.0000		9999	0	0	0	0
2019/11/29 19:39:00	BASE	2.89	130	3.91	134	2.7	93	1.7	608	0	994.9	NA	0.0000		9999	0	0	0	0
2019/11/29 19:40:00	BASE	2.99	126	3.91	134	2.7	92	1.6	606	0	994.9	NA	0.0000		9999	0	0	0	0
2019/11/29 19:41:00	BASE	3.18	131	3.81	134	2.7	92	1.5	603	0	994.9	NA	0.0000		9999	0	0	0	0
2019/11/29 19:42:00	BASE	2.77	132	3.76	138	2.7	92	1.5	603	0	994.6	NA	0.0000		9999	0	0	0	0
2019/11/29 19:43:00	BASE	2.76	128	3.76	138	2.8	91	1.5	600	0	994.9	NA	0.0000		9999	0	0	0	0
2019/11/29 19:44:00	BASE	3.29	127	4.01	132	2.8	91	1.5	599	0	994.9	NA	0.0000		9999	0	0	0	0
2019/11/29 19:45:00	BASE	3.38	126	4.01	132	2.8	91	1.4	597	0	994.9	NA	0.0000		9999	0	0	0	0
2019/11/29 19:46:00	BASE	3.28	129	4.01	132	2.8	90	1.4	594	0	994.9	NA	0.0000		9999	0	0	0	0
2019/11/29 19:47:00	BASE	3.08	133	4.01	132	2.8	90	1.4	593	0	994.9	NA	0.0000		9999	0	0	0	0
2019/11/29 19:48:00	BASE	2.82	131	4.01	132	2.8	90	1.3	592	0	994.9	NA	0.0000		9999	0	0	0	0
2019/11/29 19:49:00	BASE	2.59	127	4.01	132	2.8	90	1.3	590	0	994.9	NA	0.0000		9999	0	0	0	0
2019/11/29 19:50:00	BASE	2.90	130	4.01	132	2.7	90	1.3	589	0	994.9	NA	0.0000		9999	0	0	0	0
2019/11/29 19:51:00	BASE	3.16	134	4.01	132	2.7	90	1.3	586	0	994.9	NA	0.0000		9999	0	0	0	0
2019/11/29 19:52:00	BASE	2.58	134	4.01	132	2.7	90	1.3	585	0	994.4	NA	0.0000		9999	0	0	0	0
2019/11/29 19:53:00	BASE	2.59	132	4.01	132	2.8	90	1.3	583	0	995.0	NA	0.0000		9999	0	0	0	0
2019/11/29 19:54:00	BASE	3.25	135	3.81	131	2.8	90	1.3	581	0	994.9	NA	0.0000		9999	0	0	0	0
2019/11/29 19:55:00	BASE	3.52	134	3.86	128	2.8	90	1.3	580	0	994.9	NA	0.0000		9999	0	0	0	0
2019/11/29 19:56:00	BASE	3.63	131	3.96	129	2.8	90	1.3	578	0	994.7	NA	0.0000		9999	0	0	0	0
2019/11/29 19:57:00	BASE	3.44	130	3.96	129	2.7	90	1.3	576	0	994.8	NA	0.0000		9999	0	0	0	0
2019/11/29 19:58:00	BASE	2.95	133	3.96	129	2.7	90	1.2	574	0	994.9	NA	0.0000		9999	0	0	0	0
2019/11/29 19:59:00	BASE	2.67	136	3.96	129	2.7	90	1.3	573	0	994.9	NA	0.0000		9999	0	0	0	0
2019/11/29 20:00:00	BASE	2.75	132	3.96	129	2.7	90	1.3	570	0	994.9	NA	0.0000		9999	0	0	0	0
2019/11/29 20:01:00	BASE	2.50	129	3.96	129	2.7	91	1.3	569	0	994.9	NA	0.0000		9999	0	0	0	0
2019/11/29 20:02:00	BASE	2.38	134	3.96	129	2.7	91	1.4	567	0	994.9	NA	0.0000		9999	0	0	0	0
2019/11/29 20:03:00	BASE	2.48	138	3.96	129	2.8	91	1.4	565	0	994.8	NA	0.0000		9999	0	0	0	0
2019/11/29 20:04:00	BASE	2.22	138	3.96	129	2.7	91	1.4	563	0	994.9	NA	0.0000		9999	0	0	0	0
2019/11/29 20:05:00	BASE	2.47	138	3.96	129	2.7	91	1.4	562	0	994.9	NA	0.0000		9999	0	0	0	0
2019/11/29 20:06:00	BASE	3.00	135	3.65	132	2.8	91	1.4	560	0	994.9	NA	0.0000		9999	0	0	0	0
2019/11/29 20:07:00	BASE	3.12	132	3.50	133	2.8	91	1.5	558	0	995.0	NA	0.0000		9999	0	0	0	0
2019/11/29 20:08:00	BASE	2.48	137	3.50	133	2.8	91	1.5	556	0	995.0	NA	0.0000		9999	0	0	0	0
2019/11/29 20:09:00	BASE	1.82	139	3.50	133	2.8	91	1.5	555	0	995.0	NA	0.0000		9999	0	0	0	0
2019/11/29 20:10:00	BASE	1.70	139	3.50	133	2.8	91	1.5	553	0	995.1	NA	0.0000		9999	0	0	0	0
2019/11/29 20:11:00	BASE	1.88	143	3.50	133	2.9	91	1.5	552	0	995.1	NA	0.0000		9999	0	0	0	0
2019/11/29 20:12:00	BASE	1.98	151	3.50	133	2.9	90	1.5	550	0	995.1	NA	0.0000		9999	0	0	0	0
2019/11/29 20:13:00	BASE	1.75	152	3.50	133	3.0	90	1.5	547	0	995.1	NA	0.0000		9999	0	0	0	0
2019/11/29 20:14:00	BASE	1.66	145	3.50	133	3.1	90	1.6	546	0	995.1	NA	0.0000		9999	0	0	0	0
2019/11/29 20:15:00	BASE	1.70	143	3.50	133	3.2	90	1.6	544	0	995.1	NA	0.0000		9999	0	0	0	0
2019/11/29 20:16:00	BASE	1.49	134	3.34	133	3.3	89	1.7	542	0	995.2	NA	0.0000		9999	0	0	0	0
2019/11/29 20:17:00	BASE	1.39	119	2.62	138	3.3	89	1.6	541	0	994.9	NA	0.0000		9999	0	0	0	0
2019/11/29 20:18:00	BASE	1.61	110	2.42	146	3.3	88	1.5	538	0	995.2	NA	0.0000		9999	0	0	0	0
2019/11/29 20:19:00	BASE	1.34	90	2.42	146	3.3	87	1.4	537	0	995.2	NA	0.0000		9999	0	0	0	0
2019/11/29 20:20:00	BASE	0.55	6	2.42	146	3.3	87	1.4	533	0	995.2	NA	0.0000		9999	0	0	0	0
2019/11/29 20:21:00	BASE	0.05	36	2.31	135	3.4	87	1.4	480	0	995.2	NA	0.0000		9999	0	0	0	0
2019/11/29 20:22:00	BASE	0.16	146	2.31	135	3.5	86	1.4	408	0	995.2	NA	0.0000		9999	0	0	0	0
2019/11/29 20:23:00	BASE	0.16	154	2.31	135	3.5	86	1.3	459	0	995.2	NA	0.0000		9999	0	0	0	0
2019/11/29 20:24:00	BASE	0.00	116	2.11	104	3.5	85	1.3	527	0	995.2	NA	0.0000		9999	0	0	0	0
2019/11/29 20:25:00	BASE	0.00	126	2.11	104	3.5	85	1.1	527	0	995.2	NA	0.0000		9999	0	0	0	0
2019/11/29 20:26:00	BASE	0.10	144	2.11	104	3.5	85	1.1	525	0	995.2	NA	0.0000		9999	0	0	0	0
2019/11/29 20:27:00	BASE	0.75	129	2.11	104	3.5	84	1.1	523	0	995.2	NA	0.0000		9999	0	0	0	0
2019/11/29 20:28:00	BASE	1.39	135	2.26	145	3.5	84	1.2	522	0	995.2	NA	0.0000		9999	0	0	0	0
2019/11/29 20:29:00	BASE	1.77	136	2.31	142	3.5	84	1.1	520	0	995.2	NA	0.0000		9999	0	0	0	0
2019/11/29 20:30:00	BASE	1.89	120	2.31	142	3.5	84	1.1	517	0	995.2	NA	0.0000		9999	0	0	0	0
2019/11/29 20:31:00	BASE	1.74	112	2.31	142	3.4	84	1.0	515	0	995.2	NA	0.0000		9999	0	0	0	0
2019/11/29 20:32:00	BASE	2.09	115	2.57	122	3.4	84	0.9	514	0	995.1	NA	0.0000		9999	0	0	0	0
2019/11/29 20:33:00	BASE	2.41	121	2.57	122	3.2	84	0.8	512	0	995.1	NA	0.0000		9999	0	0	0	0
2019/11/29 20:34:00	BASE	2.22	122	2.57	122	3.1	84	0.7	510	0	995.2	NA	0.0000		9999	0	0	0	0
2019/11/29 20:35:00	BASE	2.07	122	2.57	122	3.0	85	0.7	508	0	995.1	NA	0.0000		9999	0	0	0	0
2019/11/29 20:36:00	BASE	2.12	124	2.57	122	2.9	85	0.6	506	0	995.1	NA	0.0000		9999	0	0	0	0
2019/11/29 20:37:00	BASE	2.02	128	2.57	122	2.8	86	0.6	504	0	995.1	NA	0.0000		9999	0	0	0	0
2019/11/29 20:38:00	BASE	1.75	132	2.57	122	2.7	87	0.7	503	0	995.1	NA	0.0000		9999	0	0	0	0
2019/11/29 20:39:00	BASE	1.54	134	2.57	122	2.7	88	0.8	501	0	995.1	NA	0.0000		9999	0	0	0	0
2019/11/29 20:40:00	BASE	1.54	132	2.57	122	2.7	89	1.0	500	0	995.1	NA	0.0000		9999	0	0	0	0
2019/11/29 20:41:00	BASE	1.86	123	2.57	122	2.6	90	1.2	498	0	995.1	NA	0.0000		9999	0	0	0	0
2019/11/29 20:42:00	BASE	2.35	122	2.73	128	2.7	91	1.4	497	0	995.1	NA	0.0000		9999	0	0	0	0
2019/11/29 20:43:00	BASE	2.52	129	2.73	128	2.7	92	1.5	495	0	995.1	NA	0.0000		9999	0	0	0	0
2019/11/29 20:44:00	BASE	2.32	132	2.73	128	2.7	92	1.5	494	0	994.7	NA	0.0000		9999	0	0	0	0
2019/11/29 20:45:00	BASE	2.05	134	2.73	128	2.7	92	1.4	492	0	995.0	NA	0.0000		9999	0	0	0	0
2019/11/29 20:46:00	BASE	2.07	135	2.73	128	2.7	91	1.4	491	0	994.9	NA	0.0000		9999	0	0	0	0
2019/11/29 20:47:00	BASE	2.16	132	2.73	128	2.7	91	1.4	489	0	994.9	NA	0.0000		9999	0	0	0	0
2019/11/29 20:48:00	BASE	1.94	130	2.73	128	2.7	91	1.4	488	0	994.9	NA	0.0000		9999	0	0	0	0
2019/11/29 20:49:00	BASE	1.82	136	2.73	128	2.7	91	1.4	487	0	994.9	NA	0.0000		9999	0	0	0	0
2019/11/29 20:50:00	BASE	1.95	137	2.73	128	2.7	92	1.4	486	0	994.9	NA	0.0000		9999	0	0	0	0
2019/11/29 20:51:00	BASE	1.91	135	2.73	128	2.6	92	1.5	485	0	994.9	NA	0.0000		9999	0	0	0	0
2019/11/29 20:52:00	BASE	1.70	136	2.62	130	2.6	92	1.5	483	0	994.9	NA	0.0000		9999	0	0	0	0
2019/11/29 20:53:00	BASE	1.57	135	2.42	134	2.6	93	1.5	483	0	994.9	NA	0.0000		9999	0	0	0	0
2019/11/29 20:54:00	BASE	1.53	138	2.42	134	2.6	93	1.6	482	0	994.9	NA	0.0000		9999	0	0	0	0
2019/11/29 20:55:00	BASE	1.49	144	2.42	134	2.6	94	1.7	482	0	994.9	NA	0.0000		9999	0	0	0	0
2019/11/29 20:56:00	BASE	1.47	148	2.31	137	2.7	94	1.8	482	0	994.6	NA	0.0000		9999	14530	0	0	0
2019/11/29 20:57:00	BASE	1.45	147	2.31	137	2.8	94	1.9	481	0	994.8	NA	0.0000		9999	14530	0	0	0
2019/11/29 20:58:00	BASE	1.38	144	2.31	137	2.9	93	1.9	479	0	994.8	NA	0.0000		9999	0	0	0	0
2019/11/29 20:59:00	BASE	1.16	147	2.31	137	2.9	93	1.9	477	0	994.8	NA	0.0000		9999	0	0	0	0
2019/11/29 21:00:00	BASE	0.69	153	2.16	140	3.0	92	1.9	476	0	994.8	NA	0.0000		9999	0	0	0	0
2019/11/29 21:01:00	BASE	0.21	159	2.16	140	3.1	91	1.8	474	0	994.7	NA	0.0000		9999	0	0	0	0
2019/11/29 21:02:00	BASE	0.04	159	2.16	140	3.2	90	1.7	473	0	994.7	NA	0.0000		9999	0	0	0	0
2019/11/29 21:03:00	BASE	0.23	169	2.16	140	3.2	89	1.6	472	0	994.8	NA	0.0000		9999	0	0	0	0
2019/11/29 21:04:00	BASE	0.68	189	2.16	140	3.2	88	1.5	471	0	994.8	NA	0.0000		9999	0	0	0	0
2019/11/29 21:05:00	BASE	0.75	199	2.16	140	3.2	88	1.4	470	0	994.8	NA	0.0000		9999	0	0	0	0
2019/11/29 21:06:00	BASE	0.25	205	2.16	140	3.2	88	1.3	469	0	994.8	NA	0.0000		9999	0	0	0	0
2019/11/29 21:07:00	BASE	0.00	261	2.16	140	3.2	88	1.4	468	0	994.8	NA	0.0000		9999	0	0	0	0
2019/11/29 21:08:00	BASE	0.00	290	1.75	160	3.4	89	1.7	468	0	994.5	NA	0.0000		9999	0	0	0	0
2019/11/29 21:09:00	BASE	0.30	166	2.42	109	3.6	88	1.8	468	0	994.8	NA	0.0000		9999	0	0	0	0
2019/11/29 21:10:00	BASE	1.63	118	3.04	101	3.7	87	1.7	466	0	994.7	NA	0.0000		9999	0	0	0	0
2019/11/29 21:11:00	BASE	2.35	106	3.04	101	3.8	86	1.6	465	0	994.5	NA	0.0000		9999	0	0	0	0
2019/11/29 21:12:00	BASE	2.09	101	3.04	101	3.8	85	1.4	463	0	994.7	NA	0.0000		9999	0	0	0	0
2019/11/29 21:13:00	BASE	1.98	103	3.04	101	3.6	84	1.1	461	0	994.7	NA	0.0000		9999	0	0	0	0
2019/11/29 21:14:00	BASE	2.29	112	3.09	123	3.5	83	0.9	458	0	994.7	NA	0.0000		9999	0	0	0	0
2019/11/29 21:15:00	BASE	2.72	116	3.09	128	3.4	83	0.8	456	0	994.7	NA	0.0000		9999	0	0	0	0
2019/11/29 21:16:00	BASE	2.87	118	3.50	115	3.4	83	0.7	453	0	994.7	NA	0.0000		9999	0	0	0	0
2019/11/29 21:17:00	BASE	2.95	117	3.50	115	3.4	82	0.6	450	0	994.7	NA	0.0000		9999	0	0	0	0
2019/11/29 21:18:00	BASE	2.68	121	3.50	115	3.3	82	0.5	446	0	994.7	NA	0.0000		9999	0	0	0	0
2019/11/29 21:19:00	BASE	2.78	124	3.50	115	3.3	82	0.5	444	0	994.7	NA	0.0000		9999	0	0	0	0
2019/11/29 21:20:00	BASE	2.93	125	3.50	115	3.3	82	0.5	441	0	994.7	NA	0.0000		9999	0	0	0	0
2019/11/29 21:21:00	BASE	2.83	128	3.50	115	3.2	82	0.5	439	0	994.7	NA	0.0000		9999	0	0	0	0
2019/11/29 21:22:00	BASE	2.94	129	3.50	115	3.2	82	0.4	436	0	994.7	NA	0.0000		9999	0	0	0	0
2019/11/29 21:23:00	BASE	2.93	127	3.96	122	3.2	82	0.4	433	0	994.7	NA	0.0000		9999	0	0	0	0
2019/11/29 21:24:00	BASE	3.33	125	4.12	121	3.2	82	0.4	430	0	994.7	NA	0.0000		9999	0	0	0	0
2019/11/29 21:25:00	BASE	3.62	129	4.12	121	3.1	82	0.4	427	0	994.7	NA	0.0000		9999	0	0	0	0
2019/11/29 21:26:00	BASE	3.45	133	4.12	121	3.1	82	0.4	425	0	994.7	NA	0.0000		9999	0	0	0	0
2019/11/29 21:27:00	BASE	3.68	133	4.37	128	3.1	83	0.4	422	0	994.5	NA	0.0000		9999	0	0	0	0
2019/11/29 21:28:00	BASE	3.94	131	4.37	128	3.0	83	0.5	420	0	994.6	NA	0.0000		9999	0	0	0	0
2019/11/29 21:29:00	BASE	3.93	130	4.37	128	3.0	84	0.6	417	0	994.7	NA	0.0000		9999	0	0	0	0
2019/11/29 21:30:00	BASE	3.82	131	4.37	128	3.0	85	0.7	415	0	994.7	NA	0.0000		9999	0	0	0	0
2019/11/29 21:31:00	BASE	3.68	129	4.37	128	3.0	86	0.8	413	0	994.7	NA	0.0000		9999	0	0	0	0
2019/11/29 21:32:00	BASE	3.82	129	4.37	131	2.9	87	0.9	410	0	994.6	NA	0.0000		9999	0	0	0	0
2019/11/29 21:33:00	BASE	3.97	130	4.37	131	2.8	88	0.9	408	0	994.5	NA	0.0000		9999	0	0	0	0
2019/11/29 21:34:00	BASE	3.85	129	4.37	131	2.7	89	1.0	406	0	994.7	NA	0.0000		9999	0	0	0	0
2019/11/29 21:35:00	BASE	3.88	128	4.37	121	2.6	90	1.1	402	0	994.7	NA	0.0000		9999	0	0	0	0
2019/11/29 21:36:00	BASE	3.76	129	4.37	121	2.5	91	1.2	400	0	994.7	NA	0.0000		9999	0	0	0	0
2019/11/29 21:37:00	BASE	3.75	129	4.58	132	2.4	93	1.3	397	0	994.3	NA	0.0000		9999	0	0	0	0
2019/11/29 21:38:00	BASE	4.00	130	4.58	132	2.3	94	1.5	394	0	994.7	NA	0.0000		9999	0	0	0	0
2019/11/29 21:39:00	BASE	3.74	130	4.58	132	2.3	95	1.5	391	0	994.7	NA	0.0000		9999	0	0	0	0
2019/11/29 21:40:00	BASE	3.62	128	4.58	132	2.3	96	1.7	388	0	994.7	NA	0.0000		9999	0	0	0	0
2019/11/29 21:41:00	BASE	3.69	125	4.58	132	2.3	97	1.8	386	0	994.7	NA	0.0000		9999	0	0	0	0
2019/11/29 21:42:00	BASE	3.65	125	4.58	132	2.3	97	1.9	382	0	994.7	NA	0.0000		9999	0	0	0	0
2019/11/29 21:43:00	BASE	3.63	127	4.58	132	2.4	97	1.9	380	0	994.7	NA	0.0000		9999	0	0	0	0
2019/11/29 21:44:00	BASE	3.48	130	4.58	132	2.5	96	1.9	377	0	994.5	NA	0.0000		9999	0	0	0	0
2019/11/29 21:45:00	BASE	3.65	133	4.58	132	2.5	95	1.8	374	0	994.7	NA	0.0000		9999	0	0	0	0
2019/11/29 21:46:00	BASE	3.86	135	4.58	132	2.5	94	1.7	372	0	994.7	NA	0.0000		9999	0	0	0	0
2019/11/29 21:47:00	BASE	3.84	134	4.53	133	2.6	94	1.6	369	0	994.7	NA	0.0000		9999	0	0	0	0
2019/11/29 21:48:00	BASE	3.56	131	4.32	135	2.6	93	1.6	367	0	994.7	NA	0.0000		9999	0	0	0	0
2019/11/29 21:49:00	BASE	3.41	130	4.32	135	2.6	93	1.5	365	0	994.7	NA	0.0000		9999	0	0	0	0
2019/11/29 21:50:00	BASE	3.30	130	4.32	135	2.5	93	1.5	363	0	994.7	NA	0.0000		9999	0	0	0	0
2019/11/29 21:51:00	BASE	2.95	129	4.32	135	2.5	94	1.5	361	0	994.7	NA	0.0000		9999	0	0	0	0
2019/11/29 21:52:00	BASE	2.82	132	4.32	135	2.4	94	1.5	359	0	994.7	NA	0.0000		9999	0	0	0	0
2019/11/29 21:53:00	BASE	2.65	133	4.32	135	2.3	95	1.6	357	0	994.7	NA	0.0000		9999	0	0	0	0
2019/11/29 21:54:00	BASE	2.44	132	4.32	135	2.3	95	1.6	355	0	994.7	NA	0.0000		9999	0	0	0	0
2019/11/29 21:55:00	BASE	2.61	133	4.27	136	2.3	96	1.7	353	0	994.7	NA	0.0000		9999	0	0	0	0
2019/11/29 21:56:00	BASE	2.75	132	4.17	136	2.3	96	1.7	351	0	994.7	NA	0.0000		9999	0	0	0	0
2019/11/29 21:57:00	BASE	2.46	130	4.17	136	2.3	96	1.8	349	0	994.2	NA	0.0000		9999	0	0	0	0
2019/11/29 21:58:00	BASE	1.61	126	4.12	135	2.4	96	1.8	347	0	994.5	NA	0.0000		9999	0	0	0	0
2019/11/29 21:59:00	BASE	0.50	124	3.45	136	2.6	96	2.0	345	0	994.7	NA	0.0000		9999	0	0	0	0
2019/11/29 22:00:00	BASE	0.14	129	3.45	136	2.8	95	2.1	344	0	994.7	NA	0.0000		9999	0	0	0	0
2019/11/29 22:01:00	BASE	0.60	125	3.45	136	2.9	94	2.1	342	0	994.7	NA	0.0000		9999	0	0	0	0
2019/11/29 22:02:00	BASE	0.93	130	3.45	136	3.1	93	2.1	341	0	994.7	NA	0.0000		9999	0	0	0	0
2019/11/29 22:03:00	BASE	0.47	105	3.45	136	3.2	92	2.0	340	0	994.7	NA	0.0000		9999	0	0	0	0
2019/11/29 22:04:00	BASE	0.00	74	3.45	136	3.3	90	1.9	338	0	994.7	NA	0.0000		9999	0	0	0	0
2019/11/29 22:05:00	BASE	0.29	120	3.09	134	3.4	89	1.7	336	0	994.4	NA	0.0000		9999	0	0	0	0
2019/11/29 22:06:00	BASE	0.79	126	2.83	123	3.4	88	1.6	334	0	994.6	NA	0.0000		9999	0	0	0	0
2019/11/29 22:07:00	BASE	1.13	108	2.01	143	3.3	87	1.4	331	0	994.7	NA	0.0000		9999	0	0	0	0
2019/11/29 22:08:00	BASE	0.68	103	2.01	143	3.3	87	1.3	330	0	994.7	NA	0.0000		9999	0	0	0	0
2019/11/29 22:09:00	BASE	0.57	124	2.01	143	3.2	86	1.2	330	0	994.7	NA	0.0000		9999	0	0	0	0
2019/11/29 22:10:00	BASE	0.51	145	2.01	143	3.2	86	1.1	328	0	994.7	NA	0.0000		9999	0	0	0	0
2019/11/29 22:11:00	BASE	0.05	104	1.95	154	3.2	86	1.2	326	0	994.7	NA	0.0000		9999	0	0	0	0
2019/11/29 22:12:00	BASE	0.05	33	1.85	126	3.3	87	1.3	325	0	994.6	NA	0.0000		9999	0	0	0	0
2019/11/29 22:13:00	BASE	0.00	350	1.85	126	3.4	86	1.4	325	0	994.6	NA	0.0000		9999	0	0	0	0
2019/11/29 22:14:00	BASE	0.11	33	1.85	126	3.6	86	1.5	324	0	994.7	NA	0.0000		9999	0	0	0	0
2019/11/29 22:15:00	BASE	0.38	101	1.85	126	3.8	86	1.6	321	0	994.6	NA	0.0000		9999	0	0	0	0
2019/11/29 22:16:00	BASE	0.77	84	2.31	110	3.8	85	1.5	319	0	994.7	NA	0.0000		9999	0	0	0	0
2019/11/29 22:17:00	BASE	0.83	74	2.31	110	3.8	84	1.3	317	0	994.7	NA	0.0000		9999	0	0	0	0
2019/11/29 22:18:00	BASE	0.38	52	2.31	110	3.8	83	1.2	314	0	994.7	NA	0.0000		9999	0	0	0	0
2019/11/29 22:19:00	BASE	0.84	48	2.62	118	3.7	84	1.2	313	0	994.6	NA	0.0000		9999	0	0	0	0
2019/11/29 22:20:00	BASE	1.40	84	2.62	118	3.7	84	1.2	312	0	994.6	NA	0.0000		9999	0	0	0	0
2019/11/29 22:21:00	BASE	1.23	98	2.62	118	3.6	84	1.2	308	0	994.6	NA	0.0000		9999	0	0	0	0
2019/11/29 22:22:00	BASE	1.20	122	2.62	118	3.6	85	1.2	307	0	994.6	NA	0.0000		9999	0	0	0	0
2019/11/29 22:23:00	BASE	1.77	114	2.88	89	3.6	85	1.2	305	0	994.6	NA	0.0000		9999	0	0	0	0
2019/11/29 22:24:00	BASE	2.50	98	3.04	99	3.6	84	1.1	295	0	994.5	NA	0.0000		9999	0	0	0	0
2019/11/29 22:25:00	BASE	2.42	105	3.04	99	3.4	84	0.9	299	0	994.6	NA	0.0000		9999	0	0	0	0
2019/11/29 22:26:00	BASE	2.14	106	3.04	99	3.4	83	0.8	297	0	993.9	NA	0.0000		9999	0	0	0	0
2019/11/29 22:27:00	BASE	1.57	102	3.04	99	3.4	83	0.8	289	0	994.6	NA	0.0000		9999	0	0	0	0
2019/11/29 22:28:00	BASE	1.67	103	3.04	99	3.4	83	0.8	293	0	994.5	NA	0.0000		9999	0	0	0	0
2019/11/29 22:29:00	BASE	2.41	108	3.19	115	3.4	83	0.8	288	0	994.5	NA	0.0000		9999	0	0	0	0
2019/11/29 22:30:00	BASE	2.40	117	3.19	115	3.4	83	0.8	289	0	994.5	NA	0.0000		9999	0	0	0	0
2019/11/29 22:31:00	BASE	2.29	120	3.19	115	3.4	83	0.8	289	0	994.5	NA	0.0000		9999	0	0	0	0
2019/11/29 22:32:00	BASE	2.34	117	3.19	115	3.4	83	0.8	287	0	994.5	NA	0.0000		9999	0	0	0	0
2019/11/29 22:33:00	BASE	2.30	115	3.19	115	3.4	83	0.7	286	0	994.5	NA	0.0000		9999	0	0	0	0
2019/11/29 22:34:00	BASE	2.27	113	3.19	115	3.3	83	0.7	284	0	994.5	NA	0.0000		9999	0	0	0	0
2019/11/29 22:35:00	BASE	2.25	117	3.19	115	3.3	82	0.6	282	0	994.6	NA	0.0000		9999	0	0	0	0
2019/11/29 22:36:00	BASE	2.30	119	3.19	115	3.4	83	0.7	280	0	994.5	NA	0.0000		9999	0	0	0	0
2019/11/29 22:37:00	BASE	2.19	113	3.19	115	3.4	83	0.7	278	0	994.5	NA	0.0000		9999	0	0	0	0
2019/11/29 22:38:00	BASE	1.83	109	3.19	115	3.4	83	0.7	277	0	994.5	NA	0.0000		9999	0	0	0	0
2019/11/29 22:39:00	BASE	2.01	106	3.09	115	3.5	83	0.9	275	0	994.5	NA	0.0000		9999	0	0	0	0
2019/11/29 22:40:00	BASE	2.24	102	3.09	115	3.5	83	1.0	273	0	994.5	NA	0.0000		9999	0	0	0	0
2019/11/29 22:41:00	BASE	2.36	105	3.09	115	3.6	83	1.0	271	0	994.5	NA	0.0000		9999	0	0	0	0
2019/11/29 22:42:00	BASE	2.25	112	2.93	91	3.5	84	1.0	270	0	994.5	NA	0.0000		9999	0	0	0	0
2019/11/29 22:43:00	BASE	1.83	103	2.93	91	3.5	84	1.0	268	0	994.5	NA	0.0000		9999	0	0	0	0
2019/11/29 22:44:00	BASE	1.73	97	2.93	91	3.5	84	1.0	266	0	994.5	NA	0.0000		9999	0	0	0	0
2019/11/29 22:45:00	BASE	2.04	107	3.09	104	3.5	84	1.1	265	0	994.5	NA	0.0000		9999	0	0	0	0
2019/11/29 22:46:00	BASE	2.59	113	4.06	113	3.5	84	1.1	264	0	994.5	NA	0.0000		9999	0	0	0	0
2019/11/29 22:47:00	BASE	2.80	113	4.06	113	3.6	84	1.1	263	0	994.4	NA	0.0000		9999	0	0	0	0
2019/11/29 22:48:00	BASE	3.18	112	4.06	115	3.6	83	1.0	261	0	994.5	NA	0.0000		9999	0	0	0	0
2019/11/29 22:49:00	BASE	3.71	114	4.17	116	3.5	83	0.8	260	0	994.5	NA	0.0000		9999	0	0	0	0
2019/11/29 22:50:00	BASE	3.76	112	4.17	116	3.5	82	0.7	259	0	994.4	NA	0.0000		9999	16730	0	0	0
2019/11/29 22:51:00	BASE	3.17	109	4.17	116	3.5	82	0.6	258	0	994.5	NA	0.0000		9999	0	0	0	0
2019/11/29 22:52:00	BASE	3.07	108	4.32	108	3.4	81	0.6	256	0	994.4	NA	0.0000		9999	0	0	0	0
2019/11/29 22:53:00	BASE	3.41	106	4.32	108	3.5	81	0.6	254	0	994.4	NA	0.0000		9999	0	0	0	0
2019/11/29 22:54:00	BASE	3.42	105	4.32	108	3.5	81	0.6	252	0	994.3	NA	0.0000		9999	0	0	0	0
2019/11/29 22:55:00	BASE	3.31	105	4.32	108	3.5	81	0.6	250	0	994.2	NA	0.0000		9999	0	0	0	0
2019/11/29 22:56:00	BASE	3.52	105	4.32	108	3.5	82	0.6	248	0	994.5	NA	0.0000		9999	0	0	0	0
2019/11/29 22:57:00	BASE	3.81	107	4.37	108	3.4	82	0.6	246	0	994.5	NA	0.0000		9999	0	0	0	0
2019/11/29 22:58:00	BASE	3.44	106	4.37	108	3.4	82	0.6	244	0	994.5	NA	0.0000		9999	0	0	0	0
2019/11/29 22:59:00	BASE	3.23	107	4.37	108	3.3	82	0.6	242	0	994.5	NA	0.0000		9999	0	0	0	0
2019/11/29 23:00:00	BASE	3.00	110	4.37	108	3.3	83	0.6	239	0	994.5	NA	0.0000		9999	0	0	0	0
2019/11/29 23:01:00	BASE	2.54	110	4.37	108	3.3	83	0.6	237	0	994.5	NA	0.0000		9999	0	0	0	0
2019/11/29 23:02:00	BASE	2.30	110	4.37	108	3.4	83	0.7	236	0	994.5	NA	0.0000		9999	0	0	0	0
2019/11/29 23:03:00	BASE	2.29	104	4.37	108	3.5	83	0.8	233	0	994.5	NA	0.0000		9999	0	0	0	0
2019/11/29 23:04:00	BASE	2.27	94	4.37	108	3.6	83	0.9	231	0	994.5	NA	0.0000		9999	0	0	0	0
2019/11/29 23:05:00	BASE	2.30	99	4.37	108	3.6	82	0.9	230	0	994.2	NA	0.0000		9999	16540	0	0	0
2019/11/29 23:06:00	BASE	2.09	105	4.37	108	3.7	82	0.9	227	0	994.5	NA	0.0000		9999	16570	0	0	0
2019/11/29 23:07:00	BASE	2.41	99	4.17	111	3.7	82	0.9	225	0	994.5	NA	0.0000		9999	16540	0	0	0
2019/11/29 23:08:00	BASE	2.48	87	4.17	111	3.8	81	0.8	223	0	994.4	NA	0.0000		9999	16500	0	0	0
2019/11/29 23:09:00	BASE	2.08	107	3.55	111	3.8	81	0.8	221	0	994.2	NA	0.0000		9999	0	0	0	0
2019/11/29 23:10:00	BASE	2.68	122	3.55	110	3.8	80	0.7	219	0	994.5	NA	0.0000		9999	0	0	0	0
2019/11/29 23:11:00	BASE	2.93	104	3.55	110	3.8	80	0.7	217	0	994.5	NA	0.0000		9999	0	0	0	0
2019/11/29 23:12:00	BASE	2.56	101	3.55	110	3.8	80	0.6	215	0	994.5	NA	0.0000		9999	0	0	0	0
2019/11/29 23:13:00	BASE	2.57	98	3.55	110	3.7	80	0.5	214	0	994.5	NA	0.0000		9999	16500	0	0	0
2019/11/29 23:14:00	BASE	2.62	90	3.55	110	3.6	80	0.5	212	0	994.5	NA	0.0000		9999	0	0	0	0
2019/11/29 23:15:00	BASE	2.21	92	3.55	110	3.6	80	0.5	210	0	994.4	NA	0.0000		9999	0	0	0	0
2019/11/29 23:16:00	BASE	1.89	100	3.55	110	3.7	80	0.6	209	0	994.5	NA	0.0000		9999	0	0	0	0
2019/11/29 23:17:00	BASE	1.55	85	3.55	110	3.7	80	0.6	207	0	994.5	NA	0.0000		9999	0	0	0	0
2019/11/29 23:18:00	BASE	1.06	75	3.55	110	3.8	80	0.7	205	0	994.5	NA	0.0000		9999	0	0	0	0
2019/11/29 23:19:00	BASE	1.26	94	3.55	110	3.9	80	0.7	204	0	994.5	NA	0.0000		9999	0	0	0	0
2019/11/29 23:20:00	BASE	1.55	100	3.40	121	3.9	80	0.7	202	0	994.5	NA	0.0000		9999	0	0	0	0
2019/11/29 23:21:00	BASE	1.22	94	3.40	121	3.9	80	0.7	199	0	994.5	NA	0.0000		9999	0	0	0	0
2019/11/29 23:22:00	BASE	0.51	78	3.24	76	3.9	80	0.7	197	0	994.5	NA	0.0000		9999	0	0	0	0
2019/11/29 23:23:00	BASE	0.00	71	3.04	91	3.9	80	0.8	195	0	994.5	NA	0.0000		9999	13220	0	0	0
2019/11/29 23:24:00	BASE	0.00	75	3.04	91	4.0	80	0.8	193	0	994.5	NA	0.0000		9999	0	0	0	0
2019/11/29 23:25:00	BASE	0.00	148	3.04	91	4.0	80	0.8	191	0	994.4	NA	0.0000		9999	0	0	0	0
2019/11/29 23:26:00	BASE	0.00	227	2.88	93	4.1	79	0.8	189	0	994.4	NA	0.0000		9999	0	0	0	0
2019/11/29 23:27:00	BASE	0.00	228	2.88	93	4.1	79	0.8	187	0	994.4	NA	0.0000		9999	0	0	0	0
2019/11/29 23:28:00	BASE	0.00	247	2.88	93	4.0	79	0.7	184	0	994.4	NA	0.0000		9999	0	0	0	0
2019/11/29 23:29:00	BASE	0.00	248	2.88	93	4.0	79	0.6	182	0	994.4	NA	0.0000		9999	0	0	0	0
2019/11/29 23:30:00	BASE	0.00	245	1.95	94	3.9	79	0.5	180	0	994.4	NA	0.0000		9999	0	0	0	0
2019/11/29 23:31:00	BASE	0.00	248	M	M	3.8	80	0.6	179	0	994.4	NA	0.0000		9999	0	0	0	0
2019/11/29 23:32:00	BASE	0.00	264	M	M	3.7	80	0.6	177	0	994.4	NA	0.0000		9999	0	0	0	0
2019/11/29 23:33:00	BASE	0.00	263	M	M	3.6	81	0.6	176	0	994.4	NA	0.0000		9999	0	0	0	0
2019/11/29 23:34:00	BASE	0.00	249	M	M	3.5	81	0.6	174	0	994.3	NA	0.0000		9999	0	0	0	0
2019/11/29 23:35:00	BASE	0.00	253	M	M	3.5	82	0.7	172	0	994.4	NA	0.0000		9999	0	0	0	0
2019/11/29 23:36:00	BASE	0.00	261	M	M	3.6	82	0.8	171	0	994.4	NA	0.0000		9999	0	0	0	0
2019/11/29 23:37:00	BASE	0.00	274	M	M	3.6	82	0.8	169	0	994.4	NA	0.0000		9999	0	0	0	0
2019/11/29 23:38:00	BASE	0.00	318	M	M	3.6	83	0.9	167	0	994.4	NA	0.0000		9999	0	0	0	0
2019/11/29 23:39:00	BASE	0.00	17	M	M	3.7	83	1.0	166	0	994.4	NA	0.0000		9999	0	0	0	0
2019/11/29 23:40:00	BASE	0.04	18	1.03	354	3.6	82	0.9	164	0	994.1	NA	0.0000		9999	0	0	0	0
2019/11/29 23:41:00	BASE	0.04	6	1.03	354	3.6	82	0.7	162	0	994.4	NA	0.0000		9999	0	0	0	0
2019/11/29 23:42:00	BASE	0.28	14	1.29	71	3.5	82	0.7	161	0	994.4	NA	0.0000		9999	0	0	0	0
2019/11/29 23:43:00	BASE	0.73	39	1.29	55	3.5	82	0.8	159	0	994.4	NA	0.0000		9999	0	0	0	0
2019/11/29 23:44:00	BASE	0.76	60	1.39	63	3.5	82	0.8	159	0	994.4	NA	0.0000		9999	0	0	0	0
2019/11/29 23:45:00	BASE	0.30	71	1.39	63	3.5	82	0.8	157	0	994.4	NA	0.0000		9999	0	0	0	0
2019/11/29 23:46:00	BASE	0.09	65	1.39	63	3.6	82	0.8	157	0	994.4	NA	0.0000		9999	0	0	0	0
2019/11/29 23:47:00	BASE	0.44	60	1.39	63	3.6	82	0.8	156	0	994.4	NA	0.0000		9999	0	0	0	0
2019/11/29 23:48:00	BASE	0.60	61	1.39	74	3.6	81	0.7	155	0	994.4	NA	0.0000		9999	0	0	0	0
2019/11/29 23:49:00	BASE	0.26	57	1.39	74	3.5	81	0.6	153	0	994.4	NA	0.0000		9999	0	0	0	0
2019/11/29 23:50:00	BASE	0.00	53	1.39	74	3.5	81	0.6	151	0	994.4	NA	0.0000		9999	0	0	0	0
2019/11/29 23:51:00	BASE	0.00	52	1.39	74	3.5	81	0.7	150	0	994.4	NA	0.0000		9999	0	0	0	0
2019/11/29 23:52:00	BASE	0.00	47	1.39	74	3.6	81	0.7	148	0	994.4	NA	0.0000		9999	0	0	0	0
2019/11/29 23:53:00	BASE	0.00	44	1.39	74	3.6	81	0.7	146	0	994.4	NA	0.0000		9999	0	0	0	0
2019/11/29 23:54:00	BASE	0.00	35	1.39	74	3.7	81	0.7	145	0	994.4	NA	0.0000		9999	0	0	0	0
2019/11/29 23:55:00	BASE	0.05	39	1.39	74	3.8	80	0.7	143	0	994.4	NA	0.0000		9999	0	0	0	0
2019/11/29 23:56:00	BASE	0.05	56	1.39	74	3.8	80	0.7	141	0	994.4	NA	0.0000		9999	0	0	0	0
2019/11/29 23:57:00	BASE	0.00	50	1.39	74	3.8	80	0.7	140	0	994.4	NA	0.0000		9999	0	0	0	0
2019/11/29 23:58:00	BASE	0.00	47	1.08	65	3.8	80	0.6	139	0	994.4	NA	0.0000		9999	0	0	0	0
2019/11/29 23:59:00	BASE	0.00	51	1.08	65	3.7	80	0.6	139	0	994.4	NA	0.0000		9999	0	0	0	0